<?xml version="1.0" encoding="UTF-8" standalone="no" ?>
<gpx xmlns="http://www.topografix.com/GPX/1/1" xmlns:xsi="http://www.w3.org/2001/XMLSchema-instance" xsi:schemaLocation="http://www.topografix.com/GPX/1/1 http://www.topografix.com/GPX/1/1/gpx.xsd" version="1.1" creator="VisuGPX - https://www.visugpx.com">
  <metadata>
    <name>Chasse en Savoie</name>
    <desc><![CDATA[Ballade en Savoie à a recherche de Chamois]]></desc>
  </metadata>
  <wpt lat="45.42383" lon="6.69478">
    <ele>1190</ele>
  </wpt>
  <wpt lat="45.41425" lon="6.68666">
    <ele>1936</ele>
    <name><![CDATA[WP 02BARAQUE-]]></name>
  </wpt>
  <wpt lat="45.41193" lon="6.68526">
    <ele>1987</ele>
    <name><![CDATA[WP 03POSTE]]></name>
  </wpt>
  <wpt lat="45.41217" lon="6.68215">
    <ele>2119</ele>
    <name><![CDATA[WP 04ETERLOU]]></name>
  </wpt>
  <wpt lat="45.41529" lon="6.67944">
    <ele>2161</ele>
    <name><![CDATA[WP 05TIR]]></name>
  </wpt>
  <wpt lat="45.43318" lon="6.70005">
    <ele>1404</ele>
  </wpt>
  <wpt lat="45.43735" lon="6.70007">
    <ele>1545</ele>
  </wpt>
  <wpt lat="45.43577" lon="6.69972">
    <ele>1414</ele>
  </wpt>
  <wpt lat="45.43034" lon="6.69846">
    <ele>1339</ele>
  </wpt>
  <wpt lat="45.43034" lon="6.69846">
    <ele>1339</ele>
  </wpt>
  <trk>
    <name><![CDATA[Chasse en Savoie_1]]></name>
    <trkseg>
      <trkpt lat="45.42383" lon="6.69478">
        <ele>1190</ele>
        <time>2010-09-19T05:02:16Z</time>
      </trkpt>
      <trkpt lat="45.42381" lon="6.69463">
        <ele>1193</ele>
        <time>2010-09-19T05:02:27Z</time>
      </trkpt>
      <trkpt lat="45.42373" lon="6.6946">
        <ele>1195</ele>
        <time>2010-09-19T05:02:41Z</time>
      </trkpt>
      <trkpt lat="45.42364" lon="6.69453">
        <ele>1197</ele>
        <time>2010-09-19T05:03:20Z</time>
      </trkpt>
      <trkpt lat="45.42362" lon="6.69441">
        <ele>1200</ele>
        <time>2010-09-19T05:03:49Z</time>
      </trkpt>
      <trkpt lat="45.42354" lon="6.69432">
        <ele>1204</ele>
        <time>2010-09-19T05:04:14Z</time>
      </trkpt>
      <trkpt lat="45.42363" lon="6.69439">
        <ele>1200</ele>
        <time>2010-09-19T05:04:37Z</time>
      </trkpt>
      <trkpt lat="45.42371" lon="6.69429">
        <ele>1201</ele>
        <time>2010-09-19T05:04:54Z</time>
      </trkpt>
      <trkpt lat="45.4238" lon="6.69431">
        <ele>1199</ele>
        <time>2010-09-19T05:05:10Z</time>
      </trkpt>
      <trkpt lat="45.42388" lon="6.69423">
        <ele>1199</ele>
        <time>2010-09-19T05:05:16Z</time>
      </trkpt>
      <trkpt lat="45.42385" lon="6.6941">
        <ele>1223</ele>
        <time>2010-09-19T05:05:24Z</time>
      </trkpt>
      <trkpt lat="45.42392" lon="6.69398">
        <ele>1224</ele>
        <time>2010-09-19T05:05:38Z</time>
      </trkpt>
      <trkpt lat="45.42383" lon="6.69401">
        <ele>1225</ele>
        <time>2010-09-19T05:05:50Z</time>
      </trkpt>
      <trkpt lat="45.42393" lon="6.69395">
        <ele>1224</ele>
        <time>2010-09-19T05:07:00Z</time>
      </trkpt>
      <trkpt lat="45.42404" lon="6.69395">
        <ele>1222</ele>
        <time>2010-09-19T05:07:12Z</time>
      </trkpt>
      <trkpt lat="45.42412" lon="6.69389">
        <ele>1224</ele>
        <time>2010-09-19T05:07:28Z</time>
      </trkpt>
      <trkpt lat="45.42421" lon="6.69395">
        <ele>1208</ele>
        <time>2010-09-19T05:07:40Z</time>
      </trkpt>
      <trkpt lat="45.42429" lon="6.69388">
        <ele>1209</ele>
        <time>2010-09-19T05:07:47Z</time>
      </trkpt>
      <trkpt lat="45.42437" lon="6.6938">
        <ele>1211</ele>
        <time>2010-09-19T05:08:03Z</time>
      </trkpt>
      <trkpt lat="45.42445" lon="6.6937">
        <ele>1213</ele>
        <time>2010-09-19T05:08:11Z</time>
      </trkpt>
      <trkpt lat="45.4245" lon="6.69356">
        <ele>1215</ele>
        <time>2010-09-19T05:08:20Z</time>
      </trkpt>
      <trkpt lat="45.42459" lon="6.69353">
        <ele>1214</ele>
        <time>2010-09-19T05:08:49Z</time>
      </trkpt>
      <trkpt lat="45.42464" lon="6.6934">
        <ele>1215</ele>
        <time>2010-09-19T05:08:57Z</time>
      </trkpt>
      <trkpt lat="45.42468" lon="6.69327">
        <ele>1244</ele>
        <time>2010-09-19T05:09:15Z</time>
      </trkpt>
      <trkpt lat="45.42478" lon="6.69328">
        <ele>1238</ele>
        <time>2010-09-19T05:09:23Z</time>
      </trkpt>
      <trkpt lat="45.42481" lon="6.69316">
        <ele>1241</ele>
        <time>2010-09-19T05:09:40Z</time>
      </trkpt>
      <trkpt lat="45.42488" lon="6.69306">
        <ele>1243</ele>
        <time>2010-09-19T05:09:47Z</time>
      </trkpt>
      <trkpt lat="45.42491" lon="6.69293">
        <ele>1248</ele>
        <time>2010-09-19T05:10:04Z</time>
      </trkpt>
      <trkpt lat="45.42498" lon="6.69284">
        <ele>1251</ele>
        <time>2010-09-19T05:10:22Z</time>
      </trkpt>
      <trkpt lat="45.42505" lon="6.69275">
        <ele>1226</ele>
        <time>2010-09-19T05:10:28Z</time>
      </trkpt>
      <trkpt lat="45.42497" lon="6.69269">
        <ele>1254</ele>
        <time>2010-09-19T05:10:41Z</time>
      </trkpt>
      <trkpt lat="45.42488" lon="6.69274">
        <ele>1254</ele>
        <time>2010-09-19T05:10:51Z</time>
      </trkpt>
      <trkpt lat="45.42478" lon="6.69275">
        <ele>1256</ele>
        <time>2010-09-19T05:10:59Z</time>
      </trkpt>
      <trkpt lat="45.42469" lon="6.69281">
        <ele>1256</ele>
        <time>2010-09-19T05:11:17Z</time>
      </trkpt>
      <trkpt lat="45.42459" lon="6.69282">
        <ele>1259</ele>
        <time>2010-09-19T05:11:37Z</time>
      </trkpt>
      <trkpt lat="45.42452" lon="6.6929">
        <ele>1258</ele>
        <time>2010-09-19T05:11:48Z</time>
      </trkpt>
      <trkpt lat="45.42441" lon="6.6929">
        <ele>1261</ele>
        <time>2010-09-19T05:11:57Z</time>
      </trkpt>
      <trkpt lat="45.42436" lon="6.69276">
        <ele>1269</ele>
        <time>2010-09-19T05:12:15Z</time>
      </trkpt>
      <trkpt lat="45.42426" lon="6.69275">
        <ele>1274</ele>
        <time>2010-09-19T05:12:23Z</time>
      </trkpt>
      <trkpt lat="45.42416" lon="6.69279">
        <ele>1289</ele>
        <time>2010-09-19T05:12:28Z</time>
      </trkpt>
      <trkpt lat="45.42424" lon="6.69288">
        <ele>1265</ele>
        <time>2010-09-19T05:12:38Z</time>
      </trkpt>
      <trkpt lat="45.42416" lon="6.69295">
        <ele>1281</ele>
        <time>2010-09-19T05:12:51Z</time>
      </trkpt>
      <trkpt lat="45.42404" lon="6.69299">
        <ele>1279</ele>
        <time>2010-09-19T05:12:54Z</time>
      </trkpt>
      <trkpt lat="45.42413" lon="6.69304">
        <ele>1275</ele>
        <time>2010-09-19T05:13:06Z</time>
      </trkpt>
      <trkpt lat="45.42422" lon="6.693">
        <ele>1260</ele>
        <time>2010-09-19T05:13:15Z</time>
      </trkpt>
      <trkpt lat="45.42432" lon="6.69299">
        <ele>1259</ele>
        <time>2010-09-19T05:13:19Z</time>
      </trkpt>
      <trkpt lat="45.42444" lon="6.69287">
        <ele>1261</ele>
        <time>2010-09-19T05:13:27Z</time>
      </trkpt>
      <trkpt lat="45.42453" lon="6.69281">
        <ele>1261</ele>
        <time>2010-09-19T05:13:34Z</time>
      </trkpt>
      <trkpt lat="45.42455" lon="6.69268">
        <ele>1264</ele>
        <time>2010-09-19T05:13:49Z</time>
      </trkpt>
      <trkpt lat="45.42461" lon="6.69258">
        <ele>1264</ele>
        <time>2010-09-19T05:13:53Z</time>
      </trkpt>
      <trkpt lat="45.42461" lon="6.69244">
        <ele>1292</ele>
        <time>2010-09-19T05:14:33Z</time>
      </trkpt>
      <trkpt lat="45.42464" lon="6.69231">
        <ele>1293</ele>
        <time>2010-09-19T05:14:47Z</time>
      </trkpt>
      <trkpt lat="45.42471" lon="6.69222">
        <ele>1292</ele>
        <time>2010-09-19T05:14:56Z</time>
      </trkpt>
      <trkpt lat="45.42481" lon="6.69216">
        <ele>1291</ele>
        <time>2010-09-19T05:15:05Z</time>
      </trkpt>
      <trkpt lat="45.42472" lon="6.69209">
        <ele>1295</ele>
        <time>2010-09-19T05:15:11Z</time>
      </trkpt>
      <trkpt lat="45.42476" lon="6.69196">
        <ele>1297</ele>
        <time>2010-09-19T05:15:30Z</time>
      </trkpt>
      <trkpt lat="45.42467" lon="6.6919">
        <ele>1300</ele>
        <time>2010-09-19T05:15:38Z</time>
      </trkpt>
      <trkpt lat="45.42455" lon="6.69191">
        <ele>1305</ele>
        <time>2010-09-19T05:15:43Z</time>
      </trkpt>
      <trkpt lat="45.42445" lon="6.69197">
        <ele>1308</ele>
        <time>2010-09-19T05:16:09Z</time>
      </trkpt>
      <trkpt lat="45.42435" lon="6.69198">
        <ele>1311</ele>
        <time>2010-09-19T05:16:12Z</time>
      </trkpt>
      <trkpt lat="45.42426" lon="6.692">
        <ele>1313</ele>
        <time>2010-09-19T05:16:45Z</time>
      </trkpt>
      <trkpt lat="45.42416" lon="6.69201">
        <ele>1340</ele>
        <time>2010-09-19T05:16:56Z</time>
      </trkpt>
      <trkpt lat="45.42416" lon="6.69215">
        <ele>1335</ele>
        <time>2010-09-19T05:17:21Z</time>
      </trkpt>
      <trkpt lat="45.42427" lon="6.69211">
        <ele>1309</ele>
        <time>2010-09-19T05:17:44Z</time>
      </trkpt>
      <trkpt lat="45.42433" lon="6.692">
        <ele>1311</ele>
        <time>2010-09-19T05:17:59Z</time>
      </trkpt>
      <trkpt lat="45.42444" lon="6.69192">
        <ele>1310</ele>
        <time>2010-09-19T05:18:12Z</time>
      </trkpt>
      <trkpt lat="45.42452" lon="6.69183">
        <ele>1308</ele>
        <time>2010-09-19T05:18:26Z</time>
      </trkpt>
      <trkpt lat="45.42448" lon="6.69171">
        <ele>1313</ele>
        <time>2010-09-19T05:18:44Z</time>
      </trkpt>
      <trkpt lat="45.4245" lon="6.69156">
        <ele>1342</ele>
        <time>2010-09-19T05:19:06Z</time>
      </trkpt>
      <trkpt lat="45.42442" lon="6.6915">
        <ele>1346</ele>
        <time>2010-09-19T05:20:01Z</time>
      </trkpt>
      <trkpt lat="45.42431" lon="6.69146">
        <ele>1349</ele>
        <time>2010-09-19T05:20:06Z</time>
      </trkpt>
      <trkpt lat="45.42422" lon="6.69151">
        <ele>1350</ele>
        <time>2010-09-19T05:20:11Z</time>
      </trkpt>
      <trkpt lat="45.4243" lon="6.69157">
        <ele>1348</ele>
        <time>2010-09-19T05:20:29Z</time>
      </trkpt>
      <trkpt lat="45.4242" lon="6.69166">
        <ele>1349</ele>
        <time>2010-09-19T05:20:37Z</time>
      </trkpt>
      <trkpt lat="45.42413" lon="6.69178">
        <ele>1347</ele>
        <time>2010-09-19T05:20:50Z</time>
      </trkpt>
      <trkpt lat="45.42404" lon="6.69177">
        <ele>1347</ele>
        <time>2010-09-19T05:20:55Z</time>
      </trkpt>
      <trkpt lat="45.42394" lon="6.69176">
        <ele>1348</ele>
        <time>2010-09-19T05:21:04Z</time>
      </trkpt>
      <trkpt lat="45.42381" lon="6.69176">
        <ele>1350</ele>
        <time>2010-09-19T05:21:08Z</time>
      </trkpt>
      <trkpt lat="45.4237" lon="6.69174">
        <ele>1353</ele>
        <time>2010-09-19T05:21:13Z</time>
      </trkpt>
      <trkpt lat="45.42358" lon="6.69175">
        <ele>1359</ele>
        <time>2010-09-19T05:21:18Z</time>
      </trkpt>
      <trkpt lat="45.42365" lon="6.69187">
        <ele>1352</ele>
        <time>2010-09-19T05:21:28Z</time>
      </trkpt>
      <trkpt lat="45.42377" lon="6.69187">
        <ele>1349</ele>
        <time>2010-09-19T05:21:37Z</time>
      </trkpt>
      <trkpt lat="45.42388" lon="6.69183">
        <ele>1347</ele>
        <time>2010-09-19T05:21:43Z</time>
      </trkpt>
      <trkpt lat="45.42378" lon="6.69178">
        <ele>1350</ele>
        <time>2010-09-19T05:21:44Z</time>
      </trkpt>
      <trkpt lat="45.42367" lon="6.69174">
        <ele>1355</ele>
        <time>2010-09-19T05:21:53Z</time>
      </trkpt>
      <trkpt lat="45.42357" lon="6.69171">
        <ele>1360</ele>
        <time>2010-09-19T05:22:01Z</time>
      </trkpt>
      <trkpt lat="45.4235" lon="6.69179">
        <ele>1362</ele>
        <time>2010-09-19T05:22:19Z</time>
      </trkpt>
      <trkpt lat="45.4234" lon="6.6918">
        <ele>1366</ele>
        <time>2010-09-19T05:22:31Z</time>
      </trkpt>
      <trkpt lat="45.42329" lon="6.69178">
        <ele>1372</ele>
        <time>2010-09-19T05:22:42Z</time>
      </trkpt>
      <trkpt lat="45.4232" lon="6.69182">
        <ele>1366</ele>
        <time>2010-09-19T05:23:11Z</time>
      </trkpt>
      <trkpt lat="45.4233" lon="6.69184">
        <ele>1367</ele>
        <time>2010-09-19T05:23:43Z</time>
      </trkpt>
      <trkpt lat="45.42335" lon="6.69173">
        <ele>1376</ele>
        <time>2010-09-19T05:24:09Z</time>
      </trkpt>
      <trkpt lat="45.42343" lon="6.69164">
        <ele>1389</ele>
        <time>2010-09-19T05:24:21Z</time>
      </trkpt>
      <trkpt lat="45.42354" lon="6.6916">
        <ele>1390</ele>
        <time>2010-09-19T05:24:36Z</time>
      </trkpt>
      <trkpt lat="45.42358" lon="6.69146">
        <ele>1393</ele>
        <time>2010-09-19T05:24:47Z</time>
      </trkpt>
      <trkpt lat="45.42365" lon="6.69137">
        <ele>1394</ele>
        <time>2010-09-19T05:24:54Z</time>
      </trkpt>
      <trkpt lat="45.42367" lon="6.69124">
        <ele>1399</ele>
        <time>2010-09-19T05:25:30Z</time>
      </trkpt>
      <trkpt lat="45.42373" lon="6.69113">
        <ele>1401</ele>
        <time>2010-09-19T05:25:56Z</time>
      </trkpt>
      <trkpt lat="45.42382" lon="6.6911">
        <ele>1399</ele>
        <time>2010-09-19T05:26:00Z</time>
      </trkpt>
      <trkpt lat="45.42391" lon="6.69103">
        <ele>1400</ele>
        <time>2010-09-19T05:26:08Z</time>
      </trkpt>
      <trkpt lat="45.424" lon="6.691">
        <ele>1399</ele>
        <time>2010-09-19T05:26:13Z</time>
      </trkpt>
      <trkpt lat="45.42399" lon="6.69086">
        <ele>1402</ele>
        <time>2010-09-19T05:26:34Z</time>
      </trkpt>
      <trkpt lat="45.42388" lon="6.69089">
        <ele>1403</ele>
        <time>2010-09-19T05:26:59Z</time>
      </trkpt>
      <trkpt lat="45.42379" lon="6.69091">
        <ele>1405</ele>
        <time>2010-09-19T05:27:01Z</time>
      </trkpt>
      <trkpt lat="45.42368" lon="6.6909">
        <ele>1409</ele>
        <time>2010-09-19T05:27:03Z</time>
      </trkpt>
      <trkpt lat="45.42359" lon="6.69088">
        <ele>1415</ele>
        <time>2010-09-19T05:27:32Z</time>
      </trkpt>
      <trkpt lat="45.42349" lon="6.69081">
        <ele>1447</ele>
        <time>2010-09-19T05:27:39Z</time>
      </trkpt>
      <trkpt lat="45.42338" lon="6.69086">
        <ele>1436</ele>
        <time>2010-09-19T05:27:44Z</time>
      </trkpt>
      <trkpt lat="45.42328" lon="6.69093">
        <ele>1432</ele>
        <time>2010-09-19T05:28:07Z</time>
      </trkpt>
      <trkpt lat="45.42323" lon="6.69104">
        <ele>1423</ele>
        <time>2010-09-19T05:28:27Z</time>
      </trkpt>
      <trkpt lat="45.42314" lon="6.6911">
        <ele>1417</ele>
        <time>2010-09-19T05:28:36Z</time>
      </trkpt>
      <trkpt lat="45.42305" lon="6.69117">
        <ele>1413</ele>
        <time>2010-09-19T05:28:50Z</time>
      </trkpt>
      <trkpt lat="45.42316" lon="6.69118">
        <ele>1414</ele>
        <time>2010-09-19T05:28:57Z</time>
      </trkpt>
      <trkpt lat="45.42325" lon="6.69116">
        <ele>1416</ele>
        <time>2010-09-19T05:29:01Z</time>
      </trkpt>
      <trkpt lat="45.42325" lon="6.69103">
        <ele>1424</ele>
        <time>2010-09-19T05:29:21Z</time>
      </trkpt>
      <trkpt lat="45.42335" lon="6.69102">
        <ele>1419</ele>
        <time>2010-09-19T05:29:38Z</time>
      </trkpt>
      <trkpt lat="45.42326" lon="6.69097">
        <ele>1428</ele>
        <time>2010-09-19T05:30:04Z</time>
      </trkpt>
      <trkpt lat="45.42328" lon="6.69082">
        <ele>1450</ele>
        <time>2010-09-19T05:30:16Z</time>
      </trkpt>
      <trkpt lat="45.42336" lon="6.69073">
        <ele>1448</ele>
        <time>2010-09-19T05:30:26Z</time>
      </trkpt>
      <trkpt lat="45.42342" lon="6.69062">
        <ele>1451</ele>
        <time>2010-09-19T05:30:41Z</time>
      </trkpt>
      <trkpt lat="45.42348" lon="6.6905">
        <ele>1455</ele>
        <time>2010-09-19T05:30:45Z</time>
      </trkpt>
      <trkpt lat="45.42357" lon="6.69044">
        <ele>1456</ele>
        <time>2010-09-19T05:31:09Z</time>
      </trkpt>
      <trkpt lat="45.42364" lon="6.69033">
        <ele>1458</ele>
        <time>2010-09-19T05:31:26Z</time>
      </trkpt>
      <trkpt lat="45.42358" lon="6.69023">
        <ele>1464</ele>
        <time>2010-09-19T05:31:31Z</time>
      </trkpt>
      <trkpt lat="45.42349" lon="6.69013">
        <ele>1474</ele>
        <time>2010-09-19T05:31:40Z</time>
      </trkpt>
      <trkpt lat="45.42358" lon="6.6901">
        <ele>1470</ele>
        <time>2010-09-19T05:31:45Z</time>
      </trkpt>
      <trkpt lat="45.42359" lon="6.68996">
        <ele>1497</ele>
        <time>2010-09-19T05:32:11Z</time>
      </trkpt>
      <trkpt lat="45.42349" lon="6.68995">
        <ele>1499</ele>
        <time>2010-09-19T05:32:25Z</time>
      </trkpt>
      <trkpt lat="45.4234" lon="6.69006">
        <ele>1486</ele>
        <time>2010-09-19T05:32:40Z</time>
      </trkpt>
      <trkpt lat="45.42331" lon="6.69009">
        <ele>1492</ele>
        <time>2010-09-19T05:32:49Z</time>
      </trkpt>
      <trkpt lat="45.42318" lon="6.69007">
        <ele>1488</ele>
        <time>2010-09-19T05:32:53Z</time>
      </trkpt>
      <trkpt lat="45.42307" lon="6.69008">
        <ele>1484</ele>
        <time>2010-09-19T05:32:55Z</time>
      </trkpt>
      <trkpt lat="45.42317" lon="6.69011">
        <ele>1485</ele>
        <time>2010-09-19T05:33:03Z</time>
      </trkpt>
      <trkpt lat="45.42305" lon="6.69008">
        <ele>1483</ele>
        <time>2010-09-19T05:33:11Z</time>
      </trkpt>
      <trkpt lat="45.42292" lon="6.6901">
        <ele>1482</ele>
        <time>2010-09-19T05:33:15Z</time>
      </trkpt>
      <trkpt lat="45.42299" lon="6.6902">
        <ele>1479</ele>
        <time>2010-09-19T05:33:50Z</time>
      </trkpt>
      <trkpt lat="45.42295" lon="6.69033">
        <ele>1475</ele>
        <time>2010-09-19T05:34:11Z</time>
      </trkpt>
      <trkpt lat="45.42306" lon="6.69032">
        <ele>1476</ele>
        <time>2010-09-19T05:34:16Z</time>
      </trkpt>
      <trkpt lat="45.42315" lon="6.69028">
        <ele>1478</ele>
        <time>2010-09-19T05:34:20Z</time>
      </trkpt>
      <trkpt lat="45.423" lon="6.69027">
        <ele>1477</ele>
        <time>2010-09-19T05:34:31Z</time>
      </trkpt>
      <trkpt lat="45.4229" lon="6.69027">
        <ele>1477</ele>
        <time>2010-09-19T05:34:33Z</time>
      </trkpt>
      <trkpt lat="45.42281" lon="6.69029">
        <ele>1476</ele>
        <time>2010-09-19T05:34:55Z</time>
      </trkpt>
      <trkpt lat="45.42274" lon="6.69038">
        <ele>1473</ele>
        <time>2010-09-19T05:35:11Z</time>
      </trkpt>
      <trkpt lat="45.42271" lon="6.69019">
        <ele>1482</ele>
        <time>2010-09-19T05:36:10Z</time>
      </trkpt>
      <trkpt lat="45.42261" lon="6.69022">
        <ele>1482</ele>
        <time>2010-09-19T05:36:23Z</time>
      </trkpt>
      <trkpt lat="45.42262" lon="6.69008">
        <ele>1490</ele>
        <time>2010-09-19T05:36:35Z</time>
      </trkpt>
      <trkpt lat="45.42271" lon="6.69">
        <ele>1514</ele>
        <time>2010-09-19T05:37:10Z</time>
      </trkpt>
      <trkpt lat="45.42278" lon="6.6899">
        <ele>1517</ele>
        <time>2010-09-19T05:37:26Z</time>
      </trkpt>
      <trkpt lat="45.42273" lon="6.69001">
        <ele>1487</ele>
        <time>2010-09-19T05:37:55Z</time>
      </trkpt>
      <trkpt lat="45.42283" lon="6.69">
        <ele>1516</ele>
        <time>2010-09-19T05:38:08Z</time>
      </trkpt>
      <trkpt lat="45.4229" lon="6.6899">
        <ele>1518</ele>
        <time>2010-09-19T05:38:15Z</time>
      </trkpt>
      <trkpt lat="45.423" lon="6.68985">
        <ele>1518</ele>
        <time>2010-09-19T05:38:23Z</time>
      </trkpt>
      <trkpt lat="45.42306" lon="6.68974">
        <ele>1520</ele>
        <time>2010-09-19T05:38:37Z</time>
      </trkpt>
      <trkpt lat="45.42311" lon="6.68961">
        <ele>1523</ele>
        <time>2010-09-19T05:38:45Z</time>
      </trkpt>
      <trkpt lat="45.42302" lon="6.68956">
        <ele>1525</ele>
        <time>2010-09-19T05:38:57Z</time>
      </trkpt>
      <trkpt lat="45.42313" lon="6.6896">
        <ele>1523</ele>
        <time>2010-09-19T05:39:08Z</time>
      </trkpt>
      <trkpt lat="45.42323" lon="6.68957">
        <ele>1524</ele>
        <time>2010-09-19T05:39:12Z</time>
      </trkpt>
      <trkpt lat="45.42334" lon="6.68956">
        <ele>1507</ele>
        <time>2010-09-19T05:39:15Z</time>
      </trkpt>
      <trkpt lat="45.42342" lon="6.68948">
        <ele>1509</ele>
        <time>2010-09-19T05:39:30Z</time>
      </trkpt>
      <trkpt lat="45.42349" lon="6.6894">
        <ele>1511</ele>
        <time>2010-09-19T05:39:38Z</time>
      </trkpt>
      <trkpt lat="45.42338" lon="6.68936">
        <ele>1517</ele>
        <time>2010-09-19T05:39:52Z</time>
      </trkpt>
      <trkpt lat="45.42326" lon="6.6894">
        <ele>1529</ele>
        <time>2010-09-19T05:39:56Z</time>
      </trkpt>
      <trkpt lat="45.42316" lon="6.68941">
        <ele>1528</ele>
        <time>2010-09-19T05:40:01Z</time>
      </trkpt>
      <trkpt lat="45.42306" lon="6.68943">
        <ele>1528</ele>
        <time>2010-09-19T05:40:13Z</time>
      </trkpt>
      <trkpt lat="45.42319" lon="6.68942">
        <ele>1528</ele>
        <time>2010-09-19T05:40:19Z</time>
      </trkpt>
      <trkpt lat="45.4233" lon="6.6894">
        <ele>1529</ele>
        <time>2010-09-19T05:40:21Z</time>
      </trkpt>
      <trkpt lat="45.42344" lon="6.68937">
        <ele>1514</ele>
        <time>2010-09-19T05:40:22Z</time>
      </trkpt>
      <trkpt lat="45.42352" lon="6.68927">
        <ele>1516</ele>
        <time>2010-09-19T05:40:29Z</time>
      </trkpt>
      <trkpt lat="45.42359" lon="6.68917">
        <ele>1513</ele>
        <time>2010-09-19T05:40:37Z</time>
      </trkpt>
      <trkpt lat="45.42367" lon="6.68909">
        <ele>1535</ele>
        <time>2010-09-19T05:40:42Z</time>
      </trkpt>
      <trkpt lat="45.42358" lon="6.68899">
        <ele>1538</ele>
        <time>2010-09-19T05:40:50Z</time>
      </trkpt>
      <trkpt lat="45.42363" lon="6.68887">
        <ele>1540</ele>
        <time>2010-09-19T05:41:01Z</time>
      </trkpt>
      <trkpt lat="45.42367" lon="6.68876">
        <ele>1542</ele>
        <time>2010-09-19T05:41:17Z</time>
      </trkpt>
      <trkpt lat="45.42376" lon="6.68871">
        <ele>1541</ele>
        <time>2010-09-19T05:41:21Z</time>
      </trkpt>
      <trkpt lat="45.42367" lon="6.68864">
        <ele>1545</ele>
        <time>2010-09-19T05:41:31Z</time>
      </trkpt>
      <trkpt lat="45.42357" lon="6.68867">
        <ele>1547</ele>
        <time>2010-09-19T05:41:33Z</time>
      </trkpt>
      <trkpt lat="45.42347" lon="6.68869">
        <ele>1549</ele>
        <time>2010-09-19T05:41:37Z</time>
      </trkpt>
      <trkpt lat="45.42355" lon="6.68862">
        <ele>1549</ele>
        <time>2010-09-19T05:41:58Z</time>
      </trkpt>
      <trkpt lat="45.42361" lon="6.68851">
        <ele>1551</ele>
        <time>2010-09-19T05:42:04Z</time>
      </trkpt>
      <trkpt lat="45.42374" lon="6.68844">
        <ele>1548</ele>
        <time>2010-09-19T05:42:07Z</time>
      </trkpt>
      <trkpt lat="45.42366" lon="6.68837">
        <ele>1552</ele>
        <time>2010-09-19T05:42:19Z</time>
      </trkpt>
      <trkpt lat="45.42374" lon="6.68834">
        <ele>1549</ele>
        <time>2010-09-19T05:42:25Z</time>
      </trkpt>
      <trkpt lat="45.42385" lon="6.68833">
        <ele>1574</ele>
        <time>2010-09-19T05:42:29Z</time>
      </trkpt>
      <trkpt lat="45.42375" lon="6.68832">
        <ele>1578</ele>
        <time>2010-09-19T05:42:41Z</time>
      </trkpt>
      <trkpt lat="45.42384" lon="6.68822">
        <ele>1577</ele>
        <time>2010-09-19T05:43:00Z</time>
      </trkpt>
      <trkpt lat="45.42373" lon="6.68817">
        <ele>1581</ele>
        <time>2010-09-19T05:43:20Z</time>
      </trkpt>
      <trkpt lat="45.42361" lon="6.68817">
        <ele>1583</ele>
        <time>2010-09-19T05:43:39Z</time>
      </trkpt>
      <trkpt lat="45.42352" lon="6.68822">
        <ele>1584</ele>
        <time>2010-09-19T05:43:42Z</time>
      </trkpt>
      <trkpt lat="45.42342" lon="6.68815">
        <ele>1585</ele>
        <time>2010-09-19T05:44:10Z</time>
      </trkpt>
      <trkpt lat="45.42326" lon="6.68815">
        <ele>1603</ele>
        <time>2010-09-19T05:44:15Z</time>
      </trkpt>
      <trkpt lat="45.42314" lon="6.68817">
        <ele>1606</ele>
        <time>2010-09-19T05:44:17Z</time>
      </trkpt>
      <trkpt lat="45.42326" lon="6.68821">
        <ele>1599</ele>
        <time>2010-09-19T05:44:44Z</time>
      </trkpt>
      <trkpt lat="45.42315" lon="6.68819">
        <ele>1605</ele>
        <time>2010-09-19T05:44:48Z</time>
      </trkpt>
      <trkpt lat="45.42305" lon="6.68825">
        <ele>1607</ele>
        <time>2010-09-19T05:45:02Z</time>
      </trkpt>
      <trkpt lat="45.42296" lon="6.68823">
        <ele>1612</ele>
        <time>2010-09-19T05:45:06Z</time>
      </trkpt>
      <trkpt lat="45.42303" lon="6.68833">
        <ele>1607</ele>
        <time>2010-09-19T05:45:16Z</time>
      </trkpt>
      <trkpt lat="45.42293" lon="6.68827">
        <ele>1611</ele>
        <time>2010-09-19T05:45:34Z</time>
      </trkpt>
      <trkpt lat="45.42282" lon="6.68831">
        <ele>1613</ele>
        <time>2010-09-19T05:45:41Z</time>
      </trkpt>
      <trkpt lat="45.42301" lon="6.68836">
        <ele>1578</ele>
        <time>2010-09-19T05:45:42Z</time>
      </trkpt>
      <trkpt lat="45.42292" lon="6.68837">
        <ele>1579</ele>
        <time>2010-09-19T05:45:46Z</time>
      </trkpt>
      <trkpt lat="45.42303" lon="6.68834">
        <ele>1578</ele>
        <time>2010-09-19T05:45:55Z</time>
      </trkpt>
      <trkpt lat="45.42314" lon="6.68836">
        <ele>1577</ele>
        <time>2010-09-19T05:45:57Z</time>
      </trkpt>
      <trkpt lat="45.42305" lon="6.6883">
        <ele>1607</ele>
        <time>2010-09-19T05:46:13Z</time>
      </trkpt>
      <trkpt lat="45.42297" lon="6.68826">
        <ele>1611</ele>
        <time>2010-09-19T05:46:17Z</time>
      </trkpt>
      <trkpt lat="45.42287" lon="6.68834">
        <ele>1581</ele>
        <time>2010-09-19T05:46:36Z</time>
      </trkpt>
      <trkpt lat="45.42276" lon="6.68833">
        <ele>1613</ele>
        <time>2010-09-19T05:46:38Z</time>
      </trkpt>
      <trkpt lat="45.42266" lon="6.68834">
        <ele>1591</ele>
        <time>2010-09-19T05:47:10Z</time>
      </trkpt>
      <trkpt lat="45.42258" lon="6.68824">
        <ele>1614</ele>
        <time>2010-09-19T05:47:51Z</time>
      </trkpt>
      <trkpt lat="45.42247" lon="6.68825">
        <ele>1617</ele>
        <time>2010-09-19T05:48:00Z</time>
      </trkpt>
      <trkpt lat="45.42238" lon="6.6882">
        <ele>1623</ele>
        <time>2010-09-19T05:48:17Z</time>
      </trkpt>
      <trkpt lat="45.42238" lon="6.68834">
        <ele>1597</ele>
        <time>2010-09-19T05:48:53Z</time>
      </trkpt>
      <trkpt lat="45.42245" lon="6.68845">
        <ele>1596</ele>
        <time>2010-09-19T05:49:04Z</time>
      </trkpt>
      <trkpt lat="45.42257" lon="6.68835">
        <ele>1599</ele>
        <time>2010-09-19T05:49:10Z</time>
      </trkpt>
      <trkpt lat="45.42262" lon="6.68822">
        <ele>1615</ele>
        <time>2010-09-19T05:49:14Z</time>
      </trkpt>
      <trkpt lat="45.4227" lon="6.68813">
        <ele>1618</ele>
        <time>2010-09-19T05:49:26Z</time>
      </trkpt>
      <trkpt lat="45.4228" lon="6.68808">
        <ele>1618</ele>
        <time>2010-09-19T05:49:43Z</time>
      </trkpt>
      <trkpt lat="45.42285" lon="6.68798">
        <ele>1621</ele>
        <time>2010-09-19T05:49:54Z</time>
      </trkpt>
      <trkpt lat="45.42291" lon="6.68787">
        <ele>1623</ele>
        <time>2010-09-19T05:50:08Z</time>
      </trkpt>
      <trkpt lat="45.42291" lon="6.688">
        <ele>1619</ele>
        <time>2010-09-19T05:50:25Z</time>
      </trkpt>
      <trkpt lat="45.42297" lon="6.6881">
        <ele>1614</ele>
        <time>2010-09-19T05:50:31Z</time>
      </trkpt>
      <trkpt lat="45.42306" lon="6.68804">
        <ele>1614</ele>
        <time>2010-09-19T05:50:35Z</time>
      </trkpt>
      <trkpt lat="45.42313" lon="6.68793">
        <ele>1617</ele>
        <time>2010-09-19T05:50:38Z</time>
      </trkpt>
      <trkpt lat="45.4232" lon="6.68782">
        <ele>1619</ele>
        <time>2010-09-19T05:50:41Z</time>
      </trkpt>
      <trkpt lat="45.4233" lon="6.68772">
        <ele>1622</ele>
        <time>2010-09-19T05:50:49Z</time>
      </trkpt>
      <trkpt lat="45.42321" lon="6.68775">
        <ele>1621</ele>
        <time>2010-09-19T05:50:53Z</time>
      </trkpt>
      <trkpt lat="45.42312" lon="6.68778">
        <ele>1622</ele>
        <time>2010-09-19T05:51:02Z</time>
      </trkpt>
      <trkpt lat="45.42302" lon="6.68778">
        <ele>1623</ele>
        <time>2010-09-19T05:51:05Z</time>
      </trkpt>
      <trkpt lat="45.42312" lon="6.68768">
        <ele>1624</ele>
        <time>2010-09-19T05:51:11Z</time>
      </trkpt>
      <trkpt lat="45.42322" lon="6.68761">
        <ele>1625</ele>
        <time>2010-09-19T05:51:14Z</time>
      </trkpt>
      <trkpt lat="45.42319" lon="6.68748">
        <ele>1643</ele>
        <time>2010-09-19T05:51:28Z</time>
      </trkpt>
      <trkpt lat="45.4231" lon="6.68743">
        <ele>1651</ele>
        <time>2010-09-19T05:51:35Z</time>
      </trkpt>
      <trkpt lat="45.42319" lon="6.68733">
        <ele>1649</ele>
        <time>2010-09-19T05:51:47Z</time>
      </trkpt>
      <trkpt lat="45.42329" lon="6.6873">
        <ele>1647</ele>
        <time>2010-09-19T05:51:49Z</time>
      </trkpt>
      <trkpt lat="45.42318" lon="6.68728">
        <ele>1652</ele>
        <time>2010-09-19T05:51:59Z</time>
      </trkpt>
      <trkpt lat="45.42304" lon="6.68735">
        <ele>1655</ele>
        <time>2010-09-19T05:52:09Z</time>
      </trkpt>
      <trkpt lat="45.42309" lon="6.68723">
        <ele>1656</ele>
        <time>2010-09-19T05:52:29Z</time>
      </trkpt>
      <trkpt lat="45.42318" lon="6.6871">
        <ele>1658</ele>
        <time>2010-09-19T05:52:35Z</time>
      </trkpt>
      <trkpt lat="45.4235" lon="6.6869">
        <ele>1638</ele>
        <time>2010-09-19T05:52:53Z</time>
      </trkpt>
      <trkpt lat="45.42334" lon="6.6869">
        <ele>1641</ele>
        <time>2010-09-19T05:52:54Z</time>
      </trkpt>
      <trkpt lat="45.42344" lon="6.68687">
        <ele>1641</ele>
        <time>2010-09-19T05:52:58Z</time>
      </trkpt>
      <trkpt lat="45.42354" lon="6.68687">
        <ele>1638</ele>
        <time>2010-09-19T05:53:05Z</time>
      </trkpt>
      <trkpt lat="45.42364" lon="6.68685">
        <ele>1636</ele>
        <time>2010-09-19T05:53:11Z</time>
      </trkpt>
      <trkpt lat="45.42374" lon="6.6868">
        <ele>1635</ele>
        <time>2010-09-19T05:53:21Z</time>
      </trkpt>
      <trkpt lat="45.42362" lon="6.68689">
        <ele>1636</ele>
        <time>2010-09-19T05:53:33Z</time>
      </trkpt>
      <trkpt lat="45.42352" lon="6.68696">
        <ele>1636</ele>
        <time>2010-09-19T05:53:36Z</time>
      </trkpt>
      <trkpt lat="45.4234" lon="6.68691">
        <ele>1640</ele>
        <time>2010-09-19T05:53:54Z</time>
      </trkpt>
      <trkpt lat="45.42329" lon="6.68693">
        <ele>1659</ele>
        <time>2010-09-19T05:53:57Z</time>
      </trkpt>
      <trkpt lat="45.42319" lon="6.68693">
        <ele>1661</ele>
        <time>2010-09-19T05:54:08Z</time>
      </trkpt>
      <trkpt lat="45.42309" lon="6.68695">
        <ele>1663</ele>
        <time>2010-09-19T05:54:13Z</time>
      </trkpt>
      <trkpt lat="45.42298" lon="6.68701">
        <ele>1664</ele>
        <time>2010-09-19T05:54:18Z</time>
      </trkpt>
      <trkpt lat="45.42307" lon="6.68698">
        <ele>1663</ele>
        <time>2010-09-19T05:54:26Z</time>
      </trkpt>
      <trkpt lat="45.42317" lon="6.68699">
        <ele>1660</ele>
        <time>2010-09-19T05:54:31Z</time>
      </trkpt>
      <trkpt lat="45.42308" lon="6.68704">
        <ele>1661</ele>
        <time>2010-09-19T05:54:40Z</time>
      </trkpt>
      <trkpt lat="45.42298" lon="6.68703">
        <ele>1664</ele>
        <time>2010-09-19T05:54:44Z</time>
      </trkpt>
      <trkpt lat="45.42289" lon="6.68707">
        <ele>1666</ele>
        <time>2010-09-19T05:54:52Z</time>
      </trkpt>
      <trkpt lat="45.42296" lon="6.68718">
        <ele>1662</ele>
        <time>2010-09-19T05:55:07Z</time>
      </trkpt>
      <trkpt lat="45.42307" lon="6.68717">
        <ele>1659</ele>
        <time>2010-09-19T05:55:33Z</time>
      </trkpt>
      <trkpt lat="45.42296" lon="6.68718">
        <ele>1662</ele>
        <time>2010-09-19T05:55:43Z</time>
      </trkpt>
      <trkpt lat="45.42285" lon="6.6872">
        <ele>1664</ele>
        <time>2010-09-19T05:55:51Z</time>
      </trkpt>
      <trkpt lat="45.42293" lon="6.68709">
        <ele>1664</ele>
        <time>2010-09-19T05:56:06Z</time>
      </trkpt>
      <trkpt lat="45.42281" lon="6.68706">
        <ele>1668</ele>
        <time>2010-09-19T05:56:12Z</time>
      </trkpt>
      <trkpt lat="45.42268" lon="6.68709">
        <ele>1671</ele>
        <time>2010-09-19T05:56:15Z</time>
      </trkpt>
      <trkpt lat="45.4228" lon="6.68701">
        <ele>1670</ele>
        <time>2010-09-19T05:56:26Z</time>
      </trkpt>
      <trkpt lat="45.4229" lon="6.68699">
        <ele>1667</ele>
        <time>2010-09-19T05:56:33Z</time>
      </trkpt>
      <trkpt lat="45.423" lon="6.68694">
        <ele>1665</ele>
        <time>2010-09-19T05:56:39Z</time>
      </trkpt>
      <trkpt lat="45.42299" lon="6.6868">
        <ele>1667</ele>
        <time>2010-09-19T05:57:00Z</time>
      </trkpt>
      <trkpt lat="45.42304" lon="6.68667">
        <ele>1666</ele>
        <time>2010-09-19T05:57:15Z</time>
      </trkpt>
      <trkpt lat="45.42314" lon="6.68662">
        <ele>1679</ele>
        <time>2010-09-19T05:57:18Z</time>
      </trkpt>
      <trkpt lat="45.42305" lon="6.68651">
        <ele>1686</ele>
        <time>2010-09-19T05:57:25Z</time>
      </trkpt>
      <trkpt lat="45.42294" lon="6.68644">
        <ele>1692</ele>
        <time>2010-09-19T05:57:34Z</time>
      </trkpt>
      <trkpt lat="45.42284" lon="6.68643">
        <ele>1695</ele>
        <time>2010-09-19T05:57:36Z</time>
      </trkpt>
      <trkpt lat="45.42293" lon="6.68637">
        <ele>1693</ele>
        <time>2010-09-19T05:57:42Z</time>
      </trkpt>
      <trkpt lat="45.42302" lon="6.68632">
        <ele>1691</ele>
        <time>2010-09-19T05:57:46Z</time>
      </trkpt>
      <trkpt lat="45.42312" lon="6.68628">
        <ele>1690</ele>
        <time>2010-09-19T05:57:50Z</time>
      </trkpt>
      <trkpt lat="45.4231" lon="6.68614">
        <ele>1693</ele>
        <time>2010-09-19T05:58:05Z</time>
      </trkpt>
      <trkpt lat="45.42304" lon="6.686">
        <ele>1696</ele>
        <time>2010-09-19T05:58:25Z</time>
      </trkpt>
      <trkpt lat="45.42293" lon="6.68599">
        <ele>1699</ele>
        <time>2010-09-19T05:58:34Z</time>
      </trkpt>
      <trkpt lat="45.42286" lon="6.68609">
        <ele>1700</ele>
        <time>2010-09-19T05:58:38Z</time>
      </trkpt>
      <trkpt lat="45.42276" lon="6.68607">
        <ele>1703</ele>
        <time>2010-09-19T05:58:43Z</time>
      </trkpt>
      <trkpt lat="45.42266" lon="6.68611">
        <ele>1705</ele>
        <time>2010-09-19T05:59:03Z</time>
      </trkpt>
      <trkpt lat="45.42273" lon="6.68622">
        <ele>1701</ele>
        <time>2010-09-19T05:59:14Z</time>
      </trkpt>
      <trkpt lat="45.42264" lon="6.68629">
        <ele>1702</ele>
        <time>2010-09-19T05:59:24Z</time>
      </trkpt>
      <trkpt lat="45.42254" lon="6.6863">
        <ele>1703</ele>
        <time>2010-09-19T05:59:25Z</time>
      </trkpt>
      <trkpt lat="45.42266" lon="6.6863">
        <ele>1701</ele>
        <time>2010-09-19T05:59:30Z</time>
      </trkpt>
      <trkpt lat="45.42255" lon="6.68635">
        <ele>1702</ele>
        <time>2010-09-19T05:59:38Z</time>
      </trkpt>
      <trkpt lat="45.42244" lon="6.68636">
        <ele>1725</ele>
        <time>2010-09-19T05:59:42Z</time>
      </trkpt>
      <trkpt lat="45.42232" lon="6.68643">
        <ele>1725</ele>
        <time>2010-09-19T05:59:46Z</time>
      </trkpt>
      <trkpt lat="45.42243" lon="6.68641">
        <ele>1723</ele>
        <time>2010-09-19T05:59:51Z</time>
      </trkpt>
      <trkpt lat="45.42235" lon="6.6865">
        <ele>1722</ele>
        <time>2010-09-19T06:00:21Z</time>
      </trkpt>
      <trkpt lat="45.42226" lon="6.68657">
        <ele>1723</ele>
        <time>2010-09-19T06:00:55Z</time>
      </trkpt>
      <trkpt lat="45.42218" lon="6.68668">
        <ele>1701</ele>
        <time>2010-09-19T06:01:04Z</time>
      </trkpt>
      <trkpt lat="45.4221" lon="6.68676">
        <ele>1700</ele>
        <time>2010-09-19T06:01:08Z</time>
      </trkpt>
      <trkpt lat="45.422" lon="6.68679">
        <ele>1702</ele>
        <time>2010-09-19T06:01:16Z</time>
      </trkpt>
      <trkpt lat="45.4219" lon="6.68677">
        <ele>1705</ele>
        <time>2010-09-19T06:01:26Z</time>
      </trkpt>
      <trkpt lat="45.42181" lon="6.68681">
        <ele>1707</ele>
        <time>2010-09-19T06:01:48Z</time>
      </trkpt>
      <trkpt lat="45.42172" lon="6.68684">
        <ele>1708</ele>
        <time>2010-09-19T06:01:55Z</time>
      </trkpt>
      <trkpt lat="45.42163" lon="6.6869">
        <ele>1701</ele>
        <time>2010-09-19T06:02:01Z</time>
      </trkpt>
      <trkpt lat="45.42154" lon="6.68681">
        <ele>1704</ele>
        <time>2010-09-19T06:02:23Z</time>
      </trkpt>
      <trkpt lat="45.42145" lon="6.68673">
        <ele>1702</ele>
        <time>2010-09-19T06:02:46Z</time>
      </trkpt>
      <trkpt lat="45.42136" lon="6.68681">
        <ele>1696</ele>
        <time>2010-09-19T06:02:55Z</time>
      </trkpt>
      <trkpt lat="45.42126" lon="6.68684">
        <ele>1692</ele>
        <time>2010-09-19T06:03:07Z</time>
      </trkpt>
      <trkpt lat="45.42117" lon="6.6869">
        <ele>1689</ele>
        <time>2010-09-19T06:03:24Z</time>
      </trkpt>
      <trkpt lat="45.42109" lon="6.68699">
        <ele>1685</ele>
        <time>2010-09-19T06:03:49Z</time>
      </trkpt>
      <trkpt lat="45.42099" lon="6.68703">
        <ele>1683</ele>
        <time>2010-09-19T06:03:55Z</time>
      </trkpt>
      <trkpt lat="45.42097" lon="6.68689">
        <ele>1687</ele>
        <time>2010-09-19T06:04:05Z</time>
      </trkpt>
      <trkpt lat="45.42088" lon="6.68683">
        <ele>1688</ele>
        <time>2010-09-19T06:04:18Z</time>
      </trkpt>
      <trkpt lat="45.42078" lon="6.68689">
        <ele>1668</ele>
        <time>2010-09-19T06:04:32Z</time>
      </trkpt>
      <trkpt lat="45.4208" lon="6.68675">
        <ele>1680</ele>
        <time>2010-09-19T06:04:43Z</time>
      </trkpt>
      <trkpt lat="45.42071" lon="6.68675">
        <ele>1674</ele>
        <time>2010-09-19T06:04:58Z</time>
      </trkpt>
      <trkpt lat="45.42064" lon="6.68665">
        <ele>1694</ele>
        <time>2010-09-19T06:05:29Z</time>
      </trkpt>
      <trkpt lat="45.42056" lon="6.68657">
        <ele>1694</ele>
        <time>2010-09-19T06:06:09Z</time>
      </trkpt>
      <trkpt lat="45.42047" lon="6.68653">
        <ele>1692</ele>
        <time>2010-09-19T06:06:39Z</time>
      </trkpt>
      <trkpt lat="45.42039" lon="6.68645">
        <ele>1691</ele>
        <time>2010-09-19T06:07:00Z</time>
      </trkpt>
      <trkpt lat="45.42046" lon="6.68636">
        <ele>1696</ele>
        <time>2010-09-19T06:07:28Z</time>
      </trkpt>
      <trkpt lat="45.42038" lon="6.6863">
        <ele>1695</ele>
        <time>2010-09-19T06:07:41Z</time>
      </trkpt>
      <trkpt lat="45.42029" lon="6.68626">
        <ele>1694</ele>
        <time>2010-09-19T06:07:53Z</time>
      </trkpt>
      <trkpt lat="45.42019" lon="6.68624">
        <ele>1692</ele>
        <time>2010-09-19T06:07:59Z</time>
      </trkpt>
      <trkpt lat="45.42009" lon="6.6862">
        <ele>1692</ele>
        <time>2010-09-19T06:08:22Z</time>
      </trkpt>
      <trkpt lat="45.42017" lon="6.68612">
        <ele>1695</ele>
        <time>2010-09-19T06:09:08Z</time>
      </trkpt>
      <trkpt lat="45.42008" lon="6.68607">
        <ele>1695</ele>
        <time>2010-09-19T06:09:21Z</time>
      </trkpt>
      <trkpt lat="45.41997" lon="6.68608">
        <ele>1679</ele>
        <time>2010-09-19T06:09:50Z</time>
      </trkpt>
      <trkpt lat="45.41989" lon="6.686">
        <ele>1682</ele>
        <time>2010-09-19T06:10:17Z</time>
      </trkpt>
      <trkpt lat="45.41978" lon="6.68596">
        <ele>1680</ele>
        <time>2010-09-19T06:10:24Z</time>
      </trkpt>
      <trkpt lat="45.41968" lon="6.68592">
        <ele>1678</ele>
        <time>2010-09-19T06:10:27Z</time>
      </trkpt>
      <trkpt lat="45.4196" lon="6.68585">
        <ele>1678</ele>
        <time>2010-09-19T06:10:59Z</time>
      </trkpt>
      <trkpt lat="45.41951" lon="6.68586">
        <ele>1677</ele>
        <time>2010-09-19T06:11:21Z</time>
      </trkpt>
      <trkpt lat="45.4194" lon="6.68577">
        <ele>1700</ele>
        <time>2010-09-19T06:11:33Z</time>
      </trkpt>
      <trkpt lat="45.4193" lon="6.68573">
        <ele>1697</ele>
        <time>2010-09-19T06:11:51Z</time>
      </trkpt>
      <trkpt lat="45.4192" lon="6.68573">
        <ele>1692</ele>
        <time>2010-09-19T06:11:58Z</time>
      </trkpt>
      <trkpt lat="45.41914" lon="6.68561">
        <ele>1699</ele>
        <time>2010-09-19T06:12:24Z</time>
      </trkpt>
      <trkpt lat="45.41904" lon="6.68556">
        <ele>1703</ele>
        <time>2010-09-19T06:12:49Z</time>
      </trkpt>
      <trkpt lat="45.41894" lon="6.68553">
        <ele>1706</ele>
        <time>2010-09-19T06:13:10Z</time>
      </trkpt>
      <trkpt lat="45.41886" lon="6.68563">
        <ele>1705</ele>
        <time>2010-09-19T06:13:25Z</time>
      </trkpt>
      <trkpt lat="45.41885" lon="6.6855">
        <ele>1708</ele>
        <time>2010-09-19T06:14:21Z</time>
      </trkpt>
      <trkpt lat="45.4188" lon="6.68535">
        <ele>1712</ele>
        <time>2010-09-19T06:14:32Z</time>
      </trkpt>
      <trkpt lat="45.4187" lon="6.68533">
        <ele>1713</ele>
        <time>2010-09-19T06:14:42Z</time>
      </trkpt>
      <trkpt lat="45.41861" lon="6.68535">
        <ele>1713</ele>
        <time>2010-09-19T06:14:46Z</time>
      </trkpt>
      <trkpt lat="45.41867" lon="6.68525">
        <ele>1715</ele>
        <time>2010-09-19T06:15:02Z</time>
      </trkpt>
      <trkpt lat="45.41856" lon="6.68522">
        <ele>1716</ele>
        <time>2010-09-19T06:15:07Z</time>
      </trkpt>
      <trkpt lat="45.41846" lon="6.68516">
        <ele>1719</ele>
        <time>2010-09-19T06:15:28Z</time>
      </trkpt>
      <trkpt lat="45.41837" lon="6.68507">
        <ele>1724</ele>
        <time>2010-09-19T06:15:49Z</time>
      </trkpt>
      <trkpt lat="45.41827" lon="6.68501">
        <ele>1730</ele>
        <time>2010-09-19T06:16:02Z</time>
      </trkpt>
      <trkpt lat="45.41835" lon="6.6849">
        <ele>1738</ele>
        <time>2010-09-19T06:16:33Z</time>
      </trkpt>
      <trkpt lat="45.41827" lon="6.68498">
        <ele>1737</ele>
        <time>2010-09-19T06:16:41Z</time>
      </trkpt>
      <trkpt lat="45.41818" lon="6.68507">
        <ele>1732</ele>
        <time>2010-09-19T06:16:47Z</time>
      </trkpt>
      <trkpt lat="45.41809" lon="6.68507">
        <ele>1734</ele>
        <time>2010-09-19T06:16:53Z</time>
      </trkpt>
      <trkpt lat="45.41797" lon="6.68506">
        <ele>1737</ele>
        <time>2010-09-19T06:17:35Z</time>
      </trkpt>
      <trkpt lat="45.41787" lon="6.68507">
        <ele>1739</ele>
        <time>2010-09-19T06:18:08Z</time>
      </trkpt>
      <trkpt lat="45.41797" lon="6.68504">
        <ele>1737</ele>
        <time>2010-09-19T06:18:16Z</time>
      </trkpt>
      <trkpt lat="45.41788" lon="6.68506">
        <ele>1739</ele>
        <time>2010-09-19T06:18:33Z</time>
      </trkpt>
      <trkpt lat="45.41778" lon="6.68504">
        <ele>1743</ele>
        <time>2010-09-19T06:18:41Z</time>
      </trkpt>
      <trkpt lat="45.41768" lon="6.68501">
        <ele>1747</ele>
        <time>2010-09-19T06:18:56Z</time>
      </trkpt>
      <trkpt lat="45.41758" lon="6.685">
        <ele>1751</ele>
        <time>2010-09-19T06:19:18Z</time>
      </trkpt>
      <trkpt lat="45.41749" lon="6.68501">
        <ele>1758</ele>
        <time>2010-09-19T06:19:23Z</time>
      </trkpt>
      <trkpt lat="45.41739" lon="6.68501">
        <ele>1762</ele>
        <time>2010-09-19T06:19:31Z</time>
      </trkpt>
      <trkpt lat="45.41736" lon="6.68514">
        <ele>1765</ele>
        <time>2010-09-19T06:19:45Z</time>
      </trkpt>
      <trkpt lat="45.41749" lon="6.68513">
        <ele>1762</ele>
        <time>2010-09-19T06:20:41Z</time>
      </trkpt>
      <trkpt lat="45.41739" lon="6.68516">
        <ele>1765</ele>
        <time>2010-09-19T06:20:53Z</time>
      </trkpt>
      <trkpt lat="45.41727" lon="6.68513">
        <ele>1767</ele>
        <time>2010-09-19T06:21:17Z</time>
      </trkpt>
      <trkpt lat="45.41718" lon="6.68505">
        <ele>1769</ele>
        <time>2010-09-19T06:21:35Z</time>
      </trkpt>
      <trkpt lat="45.41706" lon="6.68498">
        <ele>1779</ele>
        <time>2010-09-19T06:22:31Z</time>
      </trkpt>
      <trkpt lat="45.41716" lon="6.68499">
        <ele>1776</ele>
        <time>2010-09-19T06:22:46Z</time>
      </trkpt>
      <trkpt lat="45.41706" lon="6.68499">
        <ele>1779</ele>
        <time>2010-09-19T06:23:03Z</time>
      </trkpt>
      <trkpt lat="45.41696" lon="6.68498">
        <ele>1781</ele>
        <time>2010-09-19T06:23:14Z</time>
      </trkpt>
      <trkpt lat="45.41688" lon="6.6849">
        <ele>1782</ele>
        <time>2010-09-19T06:23:30Z</time>
      </trkpt>
      <trkpt lat="45.41685" lon="6.68478">
        <ele>1783</ele>
        <time>2010-09-19T06:24:05Z</time>
      </trkpt>
      <trkpt lat="45.41675" lon="6.6848">
        <ele>1784</ele>
        <time>2010-09-19T06:24:10Z</time>
      </trkpt>
      <trkpt lat="45.41665" lon="6.68477">
        <ele>1798</ele>
        <time>2010-09-19T06:24:26Z</time>
      </trkpt>
      <trkpt lat="45.41657" lon="6.68471">
        <ele>1801</ele>
        <time>2010-09-19T06:24:47Z</time>
      </trkpt>
      <trkpt lat="45.41668" lon="6.68471">
        <ele>1785</ele>
        <time>2010-09-19T06:24:52Z</time>
      </trkpt>
      <trkpt lat="45.41658" lon="6.6847">
        <ele>1801</ele>
        <time>2010-09-19T06:25:02Z</time>
      </trkpt>
      <trkpt lat="45.41653" lon="6.68459">
        <ele>1804</ele>
        <time>2010-09-19T06:25:29Z</time>
      </trkpt>
      <trkpt lat="45.41643" lon="6.68458">
        <ele>1806</ele>
        <time>2010-09-19T06:25:35Z</time>
      </trkpt>
      <trkpt lat="45.41632" lon="6.68454">
        <ele>1808</ele>
        <time>2010-09-19T06:26:00Z</time>
      </trkpt>
      <trkpt lat="45.41623" lon="6.68457">
        <ele>1809</ele>
        <time>2010-09-19T06:26:07Z</time>
      </trkpt>
      <trkpt lat="45.41613" lon="6.68457">
        <ele>1811</ele>
        <time>2010-09-19T06:26:44Z</time>
      </trkpt>
      <trkpt lat="45.41603" lon="6.68454">
        <ele>1813</ele>
        <time>2010-09-19T06:27:07Z</time>
      </trkpt>
      <trkpt lat="45.41592" lon="6.68458">
        <ele>1814</ele>
        <time>2010-09-19T06:27:49Z</time>
      </trkpt>
      <trkpt lat="45.41584" lon="6.68465">
        <ele>1813</ele>
        <time>2010-09-19T06:28:08Z</time>
      </trkpt>
      <trkpt lat="45.41584" lon="6.6848">
        <ele>1812</ele>
        <time>2010-09-19T06:28:29Z</time>
      </trkpt>
      <trkpt lat="45.41574" lon="6.6848">
        <ele>1831</ele>
        <time>2010-09-19T06:29:41Z</time>
      </trkpt>
      <trkpt lat="45.41583" lon="6.68488">
        <ele>1825</ele>
        <time>2010-09-19T06:29:48Z</time>
      </trkpt>
      <trkpt lat="45.41577" lon="6.68498">
        <ele>1821</ele>
        <time>2010-09-19T06:29:59Z</time>
      </trkpt>
      <trkpt lat="45.41572" lon="6.6851">
        <ele>1828</ele>
        <time>2010-09-19T06:30:08Z</time>
      </trkpt>
      <trkpt lat="45.41572" lon="6.68524">
        <ele>1834</ele>
        <time>2010-09-19T06:30:24Z</time>
      </trkpt>
      <trkpt lat="45.41569" lon="6.68538">
        <ele>1839</ele>
        <time>2010-09-19T06:30:37Z</time>
      </trkpt>
      <trkpt lat="45.41577" lon="6.68528">
        <ele>1835</ele>
        <time>2010-09-19T06:30:50Z</time>
      </trkpt>
      <trkpt lat="45.41568" lon="6.68533">
        <ele>1838</ele>
        <time>2010-09-19T06:31:13Z</time>
      </trkpt>
      <trkpt lat="45.41572" lon="6.68545">
        <ele>1839</ele>
        <time>2010-09-19T06:31:26Z</time>
      </trkpt>
      <trkpt lat="45.41579" lon="6.68556">
        <ele>1839</ele>
        <time>2010-09-19T06:31:40Z</time>
      </trkpt>
      <trkpt lat="45.41591" lon="6.68551">
        <ele>1812</ele>
        <time>2010-09-19T06:32:10Z</time>
      </trkpt>
      <trkpt lat="45.41603" lon="6.68542">
        <ele>1809</ele>
        <time>2010-09-19T06:32:15Z</time>
      </trkpt>
      <trkpt lat="45.41594" lon="6.68551">
        <ele>1812</ele>
        <time>2010-09-19T06:32:23Z</time>
      </trkpt>
      <trkpt lat="45.41589" lon="6.68562">
        <ele>1816</ele>
        <time>2010-09-19T06:32:27Z</time>
      </trkpt>
      <trkpt lat="45.41595" lon="6.68574">
        <ele>1819</ele>
        <time>2010-09-19T06:32:39Z</time>
      </trkpt>
      <trkpt lat="45.41603" lon="6.68585">
        <ele>1824</ele>
        <time>2010-09-19T06:32:50Z</time>
      </trkpt>
      <trkpt lat="45.41608" lon="6.68595">
        <ele>1822</ele>
        <time>2010-09-19T06:33:08Z</time>
      </trkpt>
      <trkpt lat="45.41613" lon="6.68607">
        <ele>1822</ele>
        <time>2010-09-19T06:33:20Z</time>
      </trkpt>
      <trkpt lat="45.4162" lon="6.68619">
        <ele>1821</ele>
        <time>2010-09-19T06:33:32Z</time>
      </trkpt>
      <trkpt lat="45.41627" lon="6.6863">
        <ele>1820</ele>
        <time>2010-09-19T06:33:49Z</time>
      </trkpt>
      <trkpt lat="45.41624" lon="6.68643">
        <ele>1822</ele>
        <time>2010-09-19T06:34:00Z</time>
      </trkpt>
      <trkpt lat="45.41626" lon="6.68657">
        <ele>1823</ele>
        <time>2010-09-19T06:34:31Z</time>
      </trkpt>
      <trkpt lat="45.41632" lon="6.68669">
        <ele>1825</ele>
        <time>2010-09-19T06:34:41Z</time>
      </trkpt>
      <trkpt lat="45.41639" lon="6.68686">
        <ele>1823</ele>
        <time>2010-09-19T06:34:58Z</time>
      </trkpt>
      <trkpt lat="45.41644" lon="6.68702">
        <ele>1822</ele>
        <time>2010-09-19T06:35:18Z</time>
      </trkpt>
      <trkpt lat="45.41634" lon="6.68703">
        <ele>1825</ele>
        <time>2010-09-19T06:35:27Z</time>
      </trkpt>
      <trkpt lat="45.41645" lon="6.68697">
        <ele>1822</ele>
        <time>2010-09-19T06:35:35Z</time>
      </trkpt>
      <trkpt lat="45.41654" lon="6.6869">
        <ele>1819</ele>
        <time>2010-09-19T06:35:42Z</time>
      </trkpt>
      <trkpt lat="45.41646" lon="6.68696">
        <ele>1822</ele>
        <time>2010-09-19T06:35:48Z</time>
      </trkpt>
      <trkpt lat="45.41637" lon="6.68703">
        <ele>1824</ele>
        <time>2010-09-19T06:36:32Z</time>
      </trkpt>
      <trkpt lat="45.41647" lon="6.68711">
        <ele>1821</ele>
        <time>2010-09-19T06:36:36Z</time>
      </trkpt>
      <trkpt lat="45.41639" lon="6.68701">
        <ele>1824</ele>
        <time>2010-09-19T06:36:54Z</time>
      </trkpt>
      <trkpt lat="45.41632" lon="6.6869">
        <ele>1826</ele>
        <time>2010-09-19T06:37:08Z</time>
      </trkpt>
      <trkpt lat="45.41644" lon="6.68687">
        <ele>1821</ele>
        <time>2010-09-19T06:37:16Z</time>
      </trkpt>
      <trkpt lat="45.41654" lon="6.68692">
        <ele>1819</ele>
        <time>2010-09-19T06:37:18Z</time>
      </trkpt>
      <trkpt lat="45.41639" lon="6.68701">
        <ele>1824</ele>
        <time>2010-09-19T06:37:20Z</time>
      </trkpt>
      <trkpt lat="45.41639" lon="6.68688">
        <ele>1823</ele>
        <time>2010-09-19T06:38:04Z</time>
      </trkpt>
      <trkpt lat="45.41649" lon="6.68686">
        <ele>1819</ele>
        <time>2010-09-19T06:39:04Z</time>
      </trkpt>
      <trkpt lat="45.41642" lon="6.68695">
        <ele>1822</ele>
        <time>2010-09-19T06:39:40Z</time>
      </trkpt>
      <trkpt lat="45.41651" lon="6.68692">
        <ele>1819</ele>
        <time>2010-09-19T06:40:07Z</time>
      </trkpt>
      <trkpt lat="45.41661" lon="6.68695">
        <ele>1818</ele>
        <time>2010-09-19T06:40:21Z</time>
      </trkpt>
      <trkpt lat="45.41649" lon="6.68694">
        <ele>1820</ele>
        <time>2010-09-19T06:40:36Z</time>
      </trkpt>
      <trkpt lat="45.41639" lon="6.68694">
        <ele>1823</ele>
        <time>2010-09-19T06:40:42Z</time>
      </trkpt>
      <trkpt lat="45.41632" lon="6.68683">
        <ele>1825</ele>
        <time>2010-09-19T06:41:36Z</time>
      </trkpt>
      <trkpt lat="45.41641" lon="6.68685">
        <ele>1822</ele>
        <time>2010-09-19T06:41:56Z</time>
      </trkpt>
      <trkpt lat="45.41631" lon="6.68688">
        <ele>1826</ele>
        <time>2010-09-19T06:43:01Z</time>
      </trkpt>
      <trkpt lat="45.41639" lon="6.68694">
        <ele>1823</ele>
        <time>2010-09-19T06:43:08Z</time>
      </trkpt>
      <trkpt lat="45.41649" lon="6.68692">
        <ele>1820</ele>
        <time>2010-09-19T06:43:22Z</time>
      </trkpt>
      <trkpt lat="45.41639" lon="6.68694">
        <ele>1823</ele>
        <time>2010-09-19T06:44:15Z</time>
      </trkpt>
      <trkpt lat="45.41649" lon="6.6869">
        <ele>1820</ele>
        <time>2010-09-19T06:44:28Z</time>
      </trkpt>
      <trkpt lat="45.4164" lon="6.68694">
        <ele>1823</ele>
        <time>2010-09-19T06:45:34Z</time>
      </trkpt>
      <trkpt lat="45.41649" lon="6.68693">
        <ele>1820</ele>
        <time>2010-09-19T06:46:48Z</time>
      </trkpt>
      <trkpt lat="45.41641" lon="6.68689">
        <ele>1822</ele>
        <time>2010-09-19T06:50:11Z</time>
      </trkpt>
      <trkpt lat="45.41641" lon="6.68702">
        <ele>1823</ele>
        <time>2010-09-19T06:50:46Z</time>
      </trkpt>
      <trkpt lat="45.41645" lon="6.68714">
        <ele>1822</ele>
        <time>2010-09-19T06:51:05Z</time>
      </trkpt>
      <trkpt lat="45.41637" lon="6.6872">
        <ele>1824</ele>
        <time>2010-09-19T06:51:19Z</time>
      </trkpt>
      <trkpt lat="45.41635" lon="6.68734">
        <ele>1824</ele>
        <time>2010-09-19T06:51:29Z</time>
      </trkpt>
      <trkpt lat="45.41625" lon="6.68742">
        <ele>1827</ele>
        <time>2010-09-19T06:51:47Z</time>
      </trkpt>
      <trkpt lat="45.4162" lon="6.68754">
        <ele>1825</ele>
        <time>2010-09-19T06:51:56Z</time>
      </trkpt>
      <trkpt lat="45.41614" lon="6.68763">
        <ele>1827</ele>
        <time>2010-09-19T06:52:05Z</time>
      </trkpt>
      <trkpt lat="45.41608" lon="6.68774">
        <ele>1828</ele>
        <time>2010-09-19T06:52:16Z</time>
      </trkpt>
      <trkpt lat="45.41608" lon="6.68788">
        <ele>1826</ele>
        <time>2010-09-19T06:52:34Z</time>
      </trkpt>
      <trkpt lat="45.41598" lon="6.68792">
        <ele>1828</ele>
        <time>2010-09-19T06:52:43Z</time>
      </trkpt>
      <trkpt lat="45.41593" lon="6.68805">
        <ele>1829</ele>
        <time>2010-09-19T06:52:55Z</time>
      </trkpt>
      <trkpt lat="45.41584" lon="6.68809">
        <ele>1831</ele>
        <time>2010-09-19T06:53:02Z</time>
      </trkpt>
      <trkpt lat="45.41577" lon="6.68818">
        <ele>1854</ele>
        <time>2010-09-19T06:53:19Z</time>
      </trkpt>
      <trkpt lat="45.41575" lon="6.68833">
        <ele>1849</ele>
        <time>2010-09-19T06:53:46Z</time>
      </trkpt>
      <trkpt lat="45.41574" lon="6.68847">
        <ele>1843</ele>
        <time>2010-09-19T06:53:57Z</time>
      </trkpt>
      <trkpt lat="45.4158" lon="6.68856">
        <ele>1842</ele>
        <time>2010-09-19T06:54:04Z</time>
      </trkpt>
      <trkpt lat="45.41577" lon="6.68869">
        <ele>1841</ele>
        <time>2010-09-19T06:54:12Z</time>
      </trkpt>
      <trkpt lat="45.4157" lon="6.68878">
        <ele>1840</ele>
        <time>2010-09-19T06:55:03Z</time>
      </trkpt>
      <trkpt lat="45.41563" lon="6.68887">
        <ele>1838</ele>
        <time>2010-09-19T06:55:13Z</time>
      </trkpt>
      <trkpt lat="45.41554" lon="6.68891">
        <ele>1839</ele>
        <time>2010-09-19T06:55:52Z</time>
      </trkpt>
      <trkpt lat="45.41563" lon="6.6889">
        <ele>1838</ele>
        <time>2010-09-19T06:57:24Z</time>
      </trkpt>
      <trkpt lat="45.41554" lon="6.68891">
        <ele>1839</ele>
        <time>2010-09-19T06:57:34Z</time>
      </trkpt>
      <trkpt lat="45.41544" lon="6.68879">
        <ele>1842</ele>
        <time>2010-09-19T06:58:15Z</time>
      </trkpt>
      <trkpt lat="45.41555" lon="6.6888">
        <ele>1841</ele>
        <time>2010-09-19T06:58:30Z</time>
      </trkpt>
      <trkpt lat="45.41549" lon="6.68869">
        <ele>1843</ele>
        <time>2010-09-19T06:59:05Z</time>
      </trkpt>
      <trkpt lat="45.41539" lon="6.68867">
        <ele>1845</ele>
        <time>2010-09-19T06:59:59Z</time>
      </trkpt>
      <trkpt lat="45.41537" lon="6.68852">
        <ele>1848</ele>
        <time>2010-09-19T07:01:04Z</time>
      </trkpt>
      <trkpt lat="45.4153" lon="6.68843">
        <ele>1851</ele>
        <time>2010-09-19T07:02:09Z</time>
      </trkpt>
      <trkpt lat="45.41529" lon="6.6883">
        <ele>1867</ele>
        <time>2010-09-19T07:02:47Z</time>
      </trkpt>
      <trkpt lat="45.41523" lon="6.68819">
        <ele>1869</ele>
        <time>2010-09-19T07:03:14Z</time>
      </trkpt>
      <trkpt lat="45.41515" lon="6.68813">
        <ele>1871</ele>
        <time>2010-09-19T07:04:02Z</time>
      </trkpt>
      <trkpt lat="45.41506" lon="6.68807">
        <ele>1872</ele>
        <time>2010-09-19T07:04:23Z</time>
      </trkpt>
      <trkpt lat="45.41515" lon="6.68806">
        <ele>1871</ele>
        <time>2010-09-19T07:04:50Z</time>
      </trkpt>
      <trkpt lat="45.41506" lon="6.6881">
        <ele>1872</ele>
        <time>2010-09-19T07:05:11Z</time>
      </trkpt>
      <trkpt lat="45.41513" lon="6.688">
        <ele>1872</ele>
        <time>2010-09-19T07:05:43Z</time>
      </trkpt>
      <trkpt lat="45.41518" lon="6.68788">
        <ele>1874</ele>
        <time>2010-09-19T07:06:07Z</time>
      </trkpt>
      <trkpt lat="45.41514" lon="6.68774">
        <ele>1879</ele>
        <time>2010-09-19T07:06:27Z</time>
      </trkpt>
      <trkpt lat="45.41508" lon="6.68763">
        <ele>1886</ele>
        <time>2010-09-19T07:06:41Z</time>
      </trkpt>
      <trkpt lat="45.41512" lon="6.68751">
        <ele>1889</ele>
        <time>2010-09-19T07:07:05Z</time>
      </trkpt>
      <trkpt lat="45.41503" lon="6.68746">
        <ele>1898</ele>
        <time>2010-09-19T07:07:30Z</time>
      </trkpt>
      <trkpt lat="45.41494" lon="6.68747">
        <ele>1906</ele>
        <time>2010-09-19T07:08:15Z</time>
      </trkpt>
      <trkpt lat="45.41485" lon="6.68744">
        <ele>1909</ele>
        <time>2010-09-19T07:08:40Z</time>
      </trkpt>
      <trkpt lat="45.41475" lon="6.68741">
        <ele>1912</ele>
        <time>2010-09-19T07:09:24Z</time>
      </trkpt>
      <trkpt lat="45.41466" lon="6.68738">
        <ele>1914</ele>
        <time>2010-09-19T07:10:54Z</time>
      </trkpt>
      <trkpt lat="45.41458" lon="6.68732">
        <ele>1916</ele>
        <time>2010-09-19T07:12:31Z</time>
      </trkpt>
      <trkpt lat="45.41451" lon="6.68722">
        <ele>1917</ele>
        <time>2010-09-19T07:12:53Z</time>
      </trkpt>
      <trkpt lat="45.4145" lon="6.68709">
        <ele>1919</ele>
        <time>2010-09-19T07:13:38Z</time>
      </trkpt>
      <trkpt lat="45.41445" lon="6.68697">
        <ele>1921</ele>
        <time>2010-09-19T07:14:08Z</time>
      </trkpt>
      <trkpt lat="45.41441" lon="6.68685">
        <ele>1924</ele>
        <time>2010-09-19T07:14:39Z</time>
      </trkpt>
      <trkpt lat="45.41432" lon="6.68678">
        <ele>1928</ele>
        <time>2010-09-19T07:15:00Z</time>
      </trkpt>
      <trkpt lat="45.41425" lon="6.68669">
        <ele>1935</ele>
        <time>2010-09-19T07:15:29Z</time>
      </trkpt>
      <trkpt lat="45.41425" lon="6.68666">
        <ele>1936</ele>
        <time>2010-09-19T07:15:50Z</time>
      </trkpt>
      <trkpt lat="45.41433" lon="6.6866">
        <ele>1932</ele>
        <time>2010-09-19T07:20:09Z</time>
      </trkpt>
      <trkpt lat="45.4144" lon="6.6865">
        <ele>1928</ele>
        <time>2010-09-19T07:20:27Z</time>
      </trkpt>
      <trkpt lat="45.4144" lon="6.68637">
        <ele>1926</ele>
        <time>2010-09-19T07:20:45Z</time>
      </trkpt>
      <trkpt lat="45.41438" lon="6.68623">
        <ele>1926</ele>
        <time>2010-09-19T07:20:57Z</time>
      </trkpt>
      <trkpt lat="45.41438" lon="6.6861">
        <ele>1927</ele>
        <time>2010-09-19T07:21:12Z</time>
      </trkpt>
      <trkpt lat="45.41434" lon="6.68596">
        <ele>1930</ele>
        <time>2010-09-19T07:21:28Z</time>
      </trkpt>
      <trkpt lat="45.41425" lon="6.68595">
        <ele>1934</ele>
        <time>2010-09-19T07:22:16Z</time>
      </trkpt>
      <trkpt lat="45.41417" lon="6.68589">
        <ele>1944</ele>
        <time>2010-09-19T07:22:33Z</time>
      </trkpt>
      <trkpt lat="45.4141" lon="6.68599">
        <ele>1945</ele>
        <time>2010-09-19T07:22:51Z</time>
      </trkpt>
      <trkpt lat="45.414" lon="6.68601">
        <ele>1945</ele>
        <time>2010-09-19T07:23:07Z</time>
      </trkpt>
      <trkpt lat="45.41389" lon="6.68603">
        <ele>1946</ele>
        <time>2010-09-19T07:23:20Z</time>
      </trkpt>
      <trkpt lat="45.41381" lon="6.68599">
        <ele>1946</ele>
        <time>2010-09-19T07:23:37Z</time>
      </trkpt>
      <trkpt lat="45.41372" lon="6.68592">
        <ele>1947</ele>
        <time>2010-09-19T07:23:49Z</time>
      </trkpt>
      <trkpt lat="45.41363" lon="6.68594">
        <ele>1948</ele>
        <time>2010-09-19T07:23:58Z</time>
      </trkpt>
      <trkpt lat="45.41353" lon="6.68593">
        <ele>1949</ele>
        <time>2010-09-19T07:24:07Z</time>
      </trkpt>
      <trkpt lat="45.41343" lon="6.68589">
        <ele>1951</ele>
        <time>2010-09-19T07:24:15Z</time>
      </trkpt>
      <trkpt lat="45.41333" lon="6.68589">
        <ele>1955</ele>
        <time>2010-09-19T07:24:22Z</time>
      </trkpt>
      <trkpt lat="45.41323" lon="6.68588">
        <ele>1954</ele>
        <time>2010-09-19T07:24:30Z</time>
      </trkpt>
      <trkpt lat="45.41313" lon="6.68586">
        <ele>1955</ele>
        <time>2010-09-19T07:24:38Z</time>
      </trkpt>
      <trkpt lat="45.41304" lon="6.68584">
        <ele>1955</ele>
        <time>2010-09-19T07:24:45Z</time>
      </trkpt>
      <trkpt lat="45.41295" lon="6.6858">
        <ele>1968</ele>
        <time>2010-09-19T07:24:50Z</time>
      </trkpt>
      <trkpt lat="45.41285" lon="6.68577">
        <ele>1970</ele>
        <time>2010-09-19T07:24:55Z</time>
      </trkpt>
      <trkpt lat="45.41275" lon="6.68574">
        <ele>1971</ele>
        <time>2010-09-19T07:25:01Z</time>
      </trkpt>
      <trkpt lat="45.41262" lon="6.6857">
        <ele>1971</ele>
        <time>2010-09-19T07:25:09Z</time>
      </trkpt>
      <trkpt lat="45.41252" lon="6.68574">
        <ele>1971</ele>
        <time>2010-09-19T07:25:34Z</time>
      </trkpt>
      <trkpt lat="45.41243" lon="6.68575">
        <ele>1975</ele>
        <time>2010-09-19T07:25:54Z</time>
      </trkpt>
      <trkpt lat="45.41233" lon="6.68575">
        <ele>1978</ele>
        <time>2010-09-19T07:26:11Z</time>
      </trkpt>
      <trkpt lat="45.41224" lon="6.68581">
        <ele>1979</ele>
        <time>2010-09-19T07:26:46Z</time>
      </trkpt>
      <trkpt lat="45.41215" lon="6.68585">
        <ele>1968</ele>
        <time>2010-09-19T07:27:04Z</time>
      </trkpt>
      <trkpt lat="45.4121" lon="6.68573">
        <ele>1981</ele>
        <time>2010-09-19T07:27:49Z</time>
      </trkpt>
      <trkpt lat="45.41205" lon="6.68562">
        <ele>1983</ele>
        <time>2010-09-19T07:28:01Z</time>
      </trkpt>
      <trkpt lat="45.41196" lon="6.68556">
        <ele>1984</ele>
        <time>2010-09-19T07:28:12Z</time>
      </trkpt>
      <trkpt lat="45.41193" lon="6.6857">
        <ele>1982</ele>
        <time>2010-09-19T07:28:57Z</time>
      </trkpt>
      <trkpt lat="45.41199" lon="6.68556">
        <ele>1984</ele>
        <time>2010-09-19T07:29:33Z</time>
      </trkpt>
      <trkpt lat="45.41193" lon="6.68569">
        <ele>1983</ele>
        <time>2010-09-19T07:29:50Z</time>
      </trkpt>
      <trkpt lat="45.41195" lon="6.68554">
        <ele>1984</ele>
        <time>2010-09-19T07:30:10Z</time>
      </trkpt>
      <trkpt lat="45.41208" lon="6.68554">
        <ele>1983</ele>
        <time>2010-09-19T07:31:00Z</time>
      </trkpt>
      <trkpt lat="45.41222" lon="6.68552">
        <ele>1983</ele>
        <time>2010-09-19T07:31:02Z</time>
      </trkpt>
      <trkpt lat="45.41209" lon="6.68549">
        <ele>1984</ele>
        <time>2010-09-19T07:31:07Z</time>
      </trkpt>
      <trkpt lat="45.41198" lon="6.68543">
        <ele>1985</ele>
        <time>2010-09-19T07:31:10Z</time>
      </trkpt>
      <trkpt lat="45.41186" lon="6.68541">
        <ele>1985</ele>
        <time>2010-09-19T07:31:14Z</time>
      </trkpt>
      <trkpt lat="45.41191" lon="6.68553">
        <ele>1984</ele>
        <time>2010-09-19T07:31:22Z</time>
      </trkpt>
      <trkpt lat="45.41198" lon="6.68563">
        <ele>1983</ele>
        <time>2010-09-19T07:31:28Z</time>
      </trkpt>
      <trkpt lat="45.41198" lon="6.6855">
        <ele>1984</ele>
        <time>2010-09-19T07:31:43Z</time>
      </trkpt>
      <trkpt lat="45.41189" lon="6.68547">
        <ele>1985</ele>
        <time>2010-09-19T07:31:53Z</time>
      </trkpt>
      <trkpt lat="45.41196" lon="6.68557">
        <ele>1984</ele>
        <time>2010-09-19T07:33:03Z</time>
      </trkpt>
      <trkpt lat="45.41194" lon="6.68544">
        <ele>1985</ele>
        <time>2010-09-19T07:33:34Z</time>
      </trkpt>
      <trkpt lat="45.41195" lon="6.68558">
        <ele>1983</ele>
        <time>2010-09-19T07:35:03Z</time>
      </trkpt>
      <trkpt lat="45.41201" lon="6.68549">
        <ele>1984</ele>
        <time>2010-09-19T07:35:37Z</time>
      </trkpt>
      <trkpt lat="45.41192" lon="6.68553">
        <ele>1984</ele>
        <time>2010-09-19T07:36:36Z</time>
      </trkpt>
      <trkpt lat="45.41193" lon="6.6854">
        <ele>1985</ele>
        <time>2010-09-19T07:37:19Z</time>
      </trkpt>
      <trkpt lat="45.41188" lon="6.68528">
        <ele>1987</ele>
        <time>2010-09-19T07:39:24Z</time>
      </trkpt>
      <trkpt lat="45.41191" lon="6.68516">
        <ele>1988</ele>
        <time>2010-09-19T07:39:37Z</time>
      </trkpt>
      <trkpt lat="45.41191" lon="6.68529">
        <ele>1987</ele>
        <time>2010-09-19T07:40:06Z</time>
      </trkpt>
      <trkpt lat="45.41188" lon="6.68542">
        <ele>1985</ele>
        <time>2010-09-19T07:40:28Z</time>
      </trkpt>
      <trkpt lat="45.41194" lon="6.68532">
        <ele>1986</ele>
        <time>2010-09-19T07:40:48Z</time>
      </trkpt>
      <trkpt lat="45.41193" lon="6.68517">
        <ele>1988</ele>
        <time>2010-09-19T07:43:42Z</time>
      </trkpt>
      <trkpt lat="45.4119" lon="6.6853">
        <ele>1987</ele>
        <time>2010-09-19T07:44:10Z</time>
      </trkpt>
      <trkpt lat="45.41187" lon="6.68542">
        <ele>1985</ele>
        <time>2010-09-19T07:45:29Z</time>
      </trkpt>
      <trkpt lat="45.41194" lon="6.68533">
        <ele>1986</ele>
        <time>2010-09-19T07:46:51Z</time>
      </trkpt>
      <trkpt lat="45.41188" lon="6.68544">
        <ele>1985</ele>
        <time>2010-09-19T07:47:47Z</time>
      </trkpt>
      <trkpt lat="45.41183" lon="6.68559">
        <ele>1983</ele>
        <time>2010-09-19T07:49:37Z</time>
      </trkpt>
      <trkpt lat="45.41187" lon="6.68545">
        <ele>1985</ele>
        <time>2010-09-19T07:50:00Z</time>
      </trkpt>
      <trkpt lat="45.41193" lon="6.68533">
        <ele>1986</ele>
        <time>2010-09-19T07:50:32Z</time>
      </trkpt>
      <trkpt lat="45.41188" lon="6.68545">
        <ele>1985</ele>
        <time>2010-09-19T07:51:50Z</time>
      </trkpt>
      <trkpt lat="45.41184" lon="6.6856">
        <ele>1983</ele>
        <time>2010-09-19T07:51:55Z</time>
      </trkpt>
      <trkpt lat="45.41186" lon="6.68547">
        <ele>1985</ele>
        <time>2010-09-19T07:52:28Z</time>
      </trkpt>
      <trkpt lat="45.41191" lon="6.68535">
        <ele>1986</ele>
        <time>2010-09-19T07:54:54Z</time>
      </trkpt>
      <trkpt lat="45.41186" lon="6.68551">
        <ele>1984</ele>
        <time>2010-09-19T07:54:59Z</time>
      </trkpt>
      <trkpt lat="45.41191" lon="6.68535">
        <ele>1986</ele>
        <time>2010-09-19T07:55:30Z</time>
      </trkpt>
      <trkpt lat="45.41184" lon="6.68546">
        <ele>1985</ele>
        <time>2010-09-19T07:56:22Z</time>
      </trkpt>
      <trkpt lat="45.4119" lon="6.68534">
        <ele>1986</ele>
        <time>2010-09-19T07:57:25Z</time>
      </trkpt>
      <trkpt lat="45.41196" lon="6.68521">
        <ele>1987</ele>
        <time>2010-09-19T07:57:30Z</time>
      </trkpt>
      <trkpt lat="45.41193" lon="6.68526">
        <ele>1987</ele>
        <time>2010-09-19T07:58:43Z</time>
      </trkpt>
      <trkpt lat="45.4119" lon="6.68539">
        <ele>1986</ele>
        <time>2010-09-19T08:01:49Z</time>
      </trkpt>
      <trkpt lat="45.41195" lon="6.68527">
        <ele>1987</ele>
        <time>2010-09-19T08:02:57Z</time>
      </trkpt>
      <trkpt lat="45.41198" lon="6.68514">
        <ele>1988</ele>
        <time>2010-09-19T08:03:14Z</time>
      </trkpt>
      <trkpt lat="45.41196" lon="6.68527">
        <ele>1987</ele>
        <time>2010-09-19T08:03:43Z</time>
      </trkpt>
      <trkpt lat="45.41192" lon="6.6854">
        <ele>1985</ele>
        <time>2010-09-19T08:04:03Z</time>
      </trkpt>
      <trkpt lat="45.41193" lon="6.68526">
        <ele>1987</ele>
        <time>2010-09-19T08:08:26Z</time>
      </trkpt>
      <trkpt lat="45.412" lon="6.68517">
        <ele>1988</ele>
        <time>2010-09-19T08:09:52Z</time>
      </trkpt>
      <trkpt lat="45.41195" lon="6.68529">
        <ele>1987</ele>
        <time>2010-09-19T08:10:55Z</time>
      </trkpt>
      <trkpt lat="45.41188" lon="6.68538">
        <ele>1986</ele>
        <time>2010-09-19T08:11:10Z</time>
      </trkpt>
      <trkpt lat="45.41195" lon="6.68527">
        <ele>1987</ele>
        <time>2010-09-19T08:11:37Z</time>
      </trkpt>
      <trkpt lat="45.41194" lon="6.68542">
        <ele>1985</ele>
        <time>2010-09-19T08:12:32Z</time>
      </trkpt>
      <trkpt lat="45.41202" lon="6.68535">
        <ele>1986</ele>
        <time>2010-09-19T08:13:40Z</time>
      </trkpt>
      <trkpt lat="45.41194" lon="6.68542">
        <ele>1985</ele>
        <time>2010-09-19T08:13:59Z</time>
      </trkpt>
      <trkpt lat="45.41196" lon="6.6853">
        <ele>1986</ele>
        <time>2010-09-19T08:14:30Z</time>
      </trkpt>
      <trkpt lat="45.412" lon="6.68517">
        <ele>1988</ele>
        <time>2010-09-19T08:14:41Z</time>
      </trkpt>
      <trkpt lat="45.41193" lon="6.68527">
        <ele>1987</ele>
        <time>2010-09-19T08:15:04Z</time>
      </trkpt>
      <trkpt lat="45.41187" lon="6.68538">
        <ele>1986</ele>
        <time>2010-09-19T08:16:18Z</time>
      </trkpt>
      <trkpt lat="45.41195" lon="6.6853">
        <ele>1986</ele>
        <time>2010-09-19T08:17:04Z</time>
      </trkpt>
      <trkpt lat="45.412" lon="6.68518">
        <ele>1988</ele>
        <time>2010-09-19T08:17:17Z</time>
      </trkpt>
      <trkpt lat="45.41194" lon="6.68528">
        <ele>1987</ele>
        <time>2010-09-19T08:18:14Z</time>
      </trkpt>
      <trkpt lat="45.41186" lon="6.68534">
        <ele>1986</ele>
        <time>2010-09-19T08:20:51Z</time>
      </trkpt>
      <trkpt lat="45.41181" lon="6.68548">
        <ele>1985</ele>
        <time>2010-09-19T08:21:09Z</time>
      </trkpt>
      <trkpt lat="45.41188" lon="6.68538">
        <ele>1986</ele>
        <time>2010-09-19T08:21:21Z</time>
      </trkpt>
      <trkpt lat="45.41193" lon="6.68527">
        <ele>1987</ele>
        <time>2010-09-19T08:22:02Z</time>
      </trkpt>
      <trkpt lat="45.41198" lon="6.68516">
        <ele>1988</ele>
        <time>2010-09-19T08:22:14Z</time>
      </trkpt>
      <trkpt lat="45.412" lon="6.68529">
        <ele>1987</ele>
        <time>2010-09-19T08:23:10Z</time>
      </trkpt>
      <trkpt lat="45.41195" lon="6.68542">
        <ele>1985</ele>
        <time>2010-09-19T08:23:21Z</time>
      </trkpt>
      <trkpt lat="45.41193" lon="6.68524">
        <ele>1987</ele>
        <time>2010-09-19T08:24:07Z</time>
      </trkpt>
      <trkpt lat="45.41193" lon="6.6851">
        <ele>1988</ele>
        <time>2010-09-19T08:24:34Z</time>
      </trkpt>
      <trkpt lat="45.41198" lon="6.68499">
        <ele>2005</ele>
        <time>2010-09-19T08:24:40Z</time>
      </trkpt>
      <trkpt lat="45.41201" lon="6.68487">
        <ele>2007</ele>
        <time>2010-09-19T08:24:50Z</time>
      </trkpt>
      <trkpt lat="45.41191" lon="6.68489">
        <ele>2005</ele>
        <time>2010-09-19T08:25:06Z</time>
      </trkpt>
      <trkpt lat="45.41191" lon="6.68476">
        <ele>2008</ele>
        <time>2010-09-19T08:25:23Z</time>
      </trkpt>
      <trkpt lat="45.41184" lon="6.68466">
        <ele>2010</ele>
        <time>2010-09-19T08:25:55Z</time>
      </trkpt>
      <trkpt lat="45.41189" lon="6.68451">
        <ele>2014</ele>
        <time>2010-09-19T08:26:06Z</time>
      </trkpt>
      <trkpt lat="45.41183" lon="6.6844">
        <ele>2016</ele>
        <time>2010-09-19T08:26:23Z</time>
      </trkpt>
      <trkpt lat="45.41174" lon="6.68436">
        <ele>2018</ele>
        <time>2010-09-19T08:26:34Z</time>
      </trkpt>
      <trkpt lat="45.41179" lon="6.68425">
        <ele>2020</ele>
        <time>2010-09-19T08:26:52Z</time>
      </trkpt>
      <trkpt lat="45.4117" lon="6.68425">
        <ele>2022</ele>
        <time>2010-09-19T08:27:08Z</time>
      </trkpt>
      <trkpt lat="45.4116" lon="6.68424">
        <ele>2021</ele>
        <time>2010-09-19T08:27:22Z</time>
      </trkpt>
      <trkpt lat="45.41152" lon="6.68418">
        <ele>2019</ele>
        <time>2010-09-19T08:27:33Z</time>
      </trkpt>
      <trkpt lat="45.41145" lon="6.6841">
        <ele>2040</ele>
        <time>2010-09-19T08:27:44Z</time>
      </trkpt>
      <trkpt lat="45.41134" lon="6.6841">
        <ele>2042</ele>
        <time>2010-09-19T08:28:02Z</time>
      </trkpt>
      <trkpt lat="45.41129" lon="6.68398">
        <ele>2045</ele>
        <time>2010-09-19T08:28:20Z</time>
      </trkpt>
      <trkpt lat="45.41119" lon="6.68393">
        <ele>2046</ele>
        <time>2010-09-19T08:28:41Z</time>
      </trkpt>
      <trkpt lat="45.41112" lon="6.68382">
        <ele>2049</ele>
        <time>2010-09-19T08:28:58Z</time>
      </trkpt>
      <trkpt lat="45.41105" lon="6.68373">
        <ele>2052</ele>
        <time>2010-09-19T08:29:25Z</time>
      </trkpt>
      <trkpt lat="45.41099" lon="6.68385">
        <ele>2047</ele>
        <time>2010-09-19T08:29:33Z</time>
      </trkpt>
      <trkpt lat="45.41091" lon="6.68396">
        <ele>2042</ele>
        <time>2010-09-19T08:29:41Z</time>
      </trkpt>
      <trkpt lat="45.41085" lon="6.68386">
        <ele>2046</ele>
        <time>2010-09-19T08:29:56Z</time>
      </trkpt>
      <trkpt lat="45.41076" lon="6.6839">
        <ele>2050</ele>
        <time>2010-09-19T08:30:22Z</time>
      </trkpt>
      <trkpt lat="45.41073" lon="6.68377">
        <ele>2055</ele>
        <time>2010-09-19T08:30:49Z</time>
      </trkpt>
      <trkpt lat="45.41067" lon="6.68389">
        <ele>2051</ele>
        <time>2010-09-19T08:30:58Z</time>
      </trkpt>
      <trkpt lat="45.41055" lon="6.68392">
        <ele>2052</ele>
        <time>2010-09-19T08:31:06Z</time>
      </trkpt>
      <trkpt lat="45.41046" lon="6.68392">
        <ele>2054</ele>
        <time>2010-09-19T08:31:28Z</time>
      </trkpt>
      <trkpt lat="45.41038" lon="6.68385">
        <ele>2056</ele>
        <time>2010-09-19T08:31:48Z</time>
      </trkpt>
      <trkpt lat="45.41029" lon="6.68381">
        <ele>2058</ele>
        <time>2010-09-19T08:32:15Z</time>
      </trkpt>
      <trkpt lat="45.41019" lon="6.68393">
        <ele>2057</ele>
        <time>2010-09-19T08:32:30Z</time>
      </trkpt>
      <trkpt lat="45.41015" lon="6.68381">
        <ele>2059</ele>
        <time>2010-09-19T08:32:38Z</time>
      </trkpt>
      <trkpt lat="45.41006" lon="6.68377">
        <ele>2060</ele>
        <time>2010-09-19T08:32:52Z</time>
      </trkpt>
      <trkpt lat="45.40996" lon="6.68379">
        <ele>2064</ele>
        <time>2010-09-19T08:33:15Z</time>
      </trkpt>
      <trkpt lat="45.40984" lon="6.68384">
        <ele>2064</ele>
        <time>2010-09-19T08:34:00Z</time>
      </trkpt>
      <trkpt lat="45.40986" lon="6.68371">
        <ele>2064</ele>
        <time>2010-09-19T08:34:48Z</time>
      </trkpt>
      <trkpt lat="45.40977" lon="6.68374">
        <ele>2064</ele>
        <time>2010-09-19T08:34:55Z</time>
      </trkpt>
      <trkpt lat="45.40968" lon="6.68379">
        <ele>2064</ele>
        <time>2010-09-19T08:35:09Z</time>
      </trkpt>
      <trkpt lat="45.40963" lon="6.68365">
        <ele>2064</ele>
        <time>2010-09-19T08:38:14Z</time>
      </trkpt>
      <trkpt lat="45.40962" lon="6.68352">
        <ele>2064</ele>
        <time>2010-09-19T08:38:23Z</time>
      </trkpt>
      <trkpt lat="45.40964" lon="6.68338">
        <ele>2063</ele>
        <time>2010-09-19T08:38:43Z</time>
      </trkpt>
      <trkpt lat="45.4097" lon="6.68327">
        <ele>2056</ele>
        <time>2010-09-19T08:38:58Z</time>
      </trkpt>
      <trkpt lat="45.40974" lon="6.68314">
        <ele>2056</ele>
        <time>2010-09-19T08:39:22Z</time>
      </trkpt>
      <trkpt lat="45.40983" lon="6.68309">
        <ele>2056</ele>
        <time>2010-09-19T08:39:33Z</time>
      </trkpt>
      <trkpt lat="45.40993" lon="6.68308">
        <ele>2057</ele>
        <time>2010-09-19T08:39:49Z</time>
      </trkpt>
      <trkpt lat="45.41002" lon="6.68312">
        <ele>2070</ele>
        <time>2010-09-19T08:40:29Z</time>
      </trkpt>
      <trkpt lat="45.41013" lon="6.68314">
        <ele>2071</ele>
        <time>2010-09-19T08:41:02Z</time>
      </trkpt>
      <trkpt lat="45.41021" lon="6.68304">
        <ele>2072</ele>
        <time>2010-09-19T08:41:17Z</time>
      </trkpt>
      <trkpt lat="45.41029" lon="6.68308">
        <ele>2072</ele>
        <time>2010-09-19T08:41:41Z</time>
      </trkpt>
      <trkpt lat="45.41038" lon="6.68303">
        <ele>2073</ele>
        <time>2010-09-19T08:41:59Z</time>
      </trkpt>
      <trkpt lat="45.41047" lon="6.68295">
        <ele>2074</ele>
        <time>2010-09-19T08:42:05Z</time>
      </trkpt>
      <trkpt lat="45.4105" lon="6.68282">
        <ele>2075</ele>
        <time>2010-09-19T08:42:13Z</time>
      </trkpt>
      <trkpt lat="45.4105" lon="6.68268">
        <ele>2076</ele>
        <time>2010-09-19T08:42:47Z</time>
      </trkpt>
      <trkpt lat="45.41053" lon="6.68253">
        <ele>2078</ele>
        <time>2010-09-19T08:42:53Z</time>
      </trkpt>
      <trkpt lat="45.41063" lon="6.6826">
        <ele>2081</ele>
        <time>2010-09-19T08:43:19Z</time>
      </trkpt>
      <trkpt lat="45.41059" lon="6.68273">
        <ele>2078</ele>
        <time>2010-09-19T08:43:45Z</time>
      </trkpt>
      <trkpt lat="45.41068" lon="6.68268">
        <ele>2081</ele>
        <time>2010-09-19T08:43:56Z</time>
      </trkpt>
      <trkpt lat="45.41076" lon="6.68261">
        <ele>2086</ele>
        <time>2010-09-19T08:44:37Z</time>
      </trkpt>
      <trkpt lat="45.41079" lon="6.68248">
        <ele>2090</ele>
        <time>2010-09-19T08:44:42Z</time>
      </trkpt>
      <trkpt lat="45.41079" lon="6.68262">
        <ele>2086</ele>
        <time>2010-09-19T08:45:15Z</time>
      </trkpt>
      <trkpt lat="45.41084" lon="6.6825">
        <ele>2095</ele>
        <time>2010-09-19T08:45:39Z</time>
      </trkpt>
      <trkpt lat="45.41091" lon="6.68241">
        <ele>2096</ele>
        <time>2010-09-19T08:46:17Z</time>
      </trkpt>
      <trkpt lat="45.41101" lon="6.68241">
        <ele>2097</ele>
        <time>2010-09-19T08:47:26Z</time>
      </trkpt>
      <trkpt lat="45.41107" lon="6.6823">
        <ele>2098</ele>
        <time>2010-09-19T08:47:40Z</time>
      </trkpt>
      <trkpt lat="45.41105" lon="6.68245">
        <ele>2097</ele>
        <time>2010-09-19T08:47:47Z</time>
      </trkpt>
      <trkpt lat="45.41115" lon="6.68243">
        <ele>2099</ele>
        <time>2010-09-19T08:47:58Z</time>
      </trkpt>
      <trkpt lat="45.41121" lon="6.68232">
        <ele>2099</ele>
        <time>2010-09-19T08:48:15Z</time>
      </trkpt>
      <trkpt lat="45.41127" lon="6.68221">
        <ele>2100</ele>
        <time>2010-09-19T08:48:30Z</time>
      </trkpt>
      <trkpt lat="45.41136" lon="6.68222">
        <ele>2101</ele>
        <time>2010-09-19T08:48:50Z</time>
      </trkpt>
      <trkpt lat="45.4114" lon="6.68234">
        <ele>2102</ele>
        <time>2010-09-19T08:49:06Z</time>
      </trkpt>
      <trkpt lat="45.41147" lon="6.68224">
        <ele>2102</ele>
        <time>2010-09-19T08:49:21Z</time>
      </trkpt>
      <trkpt lat="45.41148" lon="6.68211">
        <ele>2102</ele>
        <time>2010-09-19T08:49:54Z</time>
      </trkpt>
      <trkpt lat="45.41144" lon="6.68223">
        <ele>2102</ele>
        <time>2010-09-19T08:50:07Z</time>
      </trkpt>
      <trkpt lat="45.41152" lon="6.68216">
        <ele>2103</ele>
        <time>2010-09-19T08:50:37Z</time>
      </trkpt>
      <trkpt lat="45.41163" lon="6.68223">
        <ele>2104</ele>
        <time>2010-09-19T08:51:06Z</time>
      </trkpt>
      <trkpt lat="45.41171" lon="6.68214">
        <ele>2116</ele>
        <time>2010-09-19T08:51:09Z</time>
      </trkpt>
      <trkpt lat="45.41178" lon="6.68223">
        <ele>2115</ele>
        <time>2010-09-19T08:51:20Z</time>
      </trkpt>
      <trkpt lat="45.41188" lon="6.68224">
        <ele>2116</ele>
        <time>2010-09-19T08:51:39Z</time>
      </trkpt>
      <trkpt lat="45.41198" lon="6.68219">
        <ele>2117</ele>
        <time>2010-09-19T08:51:51Z</time>
      </trkpt>
      <trkpt lat="45.41202" lon="6.68207">
        <ele>2119</ele>
        <time>2010-09-19T08:51:57Z</time>
      </trkpt>
      <trkpt lat="45.41205" lon="6.68221">
        <ele>2117</ele>
        <time>2010-09-19T08:52:12Z</time>
      </trkpt>
      <trkpt lat="45.41212" lon="6.6821">
        <ele>2119</ele>
        <time>2010-09-19T08:52:35Z</time>
      </trkpt>
      <trkpt lat="45.41214" lon="6.68223">
        <ele>2118</ele>
        <time>2010-09-19T08:53:41Z</time>
      </trkpt>
      <trkpt lat="45.41217" lon="6.6821">
        <ele>2119</ele>
        <time>2010-09-19T08:54:16Z</time>
      </trkpt>
      <trkpt lat="45.4121" lon="6.6822">
        <ele>2118</ele>
        <time>2010-09-19T08:54:48Z</time>
      </trkpt>
      <trkpt lat="45.41214" lon="6.68206">
        <ele>2120</ele>
        <time>2010-09-19T08:54:55Z</time>
      </trkpt>
      <trkpt lat="45.41211" lon="6.6822">
        <ele>2118</ele>
        <time>2010-09-19T08:55:04Z</time>
      </trkpt>
      <trkpt lat="45.41215" lon="6.68208">
        <ele>2120</ele>
        <time>2010-09-19T08:55:33Z</time>
      </trkpt>
      <trkpt lat="45.41212" lon="6.68221">
        <ele>2118</ele>
        <time>2010-09-19T08:56:40Z</time>
      </trkpt>
      <trkpt lat="45.41217" lon="6.68209">
        <ele>2120</ele>
        <time>2010-09-19T08:57:31Z</time>
      </trkpt>
      <trkpt lat="45.41213" lon="6.68222">
        <ele>2118</ele>
        <time>2010-09-19T09:00:40Z</time>
      </trkpt>
      <trkpt lat="45.41217" lon="6.68215">
        <ele>2119</ele>
        <time>2010-09-19T09:24:26Z</time>
      </trkpt>
      <trkpt lat="45.41216" lon="6.68201">
        <ele>2121</ele>
        <time>2010-09-19T09:34:46Z</time>
      </trkpt>
      <trkpt lat="45.41211" lon="6.68189">
        <ele>2121</ele>
        <time>2010-09-19T09:34:59Z</time>
      </trkpt>
      <trkpt lat="45.41217" lon="6.68178">
        <ele>2123</ele>
        <time>2010-09-19T09:35:10Z</time>
      </trkpt>
      <trkpt lat="45.41222" lon="6.68166">
        <ele>2127</ele>
        <time>2010-09-19T09:35:24Z</time>
      </trkpt>
      <trkpt lat="45.41232" lon="6.68165">
        <ele>2130</ele>
        <time>2010-09-19T09:35:36Z</time>
      </trkpt>
      <trkpt lat="45.41238" lon="6.68155">
        <ele>2131</ele>
        <time>2010-09-19T09:35:54Z</time>
      </trkpt>
      <trkpt lat="45.41248" lon="6.68152">
        <ele>2132</ele>
        <time>2010-09-19T09:36:41Z</time>
      </trkpt>
      <trkpt lat="45.41244" lon="6.6814">
        <ele>2129</ele>
        <time>2010-09-19T09:38:29Z</time>
      </trkpt>
      <trkpt lat="45.41238" lon="6.6813">
        <ele>2127</ele>
        <time>2010-09-19T09:40:11Z</time>
      </trkpt>
      <trkpt lat="45.41246" lon="6.68136">
        <ele>2129</ele>
        <time>2010-09-19T09:41:23Z</time>
      </trkpt>
      <trkpt lat="45.41255" lon="6.68132">
        <ele>2139</ele>
        <time>2010-09-19T09:42:06Z</time>
      </trkpt>
      <trkpt lat="45.41258" lon="6.68119">
        <ele>2140</ele>
        <time>2010-09-19T09:42:24Z</time>
      </trkpt>
      <trkpt lat="45.41266" lon="6.68111">
        <ele>2140</ele>
        <time>2010-09-19T09:43:09Z</time>
      </trkpt>
      <trkpt lat="45.41274" lon="6.68104">
        <ele>2141</ele>
        <time>2010-09-19T09:44:08Z</time>
      </trkpt>
      <trkpt lat="45.41277" lon="6.68091">
        <ele>2141</ele>
        <time>2010-09-19T09:44:32Z</time>
      </trkpt>
      <trkpt lat="45.41287" lon="6.6809">
        <ele>2142</ele>
        <time>2010-09-19T09:44:49Z</time>
      </trkpt>
      <trkpt lat="45.41287" lon="6.68076">
        <ele>2144</ele>
        <time>2010-09-19T09:45:43Z</time>
      </trkpt>
      <trkpt lat="45.41293" lon="6.68065">
        <ele>2145</ele>
        <time>2010-09-19T09:45:59Z</time>
      </trkpt>
      <trkpt lat="45.41297" lon="6.68053">
        <ele>2145</ele>
        <time>2010-09-19T09:46:18Z</time>
      </trkpt>
      <trkpt lat="45.41302" lon="6.68041">
        <ele>2146</ele>
        <time>2010-09-19T09:46:48Z</time>
      </trkpt>
      <trkpt lat="45.4131" lon="6.68034">
        <ele>2148</ele>
        <time>2010-09-19T09:47:02Z</time>
      </trkpt>
      <trkpt lat="45.41319" lon="6.6803">
        <ele>2150</ele>
        <time>2010-09-19T09:47:20Z</time>
      </trkpt>
      <trkpt lat="45.41328" lon="6.68023">
        <ele>2153</ele>
        <time>2010-09-19T09:47:35Z</time>
      </trkpt>
      <trkpt lat="45.41331" lon="6.68011">
        <ele>2159</ele>
        <time>2010-09-19T09:47:54Z</time>
      </trkpt>
      <trkpt lat="45.41338" lon="6.68001">
        <ele>2166</ele>
        <time>2010-09-19T09:48:25Z</time>
      </trkpt>
      <trkpt lat="45.41346" lon="6.67994">
        <ele>2171</ele>
        <time>2010-09-19T09:48:50Z</time>
      </trkpt>
      <trkpt lat="45.41355" lon="6.67987">
        <ele>2173</ele>
        <time>2010-09-19T09:49:21Z</time>
      </trkpt>
      <trkpt lat="45.41364" lon="6.67985">
        <ele>2174</ele>
        <time>2010-09-19T09:49:48Z</time>
      </trkpt>
      <trkpt lat="45.4137" lon="6.67975">
        <ele>2176</ele>
        <time>2010-09-19T09:50:44Z</time>
      </trkpt>
      <trkpt lat="45.41377" lon="6.67966">
        <ele>2177</ele>
        <time>2010-09-19T09:50:58Z</time>
      </trkpt>
      <trkpt lat="45.41382" lon="6.67954">
        <ele>2179</ele>
        <time>2010-09-19T09:51:21Z</time>
      </trkpt>
      <trkpt lat="45.41388" lon="6.67944">
        <ele>2182</ele>
        <time>2010-09-19T09:51:39Z</time>
      </trkpt>
      <trkpt lat="45.41386" lon="6.67932">
        <ele>2183</ele>
        <time>2010-09-19T09:52:04Z</time>
      </trkpt>
      <trkpt lat="45.41391" lon="6.6792">
        <ele>2187</ele>
        <time>2010-09-19T09:52:17Z</time>
      </trkpt>
      <trkpt lat="45.41396" lon="6.67908">
        <ele>2191</ele>
        <time>2010-09-19T09:52:32Z</time>
      </trkpt>
      <trkpt lat="45.41401" lon="6.67897">
        <ele>2190</ele>
        <time>2010-09-19T09:53:05Z</time>
      </trkpt>
      <trkpt lat="45.41407" lon="6.67886">
        <ele>2190</ele>
        <time>2010-09-19T09:53:23Z</time>
      </trkpt>
      <trkpt lat="45.41403" lon="6.67874">
        <ele>2188</ele>
        <time>2010-09-19T09:53:46Z</time>
      </trkpt>
      <trkpt lat="45.41401" lon="6.67861">
        <ele>2189</ele>
        <time>2010-09-19T09:54:18Z</time>
      </trkpt>
      <trkpt lat="45.41405" lon="6.67848">
        <ele>2194</ele>
        <time>2010-09-19T09:54:44Z</time>
      </trkpt>
      <trkpt lat="45.41413" lon="6.67841">
        <ele>2202</ele>
        <time>2010-09-19T09:55:11Z</time>
      </trkpt>
      <trkpt lat="45.41422" lon="6.67835">
        <ele>2210</ele>
        <time>2010-09-19T09:56:29Z</time>
      </trkpt>
      <trkpt lat="45.41431" lon="6.67837">
        <ele>2209</ele>
        <time>2010-09-19T09:57:01Z</time>
      </trkpt>
      <trkpt lat="45.41441" lon="6.67839">
        <ele>2209</ele>
        <time>2010-09-19T09:57:21Z</time>
      </trkpt>
      <trkpt lat="45.4145" lon="6.67835">
        <ele>2209</ele>
        <time>2010-09-19T09:57:35Z</time>
      </trkpt>
      <trkpt lat="45.41458" lon="6.67829">
        <ele>2210</ele>
        <time>2010-09-19T09:57:50Z</time>
      </trkpt>
      <trkpt lat="45.41468" lon="6.67827">
        <ele>2211</ele>
        <time>2010-09-19T09:58:10Z</time>
      </trkpt>
      <trkpt lat="45.41477" lon="6.67826">
        <ele>2212</ele>
        <time>2010-09-19T09:58:29Z</time>
      </trkpt>
      <trkpt lat="45.41487" lon="6.67828">
        <ele>2214</ele>
        <time>2010-09-19T09:58:43Z</time>
      </trkpt>
      <trkpt lat="45.41496" lon="6.67828">
        <ele>2217</ele>
        <time>2010-09-19T09:58:55Z</time>
      </trkpt>
      <trkpt lat="45.41505" lon="6.67821">
        <ele>2218</ele>
        <time>2010-09-19T10:00:26Z</time>
      </trkpt>
      <trkpt lat="45.41504" lon="6.67835">
        <ele>2216</ele>
        <time>2010-09-19T10:21:24Z</time>
      </trkpt>
      <trkpt lat="45.4151" lon="6.67844">
        <ele>2210</ele>
        <time>2010-09-19T10:38:49Z</time>
      </trkpt>
      <trkpt lat="45.41515" lon="6.67857">
        <ele>2205</ele>
        <time>2010-09-19T10:39:17Z</time>
      </trkpt>
      <trkpt lat="45.41524" lon="6.67861">
        <ele>2203</ele>
        <time>2010-09-19T10:41:08Z</time>
      </trkpt>
      <trkpt lat="45.41524" lon="6.67874">
        <ele>2200</ele>
        <time>2010-09-19T10:41:27Z</time>
      </trkpt>
      <trkpt lat="45.4153" lon="6.67884">
        <ele>2197</ele>
        <time>2010-09-19T10:43:30Z</time>
      </trkpt>
      <trkpt lat="45.4153" lon="6.67897">
        <ele>2195</ele>
        <time>2010-09-19T10:48:28Z</time>
      </trkpt>
      <trkpt lat="45.41528" lon="6.67911">
        <ele>2193</ele>
        <time>2010-09-19T10:49:04Z</time>
      </trkpt>
      <trkpt lat="45.41525" lon="6.67924">
        <ele>2169</ele>
        <time>2010-09-19T10:49:52Z</time>
      </trkpt>
      <trkpt lat="45.41521" lon="6.67936">
        <ele>2166</ele>
        <time>2010-09-19T10:52:23Z</time>
      </trkpt>
      <trkpt lat="45.41514" lon="6.67946">
        <ele>2164</ele>
        <time>2010-09-19T10:53:37Z</time>
      </trkpt>
      <trkpt lat="45.41522" lon="6.67937">
        <ele>2166</ele>
        <time>2010-09-19T10:54:17Z</time>
      </trkpt>
      <trkpt lat="45.41531" lon="6.67937">
        <ele>2163</ele>
        <time>2010-09-19T10:55:36Z</time>
      </trkpt>
      <trkpt lat="45.41541" lon="6.67938">
        <ele>2161</ele>
        <time>2010-09-19T10:57:05Z</time>
      </trkpt>
      <trkpt lat="45.41532" lon="6.67943">
        <ele>2161</ele>
        <time>2010-09-19T10:58:19Z</time>
      </trkpt>
      <trkpt lat="45.41535" lon="6.67931">
        <ele>2164</ele>
        <time>2010-09-19T11:01:54Z</time>
      </trkpt>
      <trkpt lat="45.41525" lon="6.67934">
        <ele>2166</ele>
        <time>2010-09-19T11:08:49Z</time>
      </trkpt>
      <trkpt lat="45.41512" lon="6.67925">
        <ele>2175</ele>
        <time>2010-09-19T11:12:42Z</time>
      </trkpt>
      <trkpt lat="45.41523" lon="6.67932">
        <ele>2167</ele>
        <time>2010-09-19T11:13:16Z</time>
      </trkpt>
      <trkpt lat="45.41535" lon="6.67938">
        <ele>2162</ele>
        <time>2010-09-19T11:14:16Z</time>
      </trkpt>
      <trkpt lat="45.41527" lon="6.6793">
        <ele>2166</ele>
        <time>2010-09-19T11:23:57Z</time>
      </trkpt>
      <trkpt lat="45.41536" lon="6.67938">
        <ele>2162</ele>
        <time>2010-09-19T11:26:32Z</time>
      </trkpt>
      <trkpt lat="45.41529" lon="6.6793">
        <ele>2166</ele>
        <time>2010-09-19T11:27:52Z</time>
      </trkpt>
      <trkpt lat="45.41538" lon="6.67932">
        <ele>2163</ele>
        <time>2010-09-19T11:28:11Z</time>
      </trkpt>
      <trkpt lat="45.4153" lon="6.67939">
        <ele>2163</ele>
        <time>2010-09-19T11:28:23Z</time>
      </trkpt>
      <trkpt lat="45.41525" lon="6.67927">
        <ele>2168</ele>
        <time>2010-09-19T11:34:03Z</time>
      </trkpt>
      <trkpt lat="45.41527" lon="6.67914">
        <ele>2193</ele>
        <time>2010-09-19T11:34:20Z</time>
      </trkpt>
      <trkpt lat="45.41525" lon="6.67932">
        <ele>2166</ele>
        <time>2010-09-19T11:35:35Z</time>
      </trkpt>
      <trkpt lat="45.41533" lon="6.67924">
        <ele>2166</ele>
        <time>2010-09-19T11:36:17Z</time>
      </trkpt>
      <trkpt lat="45.41527" lon="6.67934">
        <ele>2165</ele>
        <time>2010-09-19T11:41:20Z</time>
      </trkpt>
      <trkpt lat="45.41534" lon="6.67924">
        <ele>2165</ele>
        <time>2010-09-19T11:43:37Z</time>
      </trkpt>
      <trkpt lat="45.41528" lon="6.67936">
        <ele>2164</ele>
        <time>2010-09-19T11:43:57Z</time>
      </trkpt>
      <trkpt lat="45.41518" lon="6.67937">
        <ele>2167</ele>
        <time>2010-09-19T11:44:25Z</time>
      </trkpt>
      <trkpt lat="45.41527" lon="6.67941">
        <ele>2163</ele>
        <time>2010-09-19T11:45:29Z</time>
      </trkpt>
      <trkpt lat="45.41529" lon="6.67944">
        <ele>2161</ele>
        <time>2010-09-19T11:52:32Z</time>
      </trkpt>
      <trkpt lat="45.41522" lon="6.67954">
        <ele>2159</ele>
        <time>2010-09-19T11:53:57Z</time>
      </trkpt>
      <trkpt lat="45.41525" lon="6.67967">
        <ele>2155</ele>
        <time>2010-09-19T11:54:11Z</time>
      </trkpt>
      <trkpt lat="45.41536" lon="6.67969">
        <ele>2153</ele>
        <time>2010-09-19T11:54:19Z</time>
      </trkpt>
      <trkpt lat="45.41526" lon="6.6797">
        <ele>2154</ele>
        <time>2010-09-19T11:54:25Z</time>
      </trkpt>
      <trkpt lat="45.41517" lon="6.67975">
        <ele>2153</ele>
        <time>2010-09-19T11:54:45Z</time>
      </trkpt>
      <trkpt lat="45.4152" lon="6.67987">
        <ele>2149</ele>
        <time>2010-09-19T11:55:31Z</time>
      </trkpt>
      <trkpt lat="45.41528" lon="6.67995">
        <ele>2148</ele>
        <time>2010-09-19T11:55:42Z</time>
      </trkpt>
      <trkpt lat="45.41517" lon="6.67998">
        <ele>2148</ele>
        <time>2010-09-19T11:55:47Z</time>
      </trkpt>
      <trkpt lat="45.41522" lon="6.6801">
        <ele>2120</ele>
        <time>2010-09-19T11:56:23Z</time>
      </trkpt>
      <trkpt lat="45.41525" lon="6.68022">
        <ele>2113</ele>
        <time>2010-09-19T11:57:11Z</time>
      </trkpt>
      <trkpt lat="45.41534" lon="6.68029">
        <ele>2109</ele>
        <time>2010-09-19T11:57:40Z</time>
      </trkpt>
      <trkpt lat="45.41525" lon="6.68036">
        <ele>2108</ele>
        <time>2010-09-19T11:58:03Z</time>
      </trkpt>
      <trkpt lat="45.41534" lon="6.68042">
        <ele>2105</ele>
        <time>2010-09-19T11:58:36Z</time>
      </trkpt>
      <trkpt lat="45.41524" lon="6.68034">
        <ele>2109</ele>
        <time>2010-09-19T11:58:45Z</time>
      </trkpt>
      <trkpt lat="45.41518" lon="6.68048">
        <ele>2104</ele>
        <time>2010-09-19T11:58:54Z</time>
      </trkpt>
      <trkpt lat="45.41525" lon="6.6806">
        <ele>2100</ele>
        <time>2010-09-19T11:58:58Z</time>
      </trkpt>
      <trkpt lat="45.41536" lon="6.68061">
        <ele>2099</ele>
        <time>2010-09-19T11:59:06Z</time>
      </trkpt>
      <trkpt lat="45.41543" lon="6.68073">
        <ele>2095</ele>
        <time>2010-09-19T11:59:14Z</time>
      </trkpt>
      <trkpt lat="45.41537" lon="6.68062">
        <ele>2098</ele>
        <time>2010-09-19T11:59:41Z</time>
      </trkpt>
      <trkpt lat="45.41534" lon="6.68049">
        <ele>2102</ele>
        <time>2010-09-19T11:59:53Z</time>
      </trkpt>
      <trkpt lat="45.41525" lon="6.68046">
        <ele>2105</ele>
        <time>2010-09-19T12:01:11Z</time>
      </trkpt>
      <trkpt lat="45.41516" lon="6.68038">
        <ele>2109</ele>
        <time>2010-09-19T12:01:27Z</time>
      </trkpt>
      <trkpt lat="45.41525" lon="6.68044">
        <ele>2105</ele>
        <time>2010-09-19T12:01:46Z</time>
      </trkpt>
      <trkpt lat="45.41532" lon="6.68053">
        <ele>2102</ele>
        <time>2010-09-19T12:02:15Z</time>
      </trkpt>
      <trkpt lat="45.41543" lon="6.68055">
        <ele>2099</ele>
        <time>2010-09-19T12:02:23Z</time>
      </trkpt>
      <trkpt lat="45.41534" lon="6.68048">
        <ele>2103</ele>
        <time>2010-09-19T12:02:33Z</time>
      </trkpt>
      <trkpt lat="45.41525" lon="6.68047">
        <ele>2104</ele>
        <time>2010-09-19T12:02:49Z</time>
      </trkpt>
      <trkpt lat="45.41535" lon="6.68047">
        <ele>2103</ele>
        <time>2010-09-19T12:03:51Z</time>
      </trkpt>
      <trkpt lat="45.41524" lon="6.68048">
        <ele>2104</ele>
        <time>2010-09-19T12:03:58Z</time>
      </trkpt>
      <trkpt lat="45.41514" lon="6.68047">
        <ele>2105</ele>
        <time>2010-09-19T12:04:07Z</time>
      </trkpt>
      <trkpt lat="45.41524" lon="6.68047">
        <ele>2104</ele>
        <time>2010-09-19T12:04:26Z</time>
      </trkpt>
      <trkpt lat="45.41533" lon="6.68051">
        <ele>2102</ele>
        <time>2010-09-19T12:05:00Z</time>
      </trkpt>
      <trkpt lat="45.41526" lon="6.6804">
        <ele>2107</ele>
        <time>2010-09-19T12:05:16Z</time>
      </trkpt>
      <trkpt lat="45.41525" lon="6.68055">
        <ele>2102</ele>
        <time>2010-09-19T12:05:19Z</time>
      </trkpt>
      <trkpt lat="45.41538" lon="6.68059">
        <ele>2099</ele>
        <time>2010-09-19T12:05:24Z</time>
      </trkpt>
      <trkpt lat="45.41527" lon="6.68056">
        <ele>2101</ele>
        <time>2010-09-19T12:05:35Z</time>
      </trkpt>
      <trkpt lat="45.41516" lon="6.68047">
        <ele>2105</ele>
        <time>2010-09-19T12:05:45Z</time>
      </trkpt>
      <trkpt lat="45.41506" lon="6.68047">
        <ele>2106</ele>
        <time>2010-09-19T12:05:53Z</time>
      </trkpt>
      <trkpt lat="45.41517" lon="6.68044">
        <ele>2106</ele>
        <time>2010-09-19T12:05:58Z</time>
      </trkpt>
      <trkpt lat="45.41527" lon="6.68046">
        <ele>2104</ele>
        <time>2010-09-19T12:06:05Z</time>
      </trkpt>
      <trkpt lat="45.41537" lon="6.6805">
        <ele>2102</ele>
        <time>2010-09-19T12:06:24Z</time>
      </trkpt>
      <trkpt lat="45.41527" lon="6.68051">
        <ele>2103</ele>
        <time>2010-09-19T12:06:35Z</time>
      </trkpt>
      <trkpt lat="45.41536" lon="6.68046">
        <ele>2103</ele>
        <time>2010-09-19T12:06:52Z</time>
      </trkpt>
      <trkpt lat="45.41537" lon="6.68059">
        <ele>2099</ele>
        <time>2010-09-19T12:07:11Z</time>
      </trkpt>
      <trkpt lat="45.41531" lon="6.68047">
        <ele>2103</ele>
        <time>2010-09-19T12:08:23Z</time>
      </trkpt>
      <trkpt lat="45.41524" lon="6.68035">
        <ele>2109</ele>
        <time>2010-09-19T12:08:31Z</time>
      </trkpt>
      <trkpt lat="45.41532" lon="6.68046">
        <ele>2104</ele>
        <time>2010-09-19T12:08:49Z</time>
      </trkpt>
      <trkpt lat="45.41539" lon="6.68055">
        <ele>2100</ele>
        <time>2010-09-19T12:09:02Z</time>
      </trkpt>
      <trkpt lat="45.41548" lon="6.68062">
        <ele>2097</ele>
        <time>2010-09-19T12:09:11Z</time>
      </trkpt>
      <trkpt lat="45.4154" lon="6.68053">
        <ele>2101</ele>
        <time>2010-09-19T12:09:28Z</time>
      </trkpt>
      <trkpt lat="45.41531" lon="6.68047">
        <ele>2104</ele>
        <time>2010-09-19T12:09:40Z</time>
      </trkpt>
      <trkpt lat="45.41522" lon="6.68053">
        <ele>2102</ele>
        <time>2010-09-19T12:09:53Z</time>
      </trkpt>
      <trkpt lat="45.41531" lon="6.68048">
        <ele>2103</ele>
        <time>2010-09-19T12:10:10Z</time>
      </trkpt>
      <trkpt lat="45.41539" lon="6.68055">
        <ele>2100</ele>
        <time>2010-09-19T12:10:20Z</time>
      </trkpt>
      <trkpt lat="45.41531" lon="6.68048">
        <ele>2103</ele>
        <time>2010-09-19T12:11:23Z</time>
      </trkpt>
      <trkpt lat="45.41534" lon="6.68061">
        <ele>2099</ele>
        <time>2010-09-19T12:12:30Z</time>
      </trkpt>
      <trkpt lat="45.41529" lon="6.68049">
        <ele>2103</ele>
        <time>2010-09-19T12:12:49Z</time>
      </trkpt>
      <trkpt lat="45.41518" lon="6.68053">
        <ele>2103</ele>
        <time>2010-09-19T12:13:02Z</time>
      </trkpt>
      <trkpt lat="45.41527" lon="6.68045">
        <ele>2105</ele>
        <time>2010-09-19T12:13:47Z</time>
      </trkpt>
      <trkpt lat="45.41516" lon="6.68049">
        <ele>2104</ele>
        <time>2010-09-19T12:14:27Z</time>
      </trkpt>
      <trkpt lat="45.41521" lon="6.68038">
        <ele>2108</ele>
        <time>2010-09-19T12:14:34Z</time>
      </trkpt>
      <trkpt lat="45.41534" lon="6.68037">
        <ele>2106</ele>
        <time>2010-09-19T12:14:40Z</time>
      </trkpt>
      <trkpt lat="45.41542" lon="6.68047">
        <ele>2102</ele>
        <time>2010-09-19T12:14:46Z</time>
      </trkpt>
      <trkpt lat="45.41532" lon="6.68048">
        <ele>2103</ele>
        <time>2010-09-19T12:15:16Z</time>
      </trkpt>
      <trkpt lat="45.41541" lon="6.68043">
        <ele>2103</ele>
        <time>2010-09-19T12:15:24Z</time>
      </trkpt>
      <trkpt lat="45.41531" lon="6.68041">
        <ele>2105</ele>
        <time>2010-09-19T12:15:40Z</time>
      </trkpt>
      <trkpt lat="45.41522" lon="6.68036">
        <ele>2109</ele>
        <time>2010-09-19T12:16:19Z</time>
      </trkpt>
      <trkpt lat="45.41531" lon="6.6804">
        <ele>2106</ele>
        <time>2010-09-19T12:16:34Z</time>
      </trkpt>
      <trkpt lat="45.41537" lon="6.68051">
        <ele>2101</ele>
        <time>2010-09-19T12:16:52Z</time>
      </trkpt>
      <trkpt lat="45.41528" lon="6.68047">
        <ele>2104</ele>
        <time>2010-09-19T12:17:11Z</time>
      </trkpt>
      <trkpt lat="45.41522" lon="6.68037">
        <ele>2108</ele>
        <time>2010-09-19T12:17:16Z</time>
      </trkpt>
      <trkpt lat="45.41517" lon="6.68025">
        <ele>2115</ele>
        <time>2010-09-19T12:17:22Z</time>
      </trkpt>
      <trkpt lat="45.41525" lon="6.68029">
        <ele>2111</ele>
        <time>2010-09-19T12:17:34Z</time>
      </trkpt>
      <trkpt lat="45.41534" lon="6.68033">
        <ele>2108</ele>
        <time>2010-09-19T12:17:59Z</time>
      </trkpt>
      <trkpt lat="45.4153" lon="6.6802">
        <ele>2113</ele>
        <time>2010-09-19T12:18:38Z</time>
      </trkpt>
      <trkpt lat="45.4154" lon="6.68021">
        <ele>2110</ele>
        <time>2010-09-19T12:18:46Z</time>
      </trkpt>
      <trkpt lat="45.41549" lon="6.68024">
        <ele>2108</ele>
        <time>2010-09-19T12:18:47Z</time>
      </trkpt>
      <trkpt lat="45.41539" lon="6.68022">
        <ele>2110</ele>
        <time>2010-09-19T12:18:51Z</time>
      </trkpt>
      <trkpt lat="45.41529" lon="6.68022">
        <ele>2113</ele>
        <time>2010-09-19T12:19:02Z</time>
      </trkpt>
      <trkpt lat="45.41521" lon="6.68012">
        <ele>2119</ele>
        <time>2010-09-19T12:19:34Z</time>
      </trkpt>
      <trkpt lat="45.41527" lon="6.68022">
        <ele>2113</ele>
        <time>2010-09-19T12:19:59Z</time>
      </trkpt>
      <trkpt lat="45.41518" lon="6.68012">
        <ele>2120</ele>
        <time>2010-09-19T12:20:24Z</time>
      </trkpt>
      <trkpt lat="45.4151" lon="6.68003">
        <ele>2130</ele>
        <time>2010-09-19T12:20:34Z</time>
      </trkpt>
      <trkpt lat="45.41517" lon="6.67994">
        <ele>2148</ele>
        <time>2010-09-19T12:21:08Z</time>
      </trkpt>
      <trkpt lat="45.41525" lon="6.67999">
        <ele>2148</ele>
        <time>2010-09-19T12:21:14Z</time>
      </trkpt>
      <trkpt lat="45.41517" lon="6.67993">
        <ele>2148</ele>
        <time>2010-09-19T12:21:45Z</time>
      </trkpt>
      <trkpt lat="45.41526" lon="6.67994">
        <ele>2148</ele>
        <time>2010-09-19T12:21:55Z</time>
      </trkpt>
      <trkpt lat="45.41519" lon="6.67985">
        <ele>2150</ele>
        <time>2010-09-19T12:22:08Z</time>
      </trkpt>
      <trkpt lat="45.41509" lon="6.67992">
        <ele>2148</ele>
        <time>2010-09-19T12:23:25Z</time>
      </trkpt>
      <trkpt lat="45.41518" lon="6.67985">
        <ele>2150</ele>
        <time>2010-09-19T12:23:42Z</time>
      </trkpt>
      <trkpt lat="45.41509" lon="6.67979">
        <ele>2151</ele>
        <time>2010-09-19T12:24:35Z</time>
      </trkpt>
      <trkpt lat="45.41518" lon="6.67973">
        <ele>2153</ele>
        <time>2010-09-19T12:25:20Z</time>
      </trkpt>
      <trkpt lat="45.41512" lon="6.67963">
        <ele>2157</ele>
        <time>2010-09-19T12:25:59Z</time>
      </trkpt>
      <trkpt lat="45.41518" lon="6.67973">
        <ele>2153</ele>
        <time>2010-09-19T12:26:19Z</time>
      </trkpt>
      <trkpt lat="45.41514" lon="6.67961">
        <ele>2157</ele>
        <time>2010-09-19T12:26:43Z</time>
      </trkpt>
      <trkpt lat="45.41524" lon="6.67963">
        <ele>2156</ele>
        <time>2010-09-19T12:27:02Z</time>
      </trkpt>
      <trkpt lat="45.41514" lon="6.67964">
        <ele>2156</ele>
        <time>2010-09-19T12:27:38Z</time>
      </trkpt>
      <trkpt lat="45.41504" lon="6.67965">
        <ele>2157</ele>
        <time>2010-09-19T12:28:35Z</time>
      </trkpt>
      <trkpt lat="45.41513" lon="6.67966">
        <ele>2156</ele>
        <time>2010-09-19T12:29:10Z</time>
      </trkpt>
      <trkpt lat="45.41525" lon="6.67969">
        <ele>2154</ele>
        <time>2010-09-19T12:29:12Z</time>
      </trkpt>
      <trkpt lat="45.41536" lon="6.67971">
        <ele>2152</ele>
        <time>2010-09-19T12:29:14Z</time>
      </trkpt>
      <trkpt lat="45.41545" lon="6.67975">
        <ele>2150</ele>
        <time>2010-09-19T12:29:17Z</time>
      </trkpt>
      <trkpt lat="45.41536" lon="6.67973">
        <ele>2152</ele>
        <time>2010-09-19T12:29:22Z</time>
      </trkpt>
      <trkpt lat="45.41525" lon="6.67971">
        <ele>2153</ele>
        <time>2010-09-19T12:29:25Z</time>
      </trkpt>
      <trkpt lat="45.41516" lon="6.67971">
        <ele>2154</ele>
        <time>2010-09-19T12:29:28Z</time>
      </trkpt>
      <trkpt lat="45.41506" lon="6.67968">
        <ele>2156</ele>
        <time>2010-09-19T12:29:54Z</time>
      </trkpt>
      <trkpt lat="45.41518" lon="6.67963">
        <ele>2156</ele>
        <time>2010-09-19T12:30:08Z</time>
      </trkpt>
      <trkpt lat="45.41529" lon="6.67967">
        <ele>2154</ele>
        <time>2010-09-19T12:30:10Z</time>
      </trkpt>
      <trkpt lat="45.41519" lon="6.67964">
        <ele>2156</ele>
        <time>2010-09-19T12:31:07Z</time>
      </trkpt>
      <trkpt lat="45.41521" lon="6.6795">
        <ele>2161</ele>
        <time>2010-09-19T12:31:29Z</time>
      </trkpt>
      <trkpt lat="45.41529" lon="6.67941">
        <ele>2162</ele>
        <time>2010-09-19T12:32:30Z</time>
      </trkpt>
      <trkpt lat="45.4152" lon="6.67936">
        <ele>2167</ele>
        <time>2010-09-19T12:32:49Z</time>
      </trkpt>
      <trkpt lat="45.41517" lon="6.67921">
        <ele>2174</ele>
        <time>2010-09-19T12:33:00Z</time>
      </trkpt>
      <trkpt lat="45.41521" lon="6.67933">
        <ele>2167</ele>
        <time>2010-09-19T12:33:11Z</time>
      </trkpt>
      <trkpt lat="45.41527" lon="6.67943">
        <ele>2162</ele>
        <time>2010-09-19T12:34:38Z</time>
      </trkpt>
      <trkpt lat="45.41528" lon="6.6793">
        <ele>2166</ele>
        <time>2010-09-19T12:34:49Z</time>
      </trkpt>
      <trkpt lat="45.41521" lon="6.67939">
        <ele>2165</ele>
        <time>2010-09-19T12:35:01Z</time>
      </trkpt>
      <trkpt lat="45.41538" lon="6.67935">
        <ele>2162</ele>
        <time>2010-09-19T12:35:33Z</time>
      </trkpt>
      <trkpt lat="45.41548" lon="6.6794">
        <ele>2159</ele>
        <time>2010-09-19T12:35:36Z</time>
      </trkpt>
      <trkpt lat="45.41556" lon="6.67943">
        <ele>2158</ele>
        <time>2010-09-19T12:35:38Z</time>
      </trkpt>
      <trkpt lat="45.41535" lon="6.67941">
        <ele>2161</ele>
        <time>2010-09-19T12:36:28Z</time>
      </trkpt>
      <trkpt lat="45.41525" lon="6.67941">
        <ele>2164</ele>
        <time>2010-09-19T12:36:39Z</time>
      </trkpt>
      <trkpt lat="45.41535" lon="6.67944">
        <ele>2160</ele>
        <time>2010-09-19T12:36:41Z</time>
      </trkpt>
      <trkpt lat="45.41512" lon="6.67939">
        <ele>2168</ele>
        <time>2010-09-19T12:36:43Z</time>
      </trkpt>
      <trkpt lat="45.41533" lon="6.67943">
        <ele>2161</ele>
        <time>2010-09-19T12:37:00Z</time>
      </trkpt>
      <trkpt lat="45.41523" lon="6.67941">
        <ele>2164</ele>
        <time>2010-09-19T12:37:12Z</time>
      </trkpt>
      <trkpt lat="45.41513" lon="6.67939">
        <ele>2168</ele>
        <time>2010-09-19T12:37:22Z</time>
      </trkpt>
      <trkpt lat="45.41525" lon="6.67941">
        <ele>2164</ele>
        <time>2010-09-19T12:37:56Z</time>
      </trkpt>
      <trkpt lat="45.41525" lon="6.67927">
        <ele>2168</ele>
        <time>2010-09-19T12:38:46Z</time>
      </trkpt>
      <trkpt lat="45.41519" lon="6.67916">
        <ele>2193</ele>
        <time>2010-09-19T12:39:45Z</time>
      </trkpt>
      <trkpt lat="45.41513" lon="6.67906">
        <ele>2194</ele>
        <time>2010-09-19T12:41:09Z</time>
      </trkpt>
      <trkpt lat="45.4152" lon="6.67897">
        <ele>2195</ele>
        <time>2010-09-19T12:41:31Z</time>
      </trkpt>
      <trkpt lat="45.41512" lon="6.67891">
        <ele>2197</ele>
        <time>2010-09-19T12:41:48Z</time>
      </trkpt>
      <trkpt lat="45.41521" lon="6.67887">
        <ele>2197</ele>
        <time>2010-09-19T12:43:13Z</time>
      </trkpt>
      <trkpt lat="45.41524" lon="6.67873">
        <ele>2200</ele>
        <time>2010-09-19T12:43:51Z</time>
      </trkpt>
      <trkpt lat="45.41527" lon="6.67861">
        <ele>2202</ele>
        <time>2010-09-19T12:45:28Z</time>
      </trkpt>
      <trkpt lat="45.41527" lon="6.67874">
        <ele>2199</ele>
        <time>2010-09-19T12:45:47Z</time>
      </trkpt>
      <trkpt lat="45.41518" lon="6.6787">
        <ele>2201</ele>
        <time>2010-09-19T12:46:33Z</time>
      </trkpt>
      <trkpt lat="45.4151" lon="6.67866">
        <ele>2203</ele>
        <time>2010-09-19T12:47:29Z</time>
      </trkpt>
      <trkpt lat="45.4152" lon="6.67864">
        <ele>2202</ele>
        <time>2010-09-19T12:47:50Z</time>
      </trkpt>
      <trkpt lat="45.41512" lon="6.67858">
        <ele>2205</ele>
        <time>2010-09-19T12:48:24Z</time>
      </trkpt>
      <trkpt lat="45.41521" lon="6.67859">
        <ele>2204</ele>
        <time>2010-09-19T12:49:15Z</time>
      </trkpt>
      <trkpt lat="45.41512" lon="6.67853">
        <ele>2206</ele>
        <time>2010-09-19T12:49:39Z</time>
      </trkpt>
      <trkpt lat="45.41522" lon="6.67861">
        <ele>2203</ele>
        <time>2010-09-19T12:50:35Z</time>
      </trkpt>
      <trkpt lat="45.41515" lon="6.67852">
        <ele>2207</ele>
        <time>2010-09-19T12:50:48Z</time>
      </trkpt>
      <trkpt lat="45.41506" lon="6.67844">
        <ele>2211</ele>
        <time>2010-09-19T12:51:20Z</time>
      </trkpt>
      <trkpt lat="45.41505" lon="6.67828">
        <ele>2219</ele>
        <time>2010-09-19T12:52:48Z</time>
      </trkpt>
      <trkpt lat="45.41499" lon="6.67839">
        <ele>2216</ele>
        <time>2010-09-19T12:53:13Z</time>
      </trkpt>
      <trkpt lat="45.41496" lon="6.67826">
        <ele>2216</ele>
        <time>2010-09-19T12:53:31Z</time>
      </trkpt>
      <trkpt lat="45.41506" lon="6.67834">
        <ele>2215</ele>
        <time>2010-09-19T12:54:45Z</time>
      </trkpt>
      <trkpt lat="45.41498" lon="6.67825">
        <ele>2216</ele>
        <time>2010-09-19T12:54:53Z</time>
      </trkpt>
      <trkpt lat="45.41502" lon="6.67837">
        <ele>2216</ele>
        <time>2010-09-19T12:55:35Z</time>
      </trkpt>
      <trkpt lat="45.41501" lon="6.67824">
        <ele>2218</ele>
        <time>2010-09-19T12:58:28Z</time>
      </trkpt>
      <trkpt lat="45.41493" lon="6.67832">
        <ele>2216</ele>
        <time>2010-09-19T12:59:03Z</time>
      </trkpt>
      <trkpt lat="45.41502" lon="6.67828">
        <ele>2219</ele>
        <time>2010-09-19T13:00:21Z</time>
      </trkpt>
      <trkpt lat="45.41503" lon="6.67842">
        <ele>2213</ele>
        <time>2010-09-19T13:00:48Z</time>
      </trkpt>
      <trkpt lat="45.41512" lon="6.67848">
        <ele>2208</ele>
        <time>2010-09-19T13:00:52Z</time>
      </trkpt>
      <trkpt lat="45.41504" lon="6.67842">
        <ele>2213</ele>
        <time>2010-09-19T13:01:05Z</time>
      </trkpt>
      <trkpt lat="45.41503" lon="6.67828">
        <ele>2219</ele>
        <time>2010-09-19T13:02:40Z</time>
      </trkpt>
      <trkpt lat="45.41493" lon="6.67828">
        <ele>2216</ele>
        <time>2010-09-19T13:07:44Z</time>
      </trkpt>
      <trkpt lat="45.41482" lon="6.67823">
        <ele>2213</ele>
        <time>2010-09-19T13:07:55Z</time>
      </trkpt>
      <trkpt lat="45.41473" lon="6.67824">
        <ele>2212</ele>
        <time>2010-09-19T13:08:04Z</time>
      </trkpt>
      <trkpt lat="45.41463" lon="6.67827">
        <ele>2210</ele>
        <time>2010-09-19T13:08:27Z</time>
      </trkpt>
      <trkpt lat="45.41455" lon="6.67835">
        <ele>2209</ele>
        <time>2010-09-19T13:08:38Z</time>
      </trkpt>
      <trkpt lat="45.41445" lon="6.67834">
        <ele>2209</ele>
        <time>2010-09-19T13:08:46Z</time>
      </trkpt>
      <trkpt lat="45.41437" lon="6.6784">
        <ele>2209</ele>
        <time>2010-09-19T13:08:58Z</time>
      </trkpt>
      <trkpt lat="45.41427" lon="6.67839">
        <ele>2209</ele>
        <time>2010-09-19T13:09:07Z</time>
      </trkpt>
      <trkpt lat="45.41418" lon="6.67833">
        <ele>2210</ele>
        <time>2010-09-19T13:09:14Z</time>
      </trkpt>
      <trkpt lat="45.4141" lon="6.67839">
        <ele>2201</ele>
        <time>2010-09-19T13:09:21Z</time>
      </trkpt>
      <trkpt lat="45.41406" lon="6.67852">
        <ele>2193</ele>
        <time>2010-09-19T13:09:32Z</time>
      </trkpt>
      <trkpt lat="45.41398" lon="6.67858">
        <ele>2189</ele>
        <time>2010-09-19T13:09:42Z</time>
      </trkpt>
      <trkpt lat="45.41406" lon="6.67866">
        <ele>2190</ele>
        <time>2010-09-19T13:09:55Z</time>
      </trkpt>
      <trkpt lat="45.41408" lon="6.67879">
        <ele>2190</ele>
        <time>2010-09-19T13:10:08Z</time>
      </trkpt>
      <trkpt lat="45.41401" lon="6.6789">
        <ele>2189</ele>
        <time>2010-09-19T13:17:26Z</time>
      </trkpt>
      <trkpt lat="45.41393" lon="6.67897">
        <ele>2187</ele>
        <time>2010-09-19T13:17:32Z</time>
      </trkpt>
      <trkpt lat="45.414" lon="6.67906">
        <ele>2192</ele>
        <time>2010-09-19T13:17:45Z</time>
      </trkpt>
      <trkpt lat="45.41395" lon="6.67918">
        <ele>2189</ele>
        <time>2010-09-19T13:17:55Z</time>
      </trkpt>
      <trkpt lat="45.41388" lon="6.67928">
        <ele>2184</ele>
        <time>2010-09-19T13:18:04Z</time>
      </trkpt>
      <trkpt lat="45.41391" lon="6.67941">
        <ele>2183</ele>
        <time>2010-09-19T13:18:19Z</time>
      </trkpt>
      <trkpt lat="45.41384" lon="6.6795">
        <ele>2180</ele>
        <time>2010-09-19T13:18:29Z</time>
      </trkpt>
      <trkpt lat="45.41378" lon="6.6796">
        <ele>2178</ele>
        <time>2010-09-19T13:18:44Z</time>
      </trkpt>
      <trkpt lat="45.41372" lon="6.67971">
        <ele>2176</ele>
        <time>2010-09-19T13:18:58Z</time>
      </trkpt>
      <trkpt lat="45.41366" lon="6.67982">
        <ele>2175</ele>
        <time>2010-09-19T13:19:12Z</time>
      </trkpt>
      <trkpt lat="45.41357" lon="6.67985">
        <ele>2173</ele>
        <time>2010-09-19T13:19:26Z</time>
      </trkpt>
      <trkpt lat="45.41348" lon="6.6799">
        <ele>2171</ele>
        <time>2010-09-19T13:19:37Z</time>
      </trkpt>
      <trkpt lat="45.41342" lon="6.68002">
        <ele>2165</ele>
        <time>2010-09-19T13:19:57Z</time>
      </trkpt>
      <trkpt lat="45.41331" lon="6.68002">
        <ele>2164</ele>
        <time>2010-09-19T13:20:09Z</time>
      </trkpt>
      <trkpt lat="45.41331" lon="6.68016">
        <ele>2156</ele>
        <time>2010-09-19T13:20:28Z</time>
      </trkpt>
      <trkpt lat="45.41324" lon="6.68028">
        <ele>2151</ele>
        <time>2010-09-19T13:20:42Z</time>
      </trkpt>
      <trkpt lat="45.41315" lon="6.68033">
        <ele>2149</ele>
        <time>2010-09-19T13:20:58Z</time>
      </trkpt>
      <trkpt lat="45.41305" lon="6.68038">
        <ele>2147</ele>
        <time>2010-09-19T13:21:06Z</time>
      </trkpt>
      <trkpt lat="45.41298" lon="6.68048">
        <ele>2145</ele>
        <time>2010-09-19T13:21:20Z</time>
      </trkpt>
      <trkpt lat="45.41293" lon="6.68061">
        <ele>2145</ele>
        <time>2010-09-19T13:21:42Z</time>
      </trkpt>
      <trkpt lat="45.41286" lon="6.68071">
        <ele>2144</ele>
        <time>2010-09-19T13:21:52Z</time>
      </trkpt>
      <trkpt lat="45.41282" lon="6.68083">
        <ele>2144</ele>
        <time>2010-09-19T13:22:04Z</time>
      </trkpt>
      <trkpt lat="45.41277" lon="6.68094">
        <ele>2141</ele>
        <time>2010-09-19T13:22:12Z</time>
      </trkpt>
      <trkpt lat="45.4127" lon="6.68104">
        <ele>2140</ele>
        <time>2010-09-19T13:22:25Z</time>
      </trkpt>
      <trkpt lat="45.41265" lon="6.68116">
        <ele>2140</ele>
        <time>2010-09-19T13:22:39Z</time>
      </trkpt>
      <trkpt lat="45.41259" lon="6.68127">
        <ele>2140</ele>
        <time>2010-09-19T13:22:55Z</time>
      </trkpt>
      <trkpt lat="45.41253" lon="6.68137">
        <ele>2139</ele>
        <time>2010-09-19T13:23:07Z</time>
      </trkpt>
      <trkpt lat="45.41245" lon="6.68144">
        <ele>2130</ele>
        <time>2010-09-19T13:23:19Z</time>
      </trkpt>
      <trkpt lat="45.41236" lon="6.68151">
        <ele>2130</ele>
        <time>2010-09-19T13:23:29Z</time>
      </trkpt>
      <trkpt lat="45.41231" lon="6.68162">
        <ele>2130</ele>
        <time>2010-09-19T13:23:45Z</time>
      </trkpt>
      <trkpt lat="45.41222" lon="6.68169">
        <ele>2125</ele>
        <time>2010-09-19T13:23:54Z</time>
      </trkpt>
      <trkpt lat="45.41222" lon="6.68183">
        <ele>2124</ele>
        <time>2010-09-19T13:24:02Z</time>
      </trkpt>
      <trkpt lat="45.41214" lon="6.68189">
        <ele>2122</ele>
        <time>2010-09-19T13:24:10Z</time>
      </trkpt>
      <trkpt lat="45.41215" lon="6.68202">
        <ele>2120</ele>
        <time>2010-09-19T13:24:18Z</time>
      </trkpt>
      <trkpt lat="45.4121" lon="6.68215">
        <ele>2118</ele>
        <time>2010-09-19T13:24:36Z</time>
      </trkpt>
      <trkpt lat="45.412" lon="6.6822">
        <ele>2117</ele>
        <time>2010-09-19T13:24:51Z</time>
      </trkpt>
      <trkpt lat="45.41191" lon="6.6822">
        <ele>2116</ele>
        <time>2010-09-19T13:25:01Z</time>
      </trkpt>
      <trkpt lat="45.4118" lon="6.68218">
        <ele>2116</ele>
        <time>2010-09-19T13:25:10Z</time>
      </trkpt>
      <trkpt lat="45.4117" lon="6.68222">
        <ele>2115</ele>
        <time>2010-09-19T13:25:20Z</time>
      </trkpt>
      <trkpt lat="45.41162" lon="6.68215">
        <ele>2104</ele>
        <time>2010-09-19T13:25:36Z</time>
      </trkpt>
      <trkpt lat="45.41152" lon="6.68217">
        <ele>2103</ele>
        <time>2010-09-19T13:25:43Z</time>
      </trkpt>
      <trkpt lat="45.41143" lon="6.68222">
        <ele>2102</ele>
        <time>2010-09-19T13:25:55Z</time>
      </trkpt>
      <trkpt lat="45.41134" lon="6.6822">
        <ele>2101</ele>
        <time>2010-09-19T13:26:07Z</time>
      </trkpt>
      <trkpt lat="45.41125" lon="6.68224">
        <ele>2100</ele>
        <time>2010-09-19T13:26:15Z</time>
      </trkpt>
      <trkpt lat="45.41117" lon="6.68232">
        <ele>2099</ele>
        <time>2010-09-19T13:26:25Z</time>
      </trkpt>
      <trkpt lat="45.41107" lon="6.68233">
        <ele>2098</ele>
        <time>2010-09-19T13:26:35Z</time>
      </trkpt>
      <trkpt lat="45.41102" lon="6.68245">
        <ele>2097</ele>
        <time>2010-09-19T13:26:49Z</time>
      </trkpt>
      <trkpt lat="45.41093" lon="6.68245">
        <ele>2096</ele>
        <time>2010-09-19T13:26:56Z</time>
      </trkpt>
      <trkpt lat="45.41081" lon="6.68244">
        <ele>2089</ele>
        <time>2010-09-19T13:27:13Z</time>
      </trkpt>
      <trkpt lat="45.41081" lon="6.68259">
        <ele>2088</ele>
        <time>2010-09-19T13:27:35Z</time>
      </trkpt>
      <trkpt lat="45.41072" lon="6.68267">
        <ele>2083</ele>
        <time>2010-09-19T13:27:51Z</time>
      </trkpt>
      <trkpt lat="45.41063" lon="6.68268">
        <ele>2080</ele>
        <time>2010-09-19T13:28:11Z</time>
      </trkpt>
      <trkpt lat="45.4106" lon="6.68256">
        <ele>2081</ele>
        <time>2010-09-19T13:28:26Z</time>
      </trkpt>
      <trkpt lat="45.4105" lon="6.68259">
        <ele>2077</ele>
        <time>2010-09-19T13:28:36Z</time>
      </trkpt>
      <trkpt lat="45.41047" lon="6.68273">
        <ele>2076</ele>
        <time>2010-09-19T13:28:47Z</time>
      </trkpt>
      <trkpt lat="45.41041" lon="6.68283">
        <ele>2074</ele>
        <time>2010-09-19T13:28:57Z</time>
      </trkpt>
      <trkpt lat="45.41035" lon="6.68295">
        <ele>2073</ele>
        <time>2010-09-19T13:29:06Z</time>
      </trkpt>
      <trkpt lat="45.41033" lon="6.68308">
        <ele>2072</ele>
        <time>2010-09-19T13:29:19Z</time>
      </trkpt>
      <trkpt lat="45.41022" lon="6.68303">
        <ele>2072</ele>
        <time>2010-09-19T13:29:26Z</time>
      </trkpt>
      <trkpt lat="45.41013" lon="6.68305">
        <ele>2071</ele>
        <time>2010-09-19T13:29:42Z</time>
      </trkpt>
      <trkpt lat="45.41004" lon="6.6831">
        <ele>2071</ele>
        <time>2010-09-19T13:30:07Z</time>
      </trkpt>
      <trkpt lat="45.40995" lon="6.68301">
        <ele>2056</ele>
        <time>2010-09-19T13:30:20Z</time>
      </trkpt>
      <trkpt lat="45.40986" lon="6.68296">
        <ele>2055</ele>
        <time>2010-09-19T13:30:26Z</time>
      </trkpt>
      <trkpt lat="45.40979" lon="6.68307">
        <ele>2055</ele>
        <time>2010-09-19T13:30:31Z</time>
      </trkpt>
      <trkpt lat="45.40978" lon="6.68322">
        <ele>2057</ele>
        <time>2010-09-19T13:30:35Z</time>
      </trkpt>
      <trkpt lat="45.40969" lon="6.68319">
        <ele>2055</ele>
        <time>2010-09-19T13:30:42Z</time>
      </trkpt>
      <trkpt lat="45.40966" lon="6.68333">
        <ele>2056</ele>
        <time>2010-09-19T13:30:51Z</time>
      </trkpt>
      <trkpt lat="45.40957" lon="6.68337">
        <ele>2063</ele>
        <time>2010-09-19T13:30:54Z</time>
      </trkpt>
      <trkpt lat="45.40963" lon="6.68349">
        <ele>2064</ele>
        <time>2010-09-19T13:31:01Z</time>
      </trkpt>
      <trkpt lat="45.40969" lon="6.68365">
        <ele>2064</ele>
        <time>2010-09-19T13:31:13Z</time>
      </trkpt>
      <trkpt lat="45.40971" lon="6.68378">
        <ele>2064</ele>
        <time>2010-09-19T13:31:21Z</time>
      </trkpt>
      <trkpt lat="45.40976" lon="6.6839">
        <ele>2064</ele>
        <time>2010-09-19T13:31:31Z</time>
      </trkpt>
      <trkpt lat="45.40985" lon="6.68384">
        <ele>2064</ele>
        <time>2010-09-19T13:31:45Z</time>
      </trkpt>
      <trkpt lat="45.40995" lon="6.68383">
        <ele>2063</ele>
        <time>2010-09-19T13:32:38Z</time>
      </trkpt>
      <trkpt lat="45.41004" lon="6.68381">
        <ele>2059</ele>
        <time>2010-09-19T13:32:47Z</time>
      </trkpt>
      <trkpt lat="45.41013" lon="6.68374">
        <ele>2060</ele>
        <time>2010-09-19T13:32:56Z</time>
      </trkpt>
      <trkpt lat="45.4102" lon="6.68383">
        <ele>2058</ele>
        <time>2010-09-19T13:33:03Z</time>
      </trkpt>
      <trkpt lat="45.41029" lon="6.68388">
        <ele>2057</ele>
        <time>2010-09-19T13:33:15Z</time>
      </trkpt>
      <trkpt lat="45.41038" lon="6.68391">
        <ele>2056</ele>
        <time>2010-09-19T13:33:24Z</time>
      </trkpt>
      <trkpt lat="45.41045" lon="6.68401">
        <ele>2053</ele>
        <time>2010-09-19T13:33:35Z</time>
      </trkpt>
      <trkpt lat="45.41055" lon="6.68401">
        <ele>2051</ele>
        <time>2010-09-19T13:33:45Z</time>
      </trkpt>
      <trkpt lat="45.41064" lon="6.68396">
        <ele>2050</ele>
        <time>2010-09-19T13:34:03Z</time>
      </trkpt>
      <trkpt lat="45.41074" lon="6.68398">
        <ele>2046</ele>
        <time>2010-09-19T13:34:16Z</time>
      </trkpt>
      <trkpt lat="45.41086" lon="6.68393">
        <ele>2043</ele>
        <time>2010-09-19T13:34:34Z</time>
      </trkpt>
      <trkpt lat="45.41096" lon="6.68388">
        <ele>2046</ele>
        <time>2010-09-19T13:34:42Z</time>
      </trkpt>
      <trkpt lat="45.41105" lon="6.68392">
        <ele>2046</ele>
        <time>2010-09-19T13:34:55Z</time>
      </trkpt>
      <trkpt lat="45.41114" lon="6.68396">
        <ele>2045</ele>
        <time>2010-09-19T13:35:10Z</time>
      </trkpt>
      <trkpt lat="45.41124" lon="6.68395">
        <ele>2045</ele>
        <time>2010-09-19T13:35:19Z</time>
      </trkpt>
      <trkpt lat="45.4113" lon="6.68407">
        <ele>2043</ele>
        <time>2010-09-19T13:35:29Z</time>
      </trkpt>
      <trkpt lat="45.41139" lon="6.6841">
        <ele>2041</ele>
        <time>2010-09-19T13:35:36Z</time>
      </trkpt>
      <trkpt lat="45.41147" lon="6.68418">
        <ele>2018</ele>
        <time>2010-09-19T13:35:45Z</time>
      </trkpt>
      <trkpt lat="45.41156" lon="6.68423">
        <ele>2020</ele>
        <time>2010-09-19T13:36:01Z</time>
      </trkpt>
      <trkpt lat="45.41165" lon="6.6843">
        <ele>2019</ele>
        <time>2010-09-19T13:36:10Z</time>
      </trkpt>
      <trkpt lat="45.41174" lon="6.68436">
        <ele>2018</ele>
        <time>2010-09-19T13:36:19Z</time>
      </trkpt>
      <trkpt lat="45.41181" lon="6.68445">
        <ele>2015</ele>
        <time>2010-09-19T13:36:28Z</time>
      </trkpt>
      <trkpt lat="45.41183" lon="6.68459">
        <ele>2011</ele>
        <time>2010-09-19T13:36:36Z</time>
      </trkpt>
      <trkpt lat="45.41181" lon="6.68472">
        <ele>2007</ele>
        <time>2010-09-19T13:36:44Z</time>
      </trkpt>
      <trkpt lat="45.41184" lon="6.68486">
        <ele>2004</ele>
        <time>2010-09-19T13:36:54Z</time>
      </trkpt>
      <trkpt lat="45.41192" lon="6.68495">
        <ele>2004</ele>
        <time>2010-09-19T13:37:02Z</time>
      </trkpt>
      <trkpt lat="45.4119" lon="6.68508">
        <ele>1989</ele>
        <time>2010-09-19T13:37:10Z</time>
      </trkpt>
      <trkpt lat="45.41188" lon="6.68523">
        <ele>1987</ele>
        <time>2010-09-19T13:37:17Z</time>
      </trkpt>
      <trkpt lat="45.41188" lon="6.68536">
        <ele>1986</ele>
        <time>2010-09-19T13:37:27Z</time>
      </trkpt>
      <trkpt lat="45.41193" lon="6.68548">
        <ele>1985</ele>
        <time>2010-09-19T13:37:40Z</time>
      </trkpt>
      <trkpt lat="45.41199" lon="6.68559">
        <ele>1983</ele>
        <time>2010-09-19T13:37:51Z</time>
      </trkpt>
      <trkpt lat="45.41207" lon="6.68568">
        <ele>1982</ele>
        <time>2010-09-19T13:38:00Z</time>
      </trkpt>
      <trkpt lat="45.41208" lon="6.68581">
        <ele>1981</ele>
        <time>2010-09-19T13:38:08Z</time>
      </trkpt>
      <trkpt lat="45.41217" lon="6.68588">
        <ele>1968</ele>
        <time>2010-09-19T13:38:22Z</time>
      </trkpt>
      <trkpt lat="45.41225" lon="6.68582">
        <ele>1979</ele>
        <time>2010-09-19T13:38:34Z</time>
      </trkpt>
      <trkpt lat="45.41234" lon="6.68577">
        <ele>1977</ele>
        <time>2010-09-19T13:38:46Z</time>
      </trkpt>
      <trkpt lat="45.41244" lon="6.68577">
        <ele>1974</ele>
        <time>2010-09-19T13:38:55Z</time>
      </trkpt>
      <trkpt lat="45.41252" lon="6.68571">
        <ele>1971</ele>
        <time>2010-09-19T13:39:07Z</time>
      </trkpt>
      <trkpt lat="45.41262" lon="6.68574">
        <ele>1971</ele>
        <time>2010-09-19T13:39:14Z</time>
      </trkpt>
      <trkpt lat="45.41271" lon="6.68576">
        <ele>1971</ele>
        <time>2010-09-19T13:39:20Z</time>
      </trkpt>
      <trkpt lat="45.41281" lon="6.68577">
        <ele>1970</ele>
        <time>2010-09-19T13:39:27Z</time>
      </trkpt>
      <trkpt lat="45.4129" lon="6.68582">
        <ele>1969</ele>
        <time>2010-09-19T13:39:34Z</time>
      </trkpt>
      <trkpt lat="45.413" lon="6.6859">
        <ele>1955</ele>
        <time>2010-09-19T13:39:41Z</time>
      </trkpt>
      <trkpt lat="45.41312" lon="6.68587">
        <ele>1955</ele>
        <time>2010-09-19T13:39:49Z</time>
      </trkpt>
      <trkpt lat="45.41319" lon="6.68597">
        <ele>1954</ele>
        <time>2010-09-19T13:39:58Z</time>
      </trkpt>
      <trkpt lat="45.41322" lon="6.68611">
        <ele>1953</ele>
        <time>2010-09-19T13:40:04Z</time>
      </trkpt>
      <trkpt lat="45.41329" lon="6.68622">
        <ele>1951</ele>
        <time>2010-09-19T13:40:14Z</time>
      </trkpt>
      <trkpt lat="45.41335" lon="6.68632">
        <ele>1945</ele>
        <time>2010-09-19T13:40:26Z</time>
      </trkpt>
      <trkpt lat="45.41339" lon="6.68644">
        <ele>1944</ele>
        <time>2010-09-19T13:40:35Z</time>
      </trkpt>
      <trkpt lat="45.41332" lon="6.68653">
        <ele>1945</ele>
        <time>2010-09-19T13:41:27Z</time>
      </trkpt>
      <trkpt lat="45.41322" lon="6.68653">
        <ele>1946</ele>
        <time>2010-09-19T13:41:37Z</time>
      </trkpt>
      <trkpt lat="45.41313" lon="6.6865">
        <ele>1948</ele>
        <time>2010-09-19T13:41:49Z</time>
      </trkpt>
      <trkpt lat="45.41302" lon="6.68648">
        <ele>1950</ele>
        <time>2010-09-19T13:42:01Z</time>
      </trkpt>
      <trkpt lat="45.41312" lon="6.68651">
        <ele>1948</ele>
        <time>2010-09-19T13:50:49Z</time>
      </trkpt>
      <trkpt lat="45.41322" lon="6.68651">
        <ele>1947</ele>
        <time>2010-09-19T13:51:03Z</time>
      </trkpt>
      <trkpt lat="45.41331" lon="6.6865">
        <ele>1946</ele>
        <time>2010-09-19T13:51:15Z</time>
      </trkpt>
      <trkpt lat="45.41338" lon="6.6866">
        <ele>1942</ele>
        <time>2010-09-19T13:52:31Z</time>
      </trkpt>
      <trkpt lat="45.41346" lon="6.68666">
        <ele>1942</ele>
        <time>2010-09-19T13:52:44Z</time>
      </trkpt>
      <trkpt lat="45.41354" lon="6.68673">
        <ele>1935</ele>
        <time>2010-09-19T13:52:56Z</time>
      </trkpt>
      <trkpt lat="45.41362" lon="6.68682">
        <ele>1933</ele>
        <time>2010-09-19T13:53:05Z</time>
      </trkpt>
      <trkpt lat="45.41372" lon="6.68688">
        <ele>1932</ele>
        <time>2010-09-19T13:53:14Z</time>
      </trkpt>
      <trkpt lat="45.41379" lon="6.68696">
        <ele>1931</ele>
        <time>2010-09-19T13:53:28Z</time>
      </trkpt>
      <trkpt lat="45.41385" lon="6.68707">
        <ele>1930</ele>
        <time>2010-09-19T13:53:37Z</time>
      </trkpt>
      <trkpt lat="45.41394" lon="6.68705">
        <ele>1930</ele>
        <time>2010-09-19T13:53:47Z</time>
      </trkpt>
      <trkpt lat="45.41404" lon="6.68706">
        <ele>1930</ele>
        <time>2010-09-19T13:54:01Z</time>
      </trkpt>
      <trkpt lat="45.41412" lon="6.68712">
        <ele>1929</ele>
        <time>2010-09-19T13:54:08Z</time>
      </trkpt>
      <trkpt lat="45.41422" lon="6.68713">
        <ele>1921</ele>
        <time>2010-09-19T13:54:16Z</time>
      </trkpt>
      <trkpt lat="45.41432" lon="6.68718">
        <ele>1919</ele>
        <time>2010-09-19T13:54:24Z</time>
      </trkpt>
      <trkpt lat="45.41441" lon="6.68721">
        <ele>1918</ele>
        <time>2010-09-19T13:54:40Z</time>
      </trkpt>
      <trkpt lat="45.4145" lon="6.68727">
        <ele>1917</ele>
        <time>2010-09-19T13:54:54Z</time>
      </trkpt>
      <trkpt lat="45.41458" lon="6.68736">
        <ele>1915</ele>
        <time>2010-09-19T13:55:05Z</time>
      </trkpt>
      <trkpt lat="45.41467" lon="6.68742">
        <ele>1913</ele>
        <time>2010-09-19T13:55:20Z</time>
      </trkpt>
      <trkpt lat="45.41476" lon="6.68745">
        <ele>1911</ele>
        <time>2010-09-19T13:55:32Z</time>
      </trkpt>
      <trkpt lat="45.41485" lon="6.6875">
        <ele>1909</ele>
        <time>2010-09-19T13:55:49Z</time>
      </trkpt>
      <trkpt lat="45.41494" lon="6.68752">
        <ele>1900</ele>
        <time>2010-09-19T13:56:04Z</time>
      </trkpt>
      <trkpt lat="45.41504" lon="6.68746">
        <ele>1898</ele>
        <time>2010-09-19T13:56:16Z</time>
      </trkpt>
      <trkpt lat="45.41508" lon="6.68759">
        <ele>1888</ele>
        <time>2010-09-19T13:56:33Z</time>
      </trkpt>
      <trkpt lat="45.41511" lon="6.68772">
        <ele>1880</ele>
        <time>2010-09-19T13:56:43Z</time>
      </trkpt>
      <trkpt lat="45.41513" lon="6.68785">
        <ele>1875</ele>
        <time>2010-09-19T13:56:53Z</time>
      </trkpt>
      <trkpt lat="45.4151" lon="6.68798">
        <ele>1873</ele>
        <time>2010-09-19T13:57:03Z</time>
      </trkpt>
      <trkpt lat="45.41506" lon="6.6881">
        <ele>1872</ele>
        <time>2010-09-19T13:57:15Z</time>
      </trkpt>
      <trkpt lat="45.41515" lon="6.68816">
        <ele>1870</ele>
        <time>2010-09-19T13:57:28Z</time>
      </trkpt>
      <trkpt lat="45.41519" lon="6.68829">
        <ele>1869</ele>
        <time>2010-09-19T13:57:49Z</time>
      </trkpt>
      <trkpt lat="45.41528" lon="6.68835">
        <ele>1853</ele>
        <time>2010-09-19T13:58:02Z</time>
      </trkpt>
      <trkpt lat="45.41522" lon="6.68846">
        <ele>1853</ele>
        <time>2010-09-19T13:58:13Z</time>
      </trkpt>
      <trkpt lat="45.41532" lon="6.6885">
        <ele>1849</ele>
        <time>2010-09-19T13:58:26Z</time>
      </trkpt>
      <trkpt lat="45.4153" lon="6.68863">
        <ele>1847</ele>
        <time>2010-09-19T13:58:48Z</time>
      </trkpt>
      <trkpt lat="45.41539" lon="6.68869">
        <ele>1844</ele>
        <time>2010-09-19T13:58:59Z</time>
      </trkpt>
      <trkpt lat="45.41545" lon="6.6888">
        <ele>1842</ele>
        <time>2010-09-19T13:59:15Z</time>
      </trkpt>
      <trkpt lat="45.41551" lon="6.6889">
        <ele>1839</ele>
        <time>2010-09-19T13:59:29Z</time>
      </trkpt>
      <trkpt lat="45.41561" lon="6.68887">
        <ele>1839</ele>
        <time>2010-09-19T13:59:47Z</time>
      </trkpt>
      <trkpt lat="45.41571" lon="6.68885">
        <ele>1838</ele>
        <time>2010-09-19T14:00:01Z</time>
      </trkpt>
      <trkpt lat="45.4158" lon="6.68881">
        <ele>1838</ele>
        <time>2010-09-19T14:00:07Z</time>
      </trkpt>
      <trkpt lat="45.41587" lon="6.68871">
        <ele>1816</ele>
        <time>2010-09-19T14:00:18Z</time>
      </trkpt>
      <trkpt lat="45.41589" lon="6.68857">
        <ele>1821</ele>
        <time>2010-09-19T14:00:29Z</time>
      </trkpt>
      <trkpt lat="45.41589" lon="6.68842">
        <ele>1830</ele>
        <time>2010-09-19T14:00:34Z</time>
      </trkpt>
      <trkpt lat="45.41584" lon="6.6883">
        <ele>1839</ele>
        <time>2010-09-19T14:00:40Z</time>
      </trkpt>
      <trkpt lat="45.41587" lon="6.68817">
        <ele>1832</ele>
        <time>2010-09-19T14:00:57Z</time>
      </trkpt>
      <trkpt lat="45.41595" lon="6.6881">
        <ele>1829</ele>
        <time>2010-09-19T14:01:05Z</time>
      </trkpt>
      <trkpt lat="45.41604" lon="6.68807">
        <ele>1826</ele>
        <time>2010-09-19T14:01:11Z</time>
      </trkpt>
      <trkpt lat="45.41611" lon="6.68795">
        <ele>1824</ele>
        <time>2010-09-19T14:01:19Z</time>
      </trkpt>
      <trkpt lat="45.41612" lon="6.68781">
        <ele>1825</ele>
        <time>2010-09-19T14:01:33Z</time>
      </trkpt>
      <trkpt lat="45.4162" lon="6.68771">
        <ele>1824</ele>
        <time>2010-09-19T14:01:43Z</time>
      </trkpt>
      <trkpt lat="45.41623" lon="6.68754">
        <ele>1824</ele>
        <time>2010-09-19T14:01:47Z</time>
      </trkpt>
      <trkpt lat="45.41625" lon="6.68741">
        <ele>1827</ele>
        <time>2010-09-19T14:01:55Z</time>
      </trkpt>
      <trkpt lat="45.41632" lon="6.68731">
        <ele>1825</ele>
        <time>2010-09-19T14:02:03Z</time>
      </trkpt>
      <trkpt lat="45.41639" lon="6.68722">
        <ele>1823</ele>
        <time>2010-09-19T14:02:13Z</time>
      </trkpt>
      <trkpt lat="45.41645" lon="6.6871">
        <ele>1822</ele>
        <time>2010-09-19T14:02:22Z</time>
      </trkpt>
      <trkpt lat="45.41649" lon="6.68698">
        <ele>1821</ele>
        <time>2010-09-19T14:02:34Z</time>
      </trkpt>
      <trkpt lat="45.41654" lon="6.68711">
        <ele>1820</ele>
        <time>2010-09-19T14:03:13Z</time>
      </trkpt>
      <trkpt lat="45.41661" lon="6.68721">
        <ele>1817</ele>
        <time>2010-09-19T14:03:22Z</time>
      </trkpt>
      <trkpt lat="45.41668" lon="6.6871">
        <ele>1783</ele>
        <time>2010-09-19T14:03:33Z</time>
      </trkpt>
      <trkpt lat="45.41678" lon="6.68716">
        <ele>1781</ele>
        <time>2010-09-19T14:04:00Z</time>
      </trkpt>
      <trkpt lat="45.41674" lon="6.68729">
        <ele>1785</ele>
        <time>2010-09-19T14:04:14Z</time>
      </trkpt>
      <trkpt lat="45.41679" lon="6.68742">
        <ele>1788</ele>
        <time>2010-09-19T14:04:28Z</time>
      </trkpt>
      <trkpt lat="45.41684" lon="6.68754">
        <ele>1781</ele>
        <time>2010-09-19T14:04:39Z</time>
      </trkpt>
      <trkpt lat="45.41682" lon="6.68768">
        <ele>1778</ele>
        <time>2010-09-19T14:05:00Z</time>
      </trkpt>
      <trkpt lat="45.41686" lon="6.6878">
        <ele>1772</ele>
        <time>2010-09-19T14:05:10Z</time>
      </trkpt>
      <trkpt lat="45.41684" lon="6.68794">
        <ele>1771</ele>
        <time>2010-09-19T14:05:28Z</time>
      </trkpt>
      <trkpt lat="45.41689" lon="6.68807">
        <ele>1769</ele>
        <time>2010-09-19T14:05:46Z</time>
      </trkpt>
      <trkpt lat="45.41697" lon="6.68815">
        <ele>1766</ele>
        <time>2010-09-19T14:06:02Z</time>
      </trkpt>
      <trkpt lat="45.41699" lon="6.68828">
        <ele>1765</ele>
        <time>2010-09-19T14:06:23Z</time>
      </trkpt>
      <trkpt lat="45.41699" lon="6.68842">
        <ele>1756</ele>
        <time>2010-09-19T14:06:35Z</time>
      </trkpt>
      <trkpt lat="45.41704" lon="6.68854">
        <ele>1752</ele>
        <time>2010-09-19T14:06:45Z</time>
      </trkpt>
      <trkpt lat="45.41714" lon="6.68862">
        <ele>1748</ele>
        <time>2010-09-19T14:07:06Z</time>
      </trkpt>
      <trkpt lat="45.41726" lon="6.68863">
        <ele>1744</ele>
        <time>2010-09-19T14:07:36Z</time>
      </trkpt>
      <trkpt lat="45.41735" lon="6.68859">
        <ele>1741</ele>
        <time>2010-09-19T14:07:40Z</time>
      </trkpt>
      <trkpt lat="45.41742" lon="6.68872">
        <ele>1739</ele>
        <time>2010-09-19T14:08:02Z</time>
      </trkpt>
      <trkpt lat="45.41732" lon="6.68881">
        <ele>1740</ele>
        <time>2010-09-19T14:08:20Z</time>
      </trkpt>
      <trkpt lat="45.4173" lon="6.68895">
        <ele>1737</ele>
        <time>2010-09-19T14:08:37Z</time>
      </trkpt>
      <trkpt lat="45.41741" lon="6.68895">
        <ele>1733</ele>
        <time>2010-09-19T14:08:45Z</time>
      </trkpt>
      <trkpt lat="45.41758" lon="6.68897">
        <ele>1700</ele>
        <time>2010-09-19T14:09:01Z</time>
      </trkpt>
      <trkpt lat="45.41765" lon="6.68907">
        <ele>1700</ele>
        <time>2010-09-19T14:09:19Z</time>
      </trkpt>
      <trkpt lat="45.4176" lon="6.68919">
        <ele>1698</ele>
        <time>2010-09-19T14:09:31Z</time>
      </trkpt>
      <trkpt lat="45.41768" lon="6.68922">
        <ele>1690</ele>
        <time>2010-09-19T14:09:45Z</time>
      </trkpt>
      <trkpt lat="45.41779" lon="6.68921">
        <ele>1684</ele>
        <time>2010-09-19T14:09:54Z</time>
      </trkpt>
      <trkpt lat="45.41784" lon="6.68932">
        <ele>1680</ele>
        <time>2010-09-19T14:10:24Z</time>
      </trkpt>
      <trkpt lat="45.41794" lon="6.68933">
        <ele>1675</ele>
        <time>2010-09-19T14:10:36Z</time>
      </trkpt>
      <trkpt lat="45.41804" lon="6.68934">
        <ele>1671</ele>
        <time>2010-09-19T14:11:06Z</time>
      </trkpt>
      <trkpt lat="45.41813" lon="6.68935">
        <ele>1668</ele>
        <time>2010-09-19T14:11:26Z</time>
      </trkpt>
      <trkpt lat="45.41823" lon="6.6894">
        <ele>1665</ele>
        <time>2010-09-19T14:11:32Z</time>
      </trkpt>
      <trkpt lat="45.41833" lon="6.68939">
        <ele>1664</ele>
        <time>2010-09-19T14:11:52Z</time>
      </trkpt>
      <trkpt lat="45.41838" lon="6.68955">
        <ele>1629</ele>
        <time>2010-09-19T14:12:23Z</time>
      </trkpt>
      <trkpt lat="45.41848" lon="6.68953">
        <ele>1627</ele>
        <time>2010-09-19T14:12:39Z</time>
      </trkpt>
      <trkpt lat="45.41858" lon="6.68953">
        <ele>1624</ele>
        <time>2010-09-19T14:13:13Z</time>
      </trkpt>
      <trkpt lat="45.41868" lon="6.68955">
        <ele>1621</ele>
        <time>2010-09-19T14:13:32Z</time>
      </trkpt>
      <trkpt lat="45.41857" lon="6.68958">
        <ele>1624</ele>
        <time>2010-09-19T14:14:45Z</time>
      </trkpt>
      <trkpt lat="45.41851" lon="6.68971">
        <ele>1625</ele>
        <time>2010-09-19T14:14:49Z</time>
      </trkpt>
      <trkpt lat="45.41857" lon="6.68961">
        <ele>1624</ele>
        <time>2010-09-19T14:14:56Z</time>
      </trkpt>
      <trkpt lat="45.4185" lon="6.68952">
        <ele>1627</ele>
        <time>2010-09-19T14:15:28Z</time>
      </trkpt>
      <trkpt lat="45.41844" lon="6.68969">
        <ele>1626</ele>
        <time>2010-09-19T14:15:46Z</time>
      </trkpt>
      <trkpt lat="45.41833" lon="6.68965">
        <ele>1662</ele>
        <time>2010-09-19T14:15:50Z</time>
      </trkpt>
      <trkpt lat="45.41842" lon="6.68968">
        <ele>1627</ele>
        <time>2010-09-19T14:15:57Z</time>
      </trkpt>
      <trkpt lat="45.4185" lon="6.68979">
        <ele>1625</ele>
        <time>2010-09-19T14:16:02Z</time>
      </trkpt>
      <trkpt lat="45.41843" lon="6.68989">
        <ele>1629</ele>
        <time>2010-09-19T14:16:16Z</time>
      </trkpt>
      <trkpt lat="45.41837" lon="6.69001">
        <ele>1632</ele>
        <time>2010-09-19T14:16:27Z</time>
      </trkpt>
      <trkpt lat="45.41846" lon="6.69006">
        <ele>1624</ele>
        <time>2010-09-19T14:16:50Z</time>
      </trkpt>
      <trkpt lat="45.41851" lon="6.68994">
        <ele>1626</ele>
        <time>2010-09-19T14:17:11Z</time>
      </trkpt>
      <trkpt lat="45.41859" lon="6.69001">
        <ele>1617</ele>
        <time>2010-09-19T14:17:22Z</time>
      </trkpt>
      <trkpt lat="45.41869" lon="6.69004">
        <ele>1612</ele>
        <time>2010-09-19T14:17:28Z</time>
      </trkpt>
      <trkpt lat="45.41878" lon="6.69009">
        <ele>1608</ele>
        <time>2010-09-19T14:17:40Z</time>
      </trkpt>
      <trkpt lat="45.41889" lon="6.69011">
        <ele>1604</ele>
        <time>2010-09-19T14:17:44Z</time>
      </trkpt>
      <trkpt lat="45.419" lon="6.69016">
        <ele>1601</ele>
        <time>2010-09-19T14:17:50Z</time>
      </trkpt>
      <trkpt lat="45.4189" lon="6.69019">
        <ele>1604</ele>
        <time>2010-09-19T14:17:56Z</time>
      </trkpt>
      <trkpt lat="45.41899" lon="6.69013">
        <ele>1601</ele>
        <time>2010-09-19T14:18:05Z</time>
      </trkpt>
      <trkpt lat="45.41909" lon="6.69007">
        <ele>1596</ele>
        <time>2010-09-19T14:18:18Z</time>
      </trkpt>
      <trkpt lat="45.41919" lon="6.69012">
        <ele>1577</ele>
        <time>2010-09-19T14:18:44Z</time>
      </trkpt>
      <trkpt lat="45.41912" lon="6.69024">
        <ele>1599</ele>
        <time>2010-09-19T14:19:12Z</time>
      </trkpt>
      <trkpt lat="45.41916" lon="6.69037">
        <ele>1598</ele>
        <time>2010-09-19T14:19:22Z</time>
      </trkpt>
      <trkpt lat="45.41913" lon="6.69049">
        <ele>1597</ele>
        <time>2010-09-19T14:19:45Z</time>
      </trkpt>
      <trkpt lat="45.41905" lon="6.69061">
        <ele>1594</ele>
        <time>2010-09-19T14:19:50Z</time>
      </trkpt>
      <trkpt lat="45.41916" lon="6.69059">
        <ele>1593</ele>
        <time>2010-09-19T14:20:07Z</time>
      </trkpt>
      <trkpt lat="45.41926" lon="6.69059">
        <ele>1563</ele>
        <time>2010-09-19T14:20:13Z</time>
      </trkpt>
      <trkpt lat="45.4193" lon="6.69071">
        <ele>1564</ele>
        <time>2010-09-19T14:20:45Z</time>
      </trkpt>
      <trkpt lat="45.4194" lon="6.69068">
        <ele>1560</ele>
        <time>2010-09-19T14:21:15Z</time>
      </trkpt>
      <trkpt lat="45.41949" lon="6.69063">
        <ele>1557</ele>
        <time>2010-09-19T14:21:25Z</time>
      </trkpt>
      <trkpt lat="45.41959" lon="6.6906">
        <ele>1554</ele>
        <time>2010-09-19T14:21:32Z</time>
      </trkpt>
      <trkpt lat="45.41966" lon="6.69051">
        <ele>1552</ele>
        <time>2010-09-19T14:21:48Z</time>
      </trkpt>
      <trkpt lat="45.41975" lon="6.69046">
        <ele>1550</ele>
        <time>2010-09-19T14:22:01Z</time>
      </trkpt>
      <trkpt lat="45.41976" lon="6.69059">
        <ele>1548</ele>
        <time>2010-09-19T14:22:29Z</time>
      </trkpt>
      <trkpt lat="45.41985" lon="6.69068">
        <ele>1543</ele>
        <time>2010-09-19T14:22:44Z</time>
      </trkpt>
      <trkpt lat="45.4198" lon="6.69081">
        <ele>1543</ele>
        <time>2010-09-19T14:22:54Z</time>
      </trkpt>
      <trkpt lat="45.41984" lon="6.69092">
        <ele>1533</ele>
        <time>2010-09-19T14:23:07Z</time>
      </trkpt>
      <trkpt lat="45.41992" lon="6.69082">
        <ele>1535</ele>
        <time>2010-09-19T14:23:20Z</time>
      </trkpt>
      <trkpt lat="45.42001" lon="6.69087">
        <ele>1522</ele>
        <time>2010-09-19T14:23:59Z</time>
      </trkpt>
      <trkpt lat="45.42014" lon="6.69092">
        <ele>1510</ele>
        <time>2010-09-19T14:24:05Z</time>
      </trkpt>
      <trkpt lat="45.42005" lon="6.69097">
        <ele>1512</ele>
        <time>2010-09-19T14:24:18Z</time>
      </trkpt>
      <trkpt lat="45.41995" lon="6.69099">
        <ele>1531</ele>
        <time>2010-09-19T14:24:24Z</time>
      </trkpt>
      <trkpt lat="45.41998" lon="6.69111">
        <ele>1530</ele>
        <time>2010-09-19T14:24:31Z</time>
      </trkpt>
      <trkpt lat="45.41996" lon="6.69125">
        <ele>1527</ele>
        <time>2010-09-19T14:24:38Z</time>
      </trkpt>
      <trkpt lat="45.41987" lon="6.69134">
        <ele>1525</ele>
        <time>2010-09-19T14:24:44Z</time>
      </trkpt>
      <trkpt lat="45.41981" lon="6.69124">
        <ele>1530</ele>
        <time>2010-09-19T14:24:52Z</time>
      </trkpt>
      <trkpt lat="45.41971" lon="6.69127">
        <ele>1533</ele>
        <time>2010-09-19T14:25:14Z</time>
      </trkpt>
      <trkpt lat="45.41982" lon="6.69128">
        <ele>1529</ele>
        <time>2010-09-19T14:25:31Z</time>
      </trkpt>
      <trkpt lat="45.41975" lon="6.69137">
        <ele>1529</ele>
        <time>2010-09-19T14:25:41Z</time>
      </trkpt>
      <trkpt lat="45.41968" lon="6.69147">
        <ele>1529</ele>
        <time>2010-09-19T14:25:52Z</time>
      </trkpt>
      <trkpt lat="45.41978" lon="6.69149">
        <ele>1523</ele>
        <time>2010-09-19T14:26:20Z</time>
      </trkpt>
      <trkpt lat="45.41989" lon="6.69147">
        <ele>1518</ele>
        <time>2010-09-19T14:26:35Z</time>
      </trkpt>
      <trkpt lat="45.41999" lon="6.69146">
        <ele>1515</ele>
        <time>2010-09-19T14:26:42Z</time>
      </trkpt>
      <trkpt lat="45.42007" lon="6.69153">
        <ele>1492</ele>
        <time>2010-09-19T14:26:52Z</time>
      </trkpt>
      <trkpt lat="45.41999" lon="6.69165">
        <ele>1493</ele>
        <time>2010-09-19T14:26:55Z</time>
      </trkpt>
      <trkpt lat="45.42001" lon="6.69181">
        <ele>1477</ele>
        <time>2010-09-19T14:27:12Z</time>
      </trkpt>
      <trkpt lat="45.42009" lon="6.69189">
        <ele>1471</ele>
        <time>2010-09-19T14:27:20Z</time>
      </trkpt>
      <trkpt lat="45.42001" lon="6.69195">
        <ele>1470</ele>
        <time>2010-09-19T14:27:23Z</time>
      </trkpt>
      <trkpt lat="45.41992" lon="6.69205">
        <ele>1489</ele>
        <time>2010-09-19T14:27:29Z</time>
      </trkpt>
      <trkpt lat="45.41997" lon="6.69217">
        <ele>1482</ele>
        <time>2010-09-19T14:27:38Z</time>
      </trkpt>
      <trkpt lat="45.42006" lon="6.69222">
        <ele>1458</ele>
        <time>2010-09-19T14:27:43Z</time>
      </trkpt>
      <trkpt lat="45.42016" lon="6.69222">
        <ele>1458</ele>
        <time>2010-09-19T14:27:49Z</time>
      </trkpt>
      <trkpt lat="45.42009" lon="6.69232">
        <ele>1453</ele>
        <time>2010-09-19T14:27:54Z</time>
      </trkpt>
      <trkpt lat="45.4202" lon="6.69224">
        <ele>1458</ele>
        <time>2010-09-19T14:28:02Z</time>
      </trkpt>
      <trkpt lat="45.4203" lon="6.69219">
        <ele>1460</ele>
        <time>2010-09-19T14:28:04Z</time>
      </trkpt>
      <trkpt lat="45.42039" lon="6.6922">
        <ele>1460</ele>
        <time>2010-09-19T14:28:22Z</time>
      </trkpt>
      <trkpt lat="45.42051" lon="6.69218">
        <ele>1460</ele>
        <time>2010-09-19T14:28:37Z</time>
      </trkpt>
      <trkpt lat="45.42045" lon="6.69232">
        <ele>1458</ele>
        <time>2010-09-19T14:28:49Z</time>
      </trkpt>
      <trkpt lat="45.42052" lon="6.69244">
        <ele>1456</ele>
        <time>2010-09-19T14:28:56Z</time>
      </trkpt>
      <trkpt lat="45.42057" lon="6.69256">
        <ele>1431</ele>
        <time>2010-09-19T14:29:09Z</time>
      </trkpt>
      <trkpt lat="45.42067" lon="6.69255">
        <ele>1434</ele>
        <time>2010-09-19T14:29:17Z</time>
      </trkpt>
      <trkpt lat="45.42075" lon="6.69264">
        <ele>1434</ele>
        <time>2010-09-19T14:29:25Z</time>
      </trkpt>
      <trkpt lat="45.42085" lon="6.69258">
        <ele>1429</ele>
        <time>2010-09-19T14:29:32Z</time>
      </trkpt>
      <trkpt lat="45.42095" lon="6.69263">
        <ele>1417</ele>
        <time>2010-09-19T14:29:43Z</time>
      </trkpt>
      <trkpt lat="45.42086" lon="6.69267">
        <ele>1418</ele>
        <time>2010-09-19T14:29:45Z</time>
      </trkpt>
      <trkpt lat="45.42082" lon="6.69279">
        <ele>1427</ele>
        <time>2010-09-19T14:29:53Z</time>
      </trkpt>
      <trkpt lat="45.42076" lon="6.69293">
        <ele>1421</ele>
        <time>2010-09-19T14:29:58Z</time>
      </trkpt>
      <trkpt lat="45.42086" lon="6.69292">
        <ele>1401</ele>
        <time>2010-09-19T14:30:03Z</time>
      </trkpt>
      <trkpt lat="45.42095" lon="6.69291">
        <ele>1399</ele>
        <time>2010-09-19T14:30:11Z</time>
      </trkpt>
      <trkpt lat="45.42109" lon="6.69293">
        <ele>1394</ele>
        <time>2010-09-19T14:30:16Z</time>
      </trkpt>
      <trkpt lat="45.42101" lon="6.69299">
        <ele>1395</ele>
        <time>2010-09-19T14:30:24Z</time>
      </trkpt>
      <trkpt lat="45.42107" lon="6.69308">
        <ele>1391</ele>
        <time>2010-09-19T14:30:31Z</time>
      </trkpt>
      <trkpt lat="45.42106" lon="6.69321">
        <ele>1391</ele>
        <time>2010-09-19T14:30:48Z</time>
      </trkpt>
      <trkpt lat="45.42117" lon="6.69324">
        <ele>1385</ele>
        <time>2010-09-19T14:30:53Z</time>
      </trkpt>
      <trkpt lat="45.42123" lon="6.69335">
        <ele>1352</ele>
        <time>2010-09-19T14:30:57Z</time>
      </trkpt>
      <trkpt lat="45.42113" lon="6.69334">
        <ele>1358</ele>
        <time>2010-09-19T14:31:04Z</time>
      </trkpt>
      <trkpt lat="45.42115" lon="6.69348">
        <ele>1353</ele>
        <time>2010-09-19T14:31:17Z</time>
      </trkpt>
      <trkpt lat="45.42123" lon="6.69357">
        <ele>1346</ele>
        <time>2010-09-19T14:31:24Z</time>
      </trkpt>
      <trkpt lat="45.42133" lon="6.69357">
        <ele>1342</ele>
        <time>2010-09-19T14:31:44Z</time>
      </trkpt>
      <trkpt lat="45.4214" lon="6.69366">
        <ele>1338</ele>
        <time>2010-09-19T14:32:01Z</time>
      </trkpt>
      <trkpt lat="45.4215" lon="6.69366">
        <ele>1335</ele>
        <time>2010-09-19T14:32:08Z</time>
      </trkpt>
      <trkpt lat="45.42148" lon="6.69379">
        <ele>1331</ele>
        <time>2010-09-19T14:32:19Z</time>
      </trkpt>
      <trkpt lat="45.4216" lon="6.69374">
        <ele>1330</ele>
        <time>2010-09-19T14:32:28Z</time>
      </trkpt>
      <trkpt lat="45.42171" lon="6.69375">
        <ele>1298</ele>
        <time>2010-09-19T14:32:37Z</time>
      </trkpt>
      <trkpt lat="45.42172" lon="6.69389">
        <ele>1293</ele>
        <time>2010-09-19T14:32:53Z</time>
      </trkpt>
      <trkpt lat="45.42167" lon="6.69401">
        <ele>1291</ele>
        <time>2010-09-19T14:33:06Z</time>
      </trkpt>
      <trkpt lat="45.42178" lon="6.694">
        <ele>1291</ele>
        <time>2010-09-19T14:33:09Z</time>
      </trkpt>
      <trkpt lat="45.42178" lon="6.69414">
        <ele>1290</ele>
        <time>2010-09-19T14:33:26Z</time>
      </trkpt>
      <trkpt lat="45.42189" lon="6.69408">
        <ele>1289</ele>
        <time>2010-09-19T14:33:38Z</time>
      </trkpt>
      <trkpt lat="45.42199" lon="6.69411">
        <ele>1286</ele>
        <time>2010-09-19T14:33:48Z</time>
      </trkpt>
      <trkpt lat="45.42187" lon="6.69406">
        <ele>1289</ele>
        <time>2010-09-19T14:34:06Z</time>
      </trkpt>
      <trkpt lat="45.4219" lon="6.69392">
        <ele>1290</ele>
        <time>2010-09-19T14:34:11Z</time>
      </trkpt>
      <trkpt lat="45.42171" lon="6.69381">
        <ele>1296</ele>
        <time>2010-09-19T14:34:14Z</time>
      </trkpt>
      <trkpt lat="45.42157" lon="6.69372">
        <ele>1332</ele>
        <time>2010-09-19T14:34:17Z</time>
      </trkpt>
      <trkpt lat="45.42148" lon="6.69368">
        <ele>1335</ele>
        <time>2010-09-19T14:34:18Z</time>
      </trkpt>
      <trkpt lat="45.42137" lon="6.69362">
        <ele>1340</ele>
        <time>2010-09-19T14:34:19Z</time>
      </trkpt>
      <trkpt lat="45.42128" lon="6.69355">
        <ele>1345</ele>
        <time>2010-09-19T14:34:20Z</time>
      </trkpt>
      <trkpt lat="45.42114" lon="6.69348">
        <ele>1354</ele>
        <time>2010-09-19T14:34:23Z</time>
      </trkpt>
      <trkpt lat="45.42125" lon="6.69347">
        <ele>1348</ele>
        <time>2010-09-19T14:34:26Z</time>
      </trkpt>
      <trkpt lat="45.42137" lon="6.69354">
        <ele>1341</ele>
        <time>2010-09-19T14:34:29Z</time>
      </trkpt>
      <trkpt lat="45.42152" lon="6.69361">
        <ele>1336</ele>
        <time>2010-09-19T14:34:36Z</time>
      </trkpt>
      <trkpt lat="45.42163" lon="6.69366">
        <ele>1333</ele>
        <time>2010-09-19T14:34:39Z</time>
      </trkpt>
      <trkpt lat="45.42171" lon="6.69374">
        <ele>1298</ele>
        <time>2010-09-19T14:34:40Z</time>
      </trkpt>
      <trkpt lat="45.42176" lon="6.69388">
        <ele>1293</ele>
        <time>2010-09-19T14:34:41Z</time>
      </trkpt>
      <trkpt lat="45.42183" lon="6.69401">
        <ele>1290</ele>
        <time>2010-09-19T14:34:45Z</time>
      </trkpt>
      <trkpt lat="45.42194" lon="6.69408">
        <ele>1287</ele>
        <time>2010-09-19T14:34:48Z</time>
      </trkpt>
      <trkpt lat="45.42209" lon="6.69413">
        <ele>1283</ele>
        <time>2010-09-19T14:35:09Z</time>
      </trkpt>
      <trkpt lat="45.42204" lon="6.69425">
        <ele>1260</ele>
        <time>2010-09-19T14:35:28Z</time>
      </trkpt>
      <trkpt lat="45.42211" lon="6.69435">
        <ele>1256</ele>
        <time>2010-09-19T14:35:42Z</time>
      </trkpt>
      <trkpt lat="45.42204" lon="6.69443">
        <ele>1257</ele>
        <time>2010-09-19T14:36:01Z</time>
      </trkpt>
      <trkpt lat="45.42199" lon="6.69457">
        <ele>1254</ele>
        <time>2010-09-19T14:36:12Z</time>
      </trkpt>
      <trkpt lat="45.4221" lon="6.69461">
        <ele>1251</ele>
        <time>2010-09-19T14:36:31Z</time>
      </trkpt>
      <trkpt lat="45.42222" lon="6.69464">
        <ele>1248</ele>
        <time>2010-09-19T14:36:36Z</time>
      </trkpt>
      <trkpt lat="45.4222" lon="6.69478">
        <ele>1245</ele>
        <time>2010-09-19T14:36:54Z</time>
      </trkpt>
      <trkpt lat="45.4221" lon="6.69482">
        <ele>1247</ele>
        <time>2010-09-19T14:37:02Z</time>
      </trkpt>
      <trkpt lat="45.42223" lon="6.69481">
        <ele>1244</ele>
        <time>2010-09-19T14:37:16Z</time>
      </trkpt>
      <trkpt lat="45.42232" lon="6.69478">
        <ele>1242</ele>
        <time>2010-09-19T14:37:27Z</time>
      </trkpt>
      <trkpt lat="45.4224" lon="6.69491">
        <ele>1234</ele>
        <time>2010-09-19T14:37:47Z</time>
      </trkpt>
      <trkpt lat="45.42232" lon="6.69498">
        <ele>1236</ele>
        <time>2010-09-19T14:37:50Z</time>
      </trkpt>
      <trkpt lat="45.42242" lon="6.69494">
        <ele>1232</ele>
        <time>2010-09-19T14:37:57Z</time>
      </trkpt>
      <trkpt lat="45.42254" lon="6.69494">
        <ele>1221</ele>
        <time>2010-09-19T14:38:00Z</time>
      </trkpt>
      <trkpt lat="45.42253" lon="6.69507">
        <ele>1213</ele>
        <time>2010-09-19T14:38:44Z</time>
      </trkpt>
      <trkpt lat="45.42245" lon="6.6952">
        <ele>1217</ele>
        <time>2010-09-19T14:38:58Z</time>
      </trkpt>
      <trkpt lat="45.42236" lon="6.69531">
        <ele>1214</ele>
        <time>2010-09-19T14:39:08Z</time>
      </trkpt>
      <trkpt lat="45.4223" lon="6.69544">
        <ele>1212</ele>
        <time>2010-09-19T14:39:15Z</time>
      </trkpt>
      <trkpt lat="45.4224" lon="6.69549">
        <ele>1209</ele>
        <time>2010-09-19T14:39:19Z</time>
      </trkpt>
      <trkpt lat="45.42249" lon="6.69547">
        <ele>1209</ele>
        <time>2010-09-19T14:39:26Z</time>
      </trkpt>
      <trkpt lat="45.42258" lon="6.6954">
        <ele>1196</ele>
        <time>2010-09-19T14:39:33Z</time>
      </trkpt>
      <trkpt lat="45.42268" lon="6.69542">
        <ele>1195</ele>
        <time>2010-09-19T14:39:35Z</time>
      </trkpt>
      <trkpt lat="45.42276" lon="6.6955">
        <ele>1192</ele>
        <time>2010-09-19T14:39:49Z</time>
      </trkpt>
      <trkpt lat="45.42278" lon="6.69537">
        <ele>1195</ele>
        <time>2010-09-19T14:39:54Z</time>
      </trkpt>
      <trkpt lat="45.42288" lon="6.69542">
        <ele>1192</ele>
        <time>2010-09-19T14:40:01Z</time>
      </trkpt>
      <trkpt lat="45.42278" lon="6.69543">
        <ele>1193</ele>
        <time>2010-09-19T14:40:09Z</time>
      </trkpt>
      <trkpt lat="45.42281" lon="6.69557">
        <ele>1190</ele>
        <time>2010-09-19T14:40:23Z</time>
      </trkpt>
      <trkpt lat="45.42291" lon="6.6956">
        <ele>1188</ele>
        <time>2010-09-19T14:40:25Z</time>
      </trkpt>
      <trkpt lat="45.42302" lon="6.6956">
        <ele>1186</ele>
        <time>2010-09-19T14:40:27Z</time>
      </trkpt>
      <trkpt lat="45.42293" lon="6.69567">
        <ele>1187</ele>
        <time>2010-09-19T14:40:43Z</time>
      </trkpt>
      <trkpt lat="45.42305" lon="6.69568">
        <ele>1184</ele>
        <time>2010-09-19T14:40:53Z</time>
      </trkpt>
      <trkpt lat="45.42317" lon="6.69572">
        <ele>1179</ele>
        <time>2010-09-19T14:41:18Z</time>
      </trkpt>
      <trkpt lat="45.4233" lon="6.69573">
        <ele>1174</ele>
        <time>2010-09-19T14:41:20Z</time>
      </trkpt>
      <trkpt lat="45.4234" lon="6.69574">
        <ele>1165</ele>
        <time>2010-09-19T14:41:22Z</time>
      </trkpt>
      <trkpt lat="45.42347" lon="6.69591">
        <ele>1156</ele>
        <time>2010-09-19T14:41:29Z</time>
      </trkpt>
      <trkpt lat="45.42333" lon="6.69587">
        <ele>1163</ele>
        <time>2010-09-19T14:41:33Z</time>
      </trkpt>
      <trkpt lat="45.42319" lon="6.69585">
        <ele>1163</ele>
        <time>2010-09-19T14:41:36Z</time>
      </trkpt>
      <trkpt lat="45.42328" lon="6.69589">
        <ele>1163</ele>
        <time>2010-09-19T14:41:49Z</time>
      </trkpt>
      <trkpt lat="45.42317" lon="6.69601">
        <ele>1162</ele>
        <time>2010-09-19T14:42:00Z</time>
      </trkpt>
      <trkpt lat="45.42308" lon="6.69602">
        <ele>1162</ele>
        <time>2010-09-19T14:42:02Z</time>
      </trkpt>
      <trkpt lat="45.42319" lon="6.69606">
        <ele>1161</ele>
        <time>2010-09-19T14:42:06Z</time>
      </trkpt>
      <trkpt lat="45.42329" lon="6.69609">
        <ele>1160</ele>
        <time>2010-09-19T14:42:18Z</time>
      </trkpt>
      <trkpt lat="45.42343" lon="6.69611">
        <ele>1151</ele>
        <time>2010-09-19T14:42:20Z</time>
      </trkpt>
      <trkpt lat="45.42352" lon="6.69611">
        <ele>1150</ele>
        <time>2010-09-19T14:42:22Z</time>
      </trkpt>
      <trkpt lat="45.42343" lon="6.69608">
        <ele>1152</ele>
        <time>2010-09-19T14:42:36Z</time>
      </trkpt>
      <trkpt lat="45.42352" lon="6.69613">
        <ele>1150</ele>
        <time>2010-09-19T14:42:47Z</time>
      </trkpt>
      <trkpt lat="45.42359" lon="6.69623">
        <ele>1148</ele>
        <time>2010-09-19T14:42:55Z</time>
      </trkpt>
      <trkpt lat="45.42371" lon="6.6962">
        <ele>1147</ele>
        <time>2010-09-19T14:42:59Z</time>
      </trkpt>
      <trkpt lat="45.42384" lon="6.69621">
        <ele>1146</ele>
        <time>2010-09-19T14:43:15Z</time>
      </trkpt>
      <trkpt lat="45.42394" lon="6.69623">
        <ele>1146</ele>
        <time>2010-09-19T14:43:24Z</time>
      </trkpt>
      <trkpt lat="45.42385" lon="6.6962">
        <ele>1146</ele>
        <time>2010-09-19T14:43:31Z</time>
      </trkpt>
      <trkpt lat="45.42393" lon="6.69626">
        <ele>1145</ele>
        <time>2010-09-19T14:43:39Z</time>
      </trkpt>
      <trkpt lat="45.4241" lon="6.69625">
        <ele>1145</ele>
        <time>2010-09-19T14:43:41Z</time>
      </trkpt>
      <trkpt lat="45.42412" lon="6.69638">
        <ele>1143</ele>
        <time>2010-09-19T14:44:05Z</time>
      </trkpt>
      <trkpt lat="45.42425" lon="6.69638">
        <ele>1138</ele>
        <time>2010-09-19T14:44:09Z</time>
      </trkpt>
      <trkpt lat="45.42416" lon="6.69636">
        <ele>1143</ele>
        <time>2010-09-19T14:44:22Z</time>
      </trkpt>
      <trkpt lat="45.42425" lon="6.69638">
        <ele>1138</ele>
        <time>2010-09-19T14:44:27Z</time>
      </trkpt>
      <trkpt lat="45.42442" lon="6.6964">
        <ele>1137</ele>
        <time>2010-09-19T14:44:50Z</time>
      </trkpt>
      <trkpt lat="45.42455" lon="6.69643">
        <ele>1137</ele>
        <time>2010-09-19T14:44:54Z</time>
      </trkpt>
      <trkpt lat="45.42465" lon="6.69641">
        <ele>1136</ele>
        <time>2010-09-19T14:44:57Z</time>
      </trkpt>
      <trkpt lat="45.42479" lon="6.69639">
        <ele>1136</ele>
        <time>2010-09-19T14:45:01Z</time>
      </trkpt>
      <trkpt lat="45.42485" lon="6.69654">
        <ele>1135</ele>
        <time>2010-09-19T14:45:07Z</time>
      </trkpt>
      <trkpt lat="45.42473" lon="6.69655">
        <ele>1135</ele>
        <time>2010-09-19T14:45:10Z</time>
      </trkpt>
      <trkpt lat="45.42462" lon="6.69651">
        <ele>1136</ele>
        <time>2010-09-19T14:45:18Z</time>
      </trkpt>
      <trkpt lat="45.42472" lon="6.6965">
        <ele>1136</ele>
        <time>2010-09-19T14:45:31Z</time>
      </trkpt>
      <trkpt lat="45.42483" lon="6.69651">
        <ele>1135</ele>
        <time>2010-09-19T14:45:33Z</time>
      </trkpt>
      <trkpt lat="45.42491" lon="6.69656">
        <ele>1134</ele>
        <time>2010-09-19T14:45:38Z</time>
      </trkpt>
      <trkpt lat="45.4248" lon="6.69666">
        <ele>1135</ele>
        <time>2010-09-19T14:45:47Z</time>
      </trkpt>
      <trkpt lat="45.42493" lon="6.69663">
        <ele>1133</ele>
        <time>2010-09-19T14:45:53Z</time>
      </trkpt>
      <trkpt lat="45.42504" lon="6.69659">
        <ele>1132</ele>
        <time>2010-09-19T14:46:01Z</time>
      </trkpt>
      <trkpt lat="45.42514" lon="6.69662">
        <ele>1132</ele>
        <time>2010-09-19T14:46:04Z</time>
      </trkpt>
      <trkpt lat="45.42524" lon="6.69664">
        <ele>1133</ele>
        <time>2010-09-19T14:46:11Z</time>
      </trkpt>
      <trkpt lat="45.42535" lon="6.69665">
        <ele>1133</ele>
        <time>2010-09-19T14:46:12Z</time>
      </trkpt>
      <trkpt lat="45.42546" lon="6.69671">
        <ele>1141</ele>
        <time>2010-09-19T14:46:23Z</time>
      </trkpt>
      <trkpt lat="45.42536" lon="6.69669">
        <ele>1140</ele>
        <time>2010-09-19T14:46:34Z</time>
      </trkpt>
      <trkpt lat="45.42526" lon="6.69667">
        <ele>1139</ele>
        <time>2010-09-19T14:46:35Z</time>
      </trkpt>
      <trkpt lat="45.42538" lon="6.6967">
        <ele>1140</ele>
        <time>2010-09-19T14:46:37Z</time>
      </trkpt>
      <trkpt lat="45.42549" lon="6.69673">
        <ele>1141</ele>
        <time>2010-09-19T14:46:40Z</time>
      </trkpt>
      <trkpt lat="45.4254" lon="6.69666">
        <ele>1133</ele>
        <time>2010-09-19T14:46:50Z</time>
      </trkpt>
      <trkpt lat="45.42548" lon="6.69676">
        <ele>1141</ele>
        <time>2010-09-19T14:46:56Z</time>
      </trkpt>
      <trkpt lat="45.42552" lon="6.6969">
        <ele>1142</ele>
        <time>2010-09-19T14:47:08Z</time>
      </trkpt>
      <trkpt lat="45.42563" lon="6.69687">
        <ele>1142</ele>
        <time>2010-09-19T14:47:14Z</time>
      </trkpt>
      <trkpt lat="45.42578" lon="6.69691">
        <ele>1142</ele>
        <time>2010-09-19T14:47:16Z</time>
      </trkpt>
      <trkpt lat="45.42569" lon="6.69698">
        <ele>1143</ele>
        <time>2010-09-19T14:47:21Z</time>
      </trkpt>
      <trkpt lat="45.42583" lon="6.69701">
        <ele>1144</ele>
        <time>2010-09-19T14:47:31Z</time>
      </trkpt>
      <trkpt lat="45.42595" lon="6.697">
        <ele>1155</ele>
        <time>2010-09-19T14:47:35Z</time>
      </trkpt>
      <trkpt lat="45.42581" lon="6.69699">
        <ele>1144</ele>
        <time>2010-09-19T14:47:37Z</time>
      </trkpt>
      <trkpt lat="45.42588" lon="6.6971">
        <ele>1157</ele>
        <time>2010-09-19T14:47:43Z</time>
      </trkpt>
      <trkpt lat="45.42592" lon="6.69725">
        <ele>1159</ele>
        <time>2010-09-19T14:47:59Z</time>
      </trkpt>
      <trkpt lat="45.42579" lon="6.69724">
        <ele>1149</ele>
        <time>2010-09-19T14:48:01Z</time>
      </trkpt>
      <trkpt lat="45.42589" lon="6.69725">
        <ele>1159</ele>
        <time>2010-09-19T14:48:05Z</time>
      </trkpt>
      <trkpt lat="45.42602" lon="6.69726">
        <ele>1160</ele>
        <time>2010-09-19T14:48:07Z</time>
      </trkpt>
      <trkpt lat="45.42593" lon="6.69737">
        <ele>1160</ele>
        <time>2010-09-19T14:48:15Z</time>
      </trkpt>
      <trkpt lat="45.42609" lon="6.69746">
        <ele>1162</ele>
        <time>2010-09-19T14:48:21Z</time>
      </trkpt>
      <trkpt lat="45.42619" lon="6.69743">
        <ele>1164</ele>
        <time>2010-09-19T14:48:35Z</time>
      </trkpt>
      <trkpt lat="45.42633" lon="6.69736">
        <ele>1166</ele>
        <time>2010-09-19T14:48:44Z</time>
      </trkpt>
      <trkpt lat="45.42642" lon="6.69736">
        <ele>1169</ele>
        <time>2010-09-19T14:48:45Z</time>
      </trkpt>
      <trkpt lat="45.42651" lon="6.69741">
        <ele>1173</ele>
        <time>2010-09-19T14:48:49Z</time>
      </trkpt>
      <trkpt lat="45.42663" lon="6.69738">
        <ele>1177</ele>
        <time>2010-09-19T14:48:54Z</time>
      </trkpt>
      <trkpt lat="45.4268" lon="6.69744">
        <ele>1188</ele>
        <time>2010-09-19T14:48:56Z</time>
      </trkpt>
      <trkpt lat="45.42691" lon="6.69745">
        <ele>1190</ele>
        <time>2010-09-19T14:48:58Z</time>
      </trkpt>
      <trkpt lat="45.42682" lon="6.69741">
        <ele>1189</ele>
        <time>2010-09-19T14:49:06Z</time>
      </trkpt>
      <trkpt lat="45.42669" lon="6.69743">
        <ele>1187</ele>
        <time>2010-09-19T14:49:08Z</time>
      </trkpt>
      <trkpt lat="45.42658" lon="6.69738">
        <ele>1175</ele>
        <time>2010-09-19T14:49:10Z</time>
      </trkpt>
      <trkpt lat="45.42669" lon="6.69741">
        <ele>1187</ele>
        <time>2010-09-19T14:49:21Z</time>
      </trkpt>
      <trkpt lat="45.42658" lon="6.69739">
        <ele>1175</ele>
        <time>2010-09-19T14:49:28Z</time>
      </trkpt>
      <trkpt lat="45.42669" lon="6.69736">
        <ele>1187</ele>
        <time>2010-09-19T14:49:32Z</time>
      </trkpt>
      <trkpt lat="45.42681" lon="6.69737">
        <ele>1188</ele>
        <time>2010-09-19T14:49:35Z</time>
      </trkpt>
      <trkpt lat="45.42688" lon="6.69746">
        <ele>1190</ele>
        <time>2010-09-19T14:49:50Z</time>
      </trkpt>
      <trkpt lat="45.42697" lon="6.69745">
        <ele>1192</ele>
        <time>2010-09-19T14:49:52Z</time>
      </trkpt>
      <trkpt lat="45.42684" lon="6.69745">
        <ele>1189</ele>
        <time>2010-09-19T14:49:57Z</time>
      </trkpt>
      <trkpt lat="45.42696" lon="6.69747">
        <ele>1192</ele>
        <time>2010-09-19T14:50:02Z</time>
      </trkpt>
      <trkpt lat="45.42705" lon="6.69748">
        <ele>1194</ele>
        <time>2010-09-19T14:50:09Z</time>
      </trkpt>
      <trkpt lat="45.42719" lon="6.69753">
        <ele>1222</ele>
        <time>2010-09-19T14:50:14Z</time>
      </trkpt>
      <trkpt lat="45.42737" lon="6.69752">
        <ele>1225</ele>
        <time>2010-09-19T14:50:32Z</time>
      </trkpt>
      <trkpt lat="45.42758" lon="6.69752">
        <ele>1234</ele>
        <time>2010-09-19T14:50:34Z</time>
      </trkpt>
      <trkpt lat="45.42769" lon="6.69753">
        <ele>1242</ele>
        <time>2010-09-19T14:50:36Z</time>
      </trkpt>
      <trkpt lat="45.42795" lon="6.69752">
        <ele>1250</ele>
        <time>2010-09-19T14:50:41Z</time>
      </trkpt>
      <trkpt lat="45.42787" lon="6.69758">
        <ele>1249</ele>
        <time>2010-09-19T14:50:45Z</time>
      </trkpt>
      <trkpt lat="45.42776" lon="6.69758">
        <ele>1246</ele>
        <time>2010-09-19T14:50:49Z</time>
      </trkpt>
      <trkpt lat="45.4276" lon="6.69759">
        <ele>1239</ele>
        <time>2010-09-19T14:50:50Z</time>
      </trkpt>
      <trkpt lat="45.42741" lon="6.69756">
        <ele>1226</ele>
        <time>2010-09-19T14:50:55Z</time>
      </trkpt>
      <trkpt lat="45.42753" lon="6.69762">
        <ele>1238</ele>
        <time>2010-09-19T14:50:57Z</time>
      </trkpt>
      <trkpt lat="45.42743" lon="6.69759">
        <ele>1226</ele>
        <time>2010-09-19T14:51:02Z</time>
      </trkpt>
      <trkpt lat="45.42758" lon="6.69768">
        <ele>1242</ele>
        <time>2010-09-19T14:51:10Z</time>
      </trkpt>
      <trkpt lat="45.42775" lon="6.69774">
        <ele>1249</ele>
        <time>2010-09-19T14:51:13Z</time>
      </trkpt>
      <trkpt lat="45.42786" lon="6.69774">
        <ele>1252</ele>
        <time>2010-09-19T14:51:14Z</time>
      </trkpt>
      <trkpt lat="45.42796" lon="6.69775">
        <ele>1253</ele>
        <time>2010-09-19T14:51:15Z</time>
      </trkpt>
      <trkpt lat="45.42809" lon="6.69775">
        <ele>1255</ele>
        <time>2010-09-19T14:51:18Z</time>
      </trkpt>
      <trkpt lat="45.42817" lon="6.69785">
        <ele>1258</ele>
        <time>2010-09-19T14:51:26Z</time>
      </trkpt>
      <trkpt lat="45.42807" lon="6.69785">
        <ele>1257</ele>
        <time>2010-09-19T14:51:30Z</time>
      </trkpt>
      <trkpt lat="45.42797" lon="6.69782">
        <ele>1255</ele>
        <time>2010-09-19T14:51:32Z</time>
      </trkpt>
      <trkpt lat="45.42788" lon="6.69786">
        <ele>1255</ele>
        <time>2010-09-19T14:51:42Z</time>
      </trkpt>
      <trkpt lat="45.42796" lon="6.69794">
        <ele>1258</ele>
        <time>2010-09-19T14:51:52Z</time>
      </trkpt>
      <trkpt lat="45.42803" lon="6.69803">
        <ele>1261</ele>
        <time>2010-09-19T14:51:59Z</time>
      </trkpt>
      <trkpt lat="45.42817" lon="6.69805">
        <ele>1265</ele>
        <time>2010-09-19T14:52:01Z</time>
      </trkpt>
      <trkpt lat="45.42806" lon="6.69812">
        <ele>1264</ele>
        <time>2010-09-19T14:52:03Z</time>
      </trkpt>
      <trkpt lat="45.42797" lon="6.69818">
        <ele>1263</ele>
        <time>2010-09-19T14:52:13Z</time>
      </trkpt>
      <trkpt lat="45.42806" lon="6.69827">
        <ele>1268</ele>
        <time>2010-09-19T14:52:26Z</time>
      </trkpt>
      <trkpt lat="45.42815" lon="6.69835">
        <ele>1290</ele>
        <time>2010-09-19T14:52:40Z</time>
      </trkpt>
      <trkpt lat="45.42826" lon="6.69835">
        <ele>1290</ele>
        <time>2010-09-19T14:52:42Z</time>
      </trkpt>
      <trkpt lat="45.42835" lon="6.69839">
        <ele>1294</ele>
        <time>2010-09-19T14:52:45Z</time>
      </trkpt>
      <trkpt lat="45.42851" lon="6.69842">
        <ele>1303</ele>
        <time>2010-09-19T14:52:47Z</time>
      </trkpt>
      <trkpt lat="45.42863" lon="6.69845">
        <ele>1308</ele>
        <time>2010-09-19T14:52:48Z</time>
      </trkpt>
      <trkpt lat="45.42879" lon="6.6985">
        <ele>1311</ele>
        <time>2010-09-19T14:52:54Z</time>
      </trkpt>
      <trkpt lat="45.42868" lon="6.6985">
        <ele>1309</ele>
        <time>2010-09-19T14:52:56Z</time>
      </trkpt>
      <trkpt lat="45.42848" lon="6.6985">
        <ele>1305</ele>
        <time>2010-09-19T14:52:58Z</time>
      </trkpt>
      <trkpt lat="45.42837" lon="6.6985">
        <ele>1302</ele>
        <time>2010-09-19T14:53:00Z</time>
      </trkpt>
      <trkpt lat="45.42847" lon="6.69852">
        <ele>1305</ele>
        <time>2010-09-19T14:53:04Z</time>
      </trkpt>
      <trkpt lat="45.42856" lon="6.69856">
        <ele>1309</ele>
        <time>2010-09-19T14:53:07Z</time>
      </trkpt>
      <trkpt lat="45.4288" lon="6.69866">
        <ele>1314</ele>
        <time>2010-09-19T14:53:13Z</time>
      </trkpt>
      <trkpt lat="45.4287" lon="6.69872">
        <ele>1315</ele>
        <time>2010-09-19T14:53:15Z</time>
      </trkpt>
      <trkpt lat="45.42881" lon="6.69878">
        <ele>1317</ele>
        <time>2010-09-19T14:53:22Z</time>
      </trkpt>
      <trkpt lat="45.42889" lon="6.69886">
        <ele>1320</ele>
        <time>2010-09-19T14:53:32Z</time>
      </trkpt>
      <trkpt lat="45.42898" lon="6.69887">
        <ele>1322</ele>
        <time>2010-09-19T14:53:36Z</time>
      </trkpt>
      <trkpt lat="45.42908" lon="6.69886">
        <ele>1322</ele>
        <time>2010-09-19T14:53:38Z</time>
      </trkpt>
      <trkpt lat="45.42923" lon="6.69896">
        <ele>1336</ele>
        <time>2010-09-19T14:53:45Z</time>
      </trkpt>
      <trkpt lat="45.42916" lon="6.6991">
        <ele>1336</ele>
        <time>2010-09-19T14:53:56Z</time>
      </trkpt>
      <trkpt lat="45.42926" lon="6.69909">
        <ele>1339</ele>
        <time>2010-09-19T14:54:02Z</time>
      </trkpt>
      <trkpt lat="45.42935" lon="6.69907">
        <ele>1338</ele>
        <time>2010-09-19T14:54:04Z</time>
      </trkpt>
      <trkpt lat="45.42948" lon="6.69907">
        <ele>1338</ele>
        <time>2010-09-19T14:54:06Z</time>
      </trkpt>
      <trkpt lat="45.4296" lon="6.6991">
        <ele>1340</ele>
        <time>2010-09-19T14:54:12Z</time>
      </trkpt>
      <trkpt lat="45.4297" lon="6.69911">
        <ele>1343</ele>
        <time>2010-09-19T14:54:16Z</time>
      </trkpt>
      <trkpt lat="45.42959" lon="6.69913">
        <ele>1340</ele>
        <time>2010-09-19T14:54:17Z</time>
      </trkpt>
      <trkpt lat="45.42969" lon="6.69915">
        <ele>1343</ele>
        <time>2010-09-19T14:54:20Z</time>
      </trkpt>
      <trkpt lat="45.42985" lon="6.69913">
        <ele>1349</ele>
        <time>2010-09-19T14:54:33Z</time>
      </trkpt>
      <trkpt lat="45.42996" lon="6.69917">
        <ele>1363</ele>
        <time>2010-09-19T14:54:35Z</time>
      </trkpt>
      <trkpt lat="45.43008" lon="6.6992">
        <ele>1367</ele>
        <time>2010-09-19T14:54:41Z</time>
      </trkpt>
      <trkpt lat="45.43018" lon="6.69929">
        <ele>1372</ele>
        <time>2010-09-19T14:54:48Z</time>
      </trkpt>
      <trkpt lat="45.43029" lon="6.69931">
        <ele>1373</ele>
        <time>2010-09-19T14:54:50Z</time>
      </trkpt>
      <trkpt lat="45.43035" lon="6.69941">
        <ele>1375</ele>
        <time>2010-09-19T14:54:59Z</time>
      </trkpt>
      <trkpt lat="45.43048" lon="6.69939">
        <ele>1375</ele>
        <time>2010-09-19T14:55:01Z</time>
      </trkpt>
      <trkpt lat="45.43062" lon="6.69941">
        <ele>1375</ele>
        <time>2010-09-19T14:55:04Z</time>
      </trkpt>
      <trkpt lat="45.43073" lon="6.69941">
        <ele>1374</ele>
        <time>2010-09-19T14:55:06Z</time>
      </trkpt>
      <trkpt lat="45.43085" lon="6.69945">
        <ele>1375</ele>
        <time>2010-09-19T14:55:13Z</time>
      </trkpt>
      <trkpt lat="45.43096" lon="6.69947">
        <ele>1376</ele>
        <time>2010-09-19T14:55:17Z</time>
      </trkpt>
      <trkpt lat="45.43112" lon="6.69953">
        <ele>1378</ele>
        <time>2010-09-19T14:55:25Z</time>
      </trkpt>
      <trkpt lat="45.43124" lon="6.69957">
        <ele>1379</ele>
        <time>2010-09-19T14:55:29Z</time>
      </trkpt>
      <trkpt lat="45.43136" lon="6.69957">
        <ele>1380</ele>
        <time>2010-09-19T14:55:30Z</time>
      </trkpt>
      <trkpt lat="45.43154" lon="6.6996">
        <ele>1380</ele>
        <time>2010-09-19T14:55:32Z</time>
      </trkpt>
      <trkpt lat="45.43173" lon="6.69962">
        <ele>1383</ele>
        <time>2010-09-19T14:55:36Z</time>
      </trkpt>
      <trkpt lat="45.43166" lon="6.69973">
        <ele>1384</ele>
        <time>2010-09-19T14:55:41Z</time>
      </trkpt>
      <trkpt lat="45.43145" lon="6.69971">
        <ele>1382</ele>
        <time>2010-09-19T14:55:42Z</time>
      </trkpt>
      <trkpt lat="45.43157" lon="6.69976">
        <ele>1384</ele>
        <time>2010-09-19T14:55:48Z</time>
      </trkpt>
      <trkpt lat="45.43175" lon="6.69981">
        <ele>1388</ele>
        <time>2010-09-19T14:55:51Z</time>
      </trkpt>
      <trkpt lat="45.43191" lon="6.69982">
        <ele>1387</ele>
        <time>2010-09-19T14:56:02Z</time>
      </trkpt>
      <trkpt lat="45.43204" lon="6.69987">
        <ele>1387</ele>
        <time>2010-09-19T14:56:08Z</time>
      </trkpt>
      <trkpt lat="45.43218" lon="6.69987">
        <ele>1388</ele>
        <time>2010-09-19T14:56:16Z</time>
      </trkpt>
      <trkpt lat="45.43236" lon="6.6999">
        <ele>1391</ele>
        <time>2010-09-19T14:56:22Z</time>
      </trkpt>
      <trkpt lat="45.43246" lon="6.69996">
        <ele>1396</ele>
        <time>2010-09-19T14:56:29Z</time>
      </trkpt>
      <trkpt lat="45.43264" lon="6.69995">
        <ele>1393</ele>
        <time>2010-09-19T14:56:34Z</time>
      </trkpt>
      <trkpt lat="45.43279" lon="6.70002">
        <ele>1406</ele>
        <time>2010-09-19T14:56:37Z</time>
      </trkpt>
      <trkpt lat="45.43293" lon="6.70005">
        <ele>1406</ele>
        <time>2010-09-19T14:56:40Z</time>
      </trkpt>
      <trkpt lat="45.43307" lon="6.70003">
        <ele>1405</ele>
        <time>2010-09-19T14:56:45Z</time>
      </trkpt>
      <trkpt lat="45.43318" lon="6.70005">
        <ele>1404</ele>
        <time>2010-09-19T14:56:47Z</time>
      </trkpt>
      <trkpt lat="45.43735" lon="6.70007">
        <ele>1545</ele>
        <time>2010-09-19T14:59:57Z</time>
      </trkpt>
      <trkpt lat="45.43735" lon="6.70007">
        <ele>1545</ele>
        <time>2010-09-19T14:59:57Z</time>
      </trkpt>
      <trkpt lat="45.43698" lon="6.69999">
        <ele>1518</ele>
        <time>2010-09-19T14:59:58Z</time>
      </trkpt>
      <trkpt lat="45.43677" lon="6.69994">
        <ele>1502</ele>
        <time>2010-09-19T14:59:59Z</time>
      </trkpt>
      <trkpt lat="45.4366" lon="6.69991">
        <ele>1477</ele>
        <time>2010-09-19T15:00:00Z</time>
      </trkpt>
      <trkpt lat="45.43646" lon="6.69988">
        <ele>1468</ele>
        <time>2010-09-19T15:00:01Z</time>
      </trkpt>
      <trkpt lat="45.4363" lon="6.69984">
        <ele>1460</ele>
        <time>2010-09-19T15:00:02Z</time>
      </trkpt>
      <trkpt lat="45.43617" lon="6.69981">
        <ele>1454</ele>
        <time>2010-09-19T15:00:03Z</time>
      </trkpt>
      <trkpt lat="45.436" lon="6.69977">
        <ele>1448</ele>
        <time>2010-09-19T15:00:05Z</time>
      </trkpt>
      <trkpt lat="45.43577" lon="6.69972">
        <ele>1414</ele>
        <time>2010-09-19T15:00:07Z</time>
      </trkpt>
    </trkseg>
  </trk>
</gpx>